<?xml version="1.0" encoding="UTF-8" standalone="no" ?>
<gpx xmlns="http://www.topografix.com/GPX/1/1" xmlns:xsi="http://www.w3.org/2001/XMLSchema-instance" xsi:schemaLocation="http://www.topografix.com/GPX/1/1 http://www.topografix.com/GPX/1/1/gpx.xsd" version="1.1" creator="VisuGPX - https://www.visugpx.com">
  <metadata>
    <name>bareges l'ayré</name>
  </metadata>
  <trk>
    <name><![CDATA[Tracé actuel: 27 FEV 2018 09:45]]></name>
    <extensions>
      <line xmlns="http://www.topografix.com/GPX/gpx_style/0/2">
        <color>0000FF</color>
        <width>4</width>
      </line>
    </extensions>
    <trkseg>
      <trkpt lat="42.89601" lon="0.06474">
        <ele>1265.71</ele>
        <time>2018-02-27T08:45:36Z</time>
      </trkpt>
      <trkpt lat="42.89601" lon="0.06475">
        <ele>1264.75</ele>
        <time>2018-02-27T08:45:55Z</time>
      </trkpt>
      <trkpt lat="42.89601" lon="0.06473">
        <ele>1264.27</ele>
        <time>2018-02-27T08:46:26Z</time>
      </trkpt>
      <trkpt lat="42.896" lon="0.06473">
        <ele>1263.79</ele>
        <time>2018-02-27T08:46:44Z</time>
      </trkpt>
      <trkpt lat="42.896" lon="0.0647">
        <ele>1263.31</ele>
        <time>2018-02-27T08:47:08Z</time>
      </trkpt>
      <trkpt lat="42.89596" lon="0.06471">
        <ele>1263.79</ele>
        <time>2018-02-27T08:47:38Z</time>
      </trkpt>
      <trkpt lat="42.89596" lon="0.0647">
        <ele>1262.83</ele>
        <time>2018-02-27T08:48:07Z</time>
      </trkpt>
      <trkpt lat="42.89595" lon="0.06469">
        <ele>1262.35</ele>
        <time>2018-02-27T08:48:37Z</time>
      </trkpt>
      <trkpt lat="42.89596" lon="0.06478">
        <ele>1261.39</ele>
        <time>2018-02-27T08:48:54Z</time>
      </trkpt>
      <trkpt lat="42.89597" lon="0.06477">
        <ele>1265.71</ele>
        <time>2018-02-27T08:48:55Z</time>
      </trkpt>
      <trkpt lat="42.89598" lon="0.06476">
        <ele>1263.31</ele>
        <time>2018-02-27T08:49:20Z</time>
      </trkpt>
      <trkpt lat="42.89598" lon="0.06472">
        <ele>1263.31</ele>
        <time>2018-02-27T08:49:42Z</time>
      </trkpt>
      <trkpt lat="42.896" lon="0.06471">
        <ele>1262.83</ele>
        <time>2018-02-27T08:50:04Z</time>
      </trkpt>
      <trkpt lat="42.89605" lon="0.06477">
        <ele>1262.83</ele>
        <time>2018-02-27T08:50:46Z</time>
      </trkpt>
      <trkpt lat="42.89603" lon="0.06477">
        <ele>1259.46</ele>
        <time>2018-02-27T08:51:01Z</time>
      </trkpt>
      <trkpt lat="42.89598" lon="0.06478">
        <ele>1261.87</ele>
        <time>2018-02-27T08:51:20Z</time>
      </trkpt>
      <trkpt lat="42.89602" lon="0.06477">
        <ele>1261.39</ele>
        <time>2018-02-27T08:51:40Z</time>
      </trkpt>
      <trkpt lat="42.89601" lon="0.06477">
        <ele>1255.62</ele>
        <time>2018-02-27T08:51:48Z</time>
      </trkpt>
      <trkpt lat="42.89602" lon="0.06477">
        <ele>1265.71</ele>
        <time>2018-02-27T08:51:49Z</time>
      </trkpt>
      <trkpt lat="42.89601" lon="0.06477">
        <ele>1262.35</ele>
        <time>2018-02-27T08:51:50Z</time>
      </trkpt>
      <trkpt lat="42.89602" lon="0.06477">
        <ele>1261.39</ele>
        <time>2018-02-27T08:51:52Z</time>
      </trkpt>
      <trkpt lat="42.89604" lon="0.06474">
        <ele>1261.39</ele>
        <time>2018-02-27T08:52:11Z</time>
      </trkpt>
      <trkpt lat="42.89602" lon="0.06475">
        <ele>1261.39</ele>
        <time>2018-02-27T08:52:30Z</time>
      </trkpt>
      <trkpt lat="42.89603" lon="0.06473">
        <ele>1260.91</ele>
        <time>2018-02-27T08:52:51Z</time>
      </trkpt>
      <trkpt lat="42.89598" lon="0.06476">
        <ele>1260.43</ele>
        <time>2018-02-27T08:53:06Z</time>
      </trkpt>
      <trkpt lat="42.89598" lon="0.06469">
        <ele>1260.91</ele>
        <time>2018-02-27T08:53:29Z</time>
      </trkpt>
      <trkpt lat="42.89597" lon="0.06475">
        <ele>1260.43</ele>
        <time>2018-02-27T08:54:16Z</time>
      </trkpt>
      <trkpt lat="42.89602" lon="0.06486">
        <ele>1259.94</ele>
        <time>2018-02-27T08:54:30Z</time>
      </trkpt>
      <trkpt lat="42.89604" lon="0.0649">
        <ele>1259.94</ele>
        <time>2018-02-27T08:54:46Z</time>
      </trkpt>
      <trkpt lat="42.89605" lon="0.06505">
        <ele>1259.46</ele>
        <time>2018-02-27T08:55:02Z</time>
      </trkpt>
      <trkpt lat="42.89611" lon="0.06518">
        <ele>1259.46</ele>
        <time>2018-02-27T08:55:16Z</time>
      </trkpt>
      <trkpt lat="42.89622" lon="0.06531">
        <ele>1261.87</ele>
        <time>2018-02-27T08:55:32Z</time>
      </trkpt>
      <trkpt lat="42.89625" lon="0.06544">
        <ele>1263.31</ele>
        <time>2018-02-27T08:55:46Z</time>
      </trkpt>
      <trkpt lat="42.89628" lon="0.06562">
        <ele>1263.79</ele>
        <time>2018-02-27T08:56:03Z</time>
      </trkpt>
      <trkpt lat="42.89629" lon="0.06563">
        <ele>1263.79</ele>
        <time>2018-02-27T08:56:05Z</time>
      </trkpt>
      <trkpt lat="42.89636" lon="0.06573">
        <ele>1264.75</ele>
        <time>2018-02-27T08:56:16Z</time>
      </trkpt>
      <trkpt lat="42.89645" lon="0.06585">
        <ele>1265.23</ele>
        <time>2018-02-27T08:56:31Z</time>
      </trkpt>
      <trkpt lat="42.8965" lon="0.06591">
        <ele>1266.67</ele>
        <time>2018-02-27T08:56:39Z</time>
      </trkpt>
      <trkpt lat="42.89657" lon="0.06611">
        <ele>1267.16</ele>
        <time>2018-02-27T08:56:56Z</time>
      </trkpt>
      <trkpt lat="42.89657" lon="0.06615">
        <ele>1266.67</ele>
        <time>2018-02-27T08:56:59Z</time>
      </trkpt>
      <trkpt lat="42.89662" lon="0.06632">
        <ele>1268.12</ele>
        <time>2018-02-27T08:57:14Z</time>
      </trkpt>
      <trkpt lat="42.89666" lon="0.0664">
        <ele>1268.6</ele>
        <time>2018-02-27T08:57:28Z</time>
      </trkpt>
      <trkpt lat="42.89663" lon="0.06643">
        <ele>1269.56</ele>
        <time>2018-02-27T08:57:46Z</time>
      </trkpt>
      <trkpt lat="42.89667" lon="0.06636">
        <ele>1269.08</ele>
        <time>2018-02-27T08:58:01Z</time>
      </trkpt>
      <trkpt lat="42.89667" lon="0.06634">
        <ele>1265.23</ele>
        <time>2018-02-27T08:58:09Z</time>
      </trkpt>
      <trkpt lat="42.89668" lon="0.06634">
        <ele>1268.6</ele>
        <time>2018-02-27T08:58:14Z</time>
      </trkpt>
      <trkpt lat="42.89669" lon="0.0663">
        <ele>1269.56</ele>
        <time>2018-02-27T08:58:36Z</time>
      </trkpt>
      <trkpt lat="42.89668" lon="0.0663">
        <ele>1265.23</ele>
        <time>2018-02-27T08:58:37Z</time>
      </trkpt>
      <trkpt lat="42.89668" lon="0.06629">
        <ele>1271</ele>
        <time>2018-02-27T08:58:38Z</time>
      </trkpt>
      <trkpt lat="42.89667" lon="0.0663">
        <ele>1266.19</ele>
        <time>2018-02-27T08:58:42Z</time>
      </trkpt>
      <trkpt lat="42.89668" lon="0.06629">
        <ele>1271.96</ele>
        <time>2018-02-27T08:58:44Z</time>
      </trkpt>
      <trkpt lat="42.89667" lon="0.06629">
        <ele>1268.6</ele>
        <time>2018-02-27T08:58:45Z</time>
      </trkpt>
      <trkpt lat="42.89667" lon="0.06627">
        <ele>1260.91</ele>
        <time>2018-02-27T08:58:54Z</time>
      </trkpt>
      <trkpt lat="42.89666" lon="0.06628">
        <ele>1272.92</ele>
        <time>2018-02-27T08:58:55Z</time>
      </trkpt>
      <trkpt lat="42.89664" lon="0.06628">
        <ele>1268.12</ele>
        <time>2018-02-27T08:59:14Z</time>
      </trkpt>
      <trkpt lat="42.89663" lon="0.06626">
        <ele>1268.6</ele>
        <time>2018-02-27T08:59:31Z</time>
      </trkpt>
      <trkpt lat="42.89657" lon="0.06635">
        <ele>1268.12</ele>
        <time>2018-02-27T08:59:52Z</time>
      </trkpt>
      <trkpt lat="42.89655" lon="0.06631">
        <ele>1268.6</ele>
        <time>2018-02-27T09:00:06Z</time>
      </trkpt>
      <trkpt lat="42.89655" lon="0.06628">
        <ele>1268.6</ele>
        <time>2018-02-27T09:00:33Z</time>
      </trkpt>
      <trkpt lat="42.89662" lon="0.06638">
        <ele>1269.08</ele>
        <time>2018-02-27T09:00:50Z</time>
      </trkpt>
      <trkpt lat="42.89662" lon="0.06643">
        <ele>1269.08</ele>
        <time>2018-02-27T09:01:11Z</time>
      </trkpt>
      <trkpt lat="42.89654" lon="0.06643">
        <ele>1268.6</ele>
        <time>2018-02-27T09:01:28Z</time>
      </trkpt>
      <trkpt lat="42.89656" lon="0.06639">
        <ele>1268.6</ele>
        <time>2018-02-27T09:01:49Z</time>
      </trkpt>
      <trkpt lat="42.89657" lon="0.06624">
        <ele>1270.04</ele>
        <time>2018-02-27T09:02:03Z</time>
      </trkpt>
      <trkpt lat="42.89656" lon="0.06623">
        <ele>1269.56</ele>
        <time>2018-02-27T09:02:04Z</time>
      </trkpt>
      <trkpt lat="42.89655" lon="0.0662">
        <ele>1269.08</ele>
        <time>2018-02-27T09:02:06Z</time>
      </trkpt>
      <trkpt lat="42.89653" lon="0.06611">
        <ele>1270.52</ele>
        <time>2018-02-27T09:02:13Z</time>
      </trkpt>
      <trkpt lat="42.89652" lon="0.0661">
        <ele>1270.04</ele>
        <time>2018-02-27T09:02:14Z</time>
      </trkpt>
      <trkpt lat="42.89645" lon="0.066">
        <ele>1270.52</ele>
        <time>2018-02-27T09:02:23Z</time>
      </trkpt>
      <trkpt lat="42.89639" lon="0.06591">
        <ele>1271</ele>
        <time>2018-02-27T09:02:39Z</time>
      </trkpt>
      <trkpt lat="42.89634" lon="0.06588">
        <ele>1271.96</ele>
        <time>2018-02-27T09:02:50Z</time>
      </trkpt>
      <trkpt lat="42.89623" lon="0.06582">
        <ele>1272.44</ele>
        <time>2018-02-27T09:03:05Z</time>
      </trkpt>
      <trkpt lat="42.89614" lon="0.06579">
        <ele>1273.4</ele>
        <time>2018-02-27T09:03:18Z</time>
      </trkpt>
      <trkpt lat="42.89602" lon="0.06571">
        <ele>1275.33</ele>
        <time>2018-02-27T09:03:35Z</time>
      </trkpt>
      <trkpt lat="42.89592" lon="0.06565">
        <ele>1277.25</ele>
        <time>2018-02-27T09:03:55Z</time>
      </trkpt>
      <trkpt lat="42.896" lon="0.06564">
        <ele>1278.21</ele>
        <time>2018-02-27T09:04:11Z</time>
      </trkpt>
      <trkpt lat="42.89606" lon="0.0654">
        <ele>1279.17</ele>
        <time>2018-02-27T09:04:27Z</time>
      </trkpt>
      <trkpt lat="42.8959" lon="0.06529">
        <ele>1280.61</ele>
        <time>2018-02-27T09:04:45Z</time>
      </trkpt>
      <trkpt lat="42.89583" lon="0.06515">
        <ele>1281.09</ele>
        <time>2018-02-27T09:05:00Z</time>
      </trkpt>
      <trkpt lat="42.89583" lon="0.06492">
        <ele>1280.61</ele>
        <time>2018-02-27T09:05:15Z</time>
      </trkpt>
      <trkpt lat="42.89582" lon="0.06482">
        <ele>1280.13</ele>
        <time>2018-02-27T09:05:28Z</time>
      </trkpt>
      <trkpt lat="42.89583" lon="0.06481">
        <ele>1280.13</ele>
        <time>2018-02-27T09:05:29Z</time>
      </trkpt>
      <trkpt lat="42.89583" lon="0.06467">
        <ele>1280.13</ele>
        <time>2018-02-27T09:05:43Z</time>
      </trkpt>
      <trkpt lat="42.89579" lon="0.06455">
        <ele>1280.61</ele>
        <time>2018-02-27T09:05:59Z</time>
      </trkpt>
      <trkpt lat="42.89567" lon="0.06449">
        <ele>1281.09</ele>
        <time>2018-02-27T09:06:10Z</time>
      </trkpt>
      <trkpt lat="42.89558" lon="0.06445">
        <ele>1281.09</ele>
        <time>2018-02-27T09:06:15Z</time>
      </trkpt>
      <trkpt lat="42.89544" lon="0.06436">
        <ele>1282.06</ele>
        <time>2018-02-27T09:06:28Z</time>
      </trkpt>
      <trkpt lat="42.89538" lon="0.06428">
        <ele>1283.02</ele>
        <time>2018-02-27T09:06:41Z</time>
      </trkpt>
      <trkpt lat="42.89531" lon="0.0642">
        <ele>1283.98</ele>
        <time>2018-02-27T09:06:56Z</time>
      </trkpt>
      <trkpt lat="42.89522" lon="0.06418">
        <ele>1285.42</ele>
        <time>2018-02-27T09:07:11Z</time>
      </trkpt>
      <trkpt lat="42.89504" lon="0.06413">
        <ele>1286.86</ele>
        <time>2018-02-27T09:07:24Z</time>
      </trkpt>
      <trkpt lat="42.89498" lon="0.06405">
        <ele>1288.78</ele>
        <time>2018-02-27T09:07:39Z</time>
      </trkpt>
      <trkpt lat="42.895" lon="0.06391">
        <ele>1291.19</ele>
        <time>2018-02-27T09:07:55Z</time>
      </trkpt>
      <trkpt lat="42.89491" lon="0.06383">
        <ele>1293.11</ele>
        <time>2018-02-27T09:08:10Z</time>
      </trkpt>
      <trkpt lat="42.89474" lon="0.06373">
        <ele>1294.55</ele>
        <time>2018-02-27T09:08:26Z</time>
      </trkpt>
      <trkpt lat="42.8946" lon="0.06364">
        <ele>1295.99</ele>
        <time>2018-02-27T09:08:44Z</time>
      </trkpt>
      <trkpt lat="42.89461" lon="0.06365">
        <ele>1295.51</ele>
        <time>2018-02-27T09:09:03Z</time>
      </trkpt>
      <trkpt lat="42.89464" lon="0.06364">
        <ele>1295.03</ele>
        <time>2018-02-27T09:09:34Z</time>
      </trkpt>
      <trkpt lat="42.89466" lon="0.06363">
        <ele>1295.51</ele>
        <time>2018-02-27T09:09:52Z</time>
      </trkpt>
      <trkpt lat="42.89468" lon="0.0638">
        <ele>1297.44</ele>
        <time>2018-02-27T09:10:05Z</time>
      </trkpt>
      <trkpt lat="42.8947" lon="0.06389">
        <ele>1299.84</ele>
        <time>2018-02-27T09:10:19Z</time>
      </trkpt>
      <trkpt lat="42.89462" lon="0.06383">
        <ele>1302.24</ele>
        <time>2018-02-27T09:10:36Z</time>
      </trkpt>
      <trkpt lat="42.8946" lon="0.06381">
        <ele>1302.24</ele>
        <time>2018-02-27T09:10:56Z</time>
      </trkpt>
      <trkpt lat="42.89465" lon="0.06388">
        <ele>1296.48</ele>
        <time>2018-02-27T09:11:17Z</time>
      </trkpt>
      <trkpt lat="42.89466" lon="0.06388">
        <ele>1306.09</ele>
        <time>2018-02-27T09:11:18Z</time>
      </trkpt>
      <trkpt lat="42.89466" lon="0.06387">
        <ele>1302.24</ele>
        <time>2018-02-27T09:11:21Z</time>
      </trkpt>
      <trkpt lat="42.89464" lon="0.06376">
        <ele>1303.69</ele>
        <time>2018-02-27T09:11:38Z</time>
      </trkpt>
      <trkpt lat="42.89458" lon="0.06361">
        <ele>1305.61</ele>
        <time>2018-02-27T09:11:52Z</time>
      </trkpt>
      <trkpt lat="42.89441" lon="0.06362">
        <ele>1307.05</ele>
        <time>2018-02-27T09:12:07Z</time>
      </trkpt>
      <trkpt lat="42.89446" lon="0.06377">
        <ele>1309.93</ele>
        <time>2018-02-27T09:12:21Z</time>
      </trkpt>
      <trkpt lat="42.8945" lon="0.0638">
        <ele>1312.34</ele>
        <time>2018-02-27T09:12:37Z</time>
      </trkpt>
      <trkpt lat="42.89443" lon="0.06381">
        <ele>1314.74</ele>
        <time>2018-02-27T09:12:51Z</time>
      </trkpt>
      <trkpt lat="42.89447" lon="0.06395">
        <ele>1317.62</ele>
        <time>2018-02-27T09:13:07Z</time>
      </trkpt>
      <trkpt lat="42.89454" lon="0.0641">
        <ele>1320.03</ele>
        <time>2018-02-27T09:13:23Z</time>
      </trkpt>
      <trkpt lat="42.89454" lon="0.0643">
        <ele>1321.47</ele>
        <time>2018-02-27T09:13:41Z</time>
      </trkpt>
      <trkpt lat="42.89454" lon="0.06448">
        <ele>1321.47</ele>
        <time>2018-02-27T09:13:55Z</time>
      </trkpt>
      <trkpt lat="42.89459" lon="0.06462">
        <ele>1322.43</ele>
        <time>2018-02-27T09:14:09Z</time>
      </trkpt>
      <trkpt lat="42.89458" lon="0.06477">
        <ele>1325.31</ele>
        <time>2018-02-27T09:14:28Z</time>
      </trkpt>
      <trkpt lat="42.89466" lon="0.0649">
        <ele>1326.76</ele>
        <time>2018-02-27T09:14:43Z</time>
      </trkpt>
      <trkpt lat="42.89477" lon="0.06494">
        <ele>1328.2</ele>
        <time>2018-02-27T09:14:57Z</time>
      </trkpt>
      <trkpt lat="42.89496" lon="0.06497">
        <ele>1330.12</ele>
        <time>2018-02-27T09:15:16Z</time>
      </trkpt>
      <trkpt lat="42.89503" lon="0.06512">
        <ele>1331.56</ele>
        <time>2018-02-27T09:15:31Z</time>
      </trkpt>
      <trkpt lat="42.89509" lon="0.06526">
        <ele>1333.97</ele>
        <time>2018-02-27T09:15:48Z</time>
      </trkpt>
      <trkpt lat="42.89513" lon="0.0654">
        <ele>1334.93</ele>
        <time>2018-02-27T09:16:05Z</time>
      </trkpt>
      <trkpt lat="42.89511" lon="0.06545">
        <ele>1337.81</ele>
        <time>2018-02-27T09:16:22Z</time>
      </trkpt>
      <trkpt lat="42.89502" lon="0.06529">
        <ele>1339.73</ele>
        <time>2018-02-27T09:16:38Z</time>
      </trkpt>
      <trkpt lat="42.89494" lon="0.06521">
        <ele>1341.66</ele>
        <time>2018-02-27T09:16:53Z</time>
      </trkpt>
      <trkpt lat="42.89485" lon="0.06511">
        <ele>1343.58</ele>
        <time>2018-02-27T09:17:08Z</time>
      </trkpt>
      <trkpt lat="42.89476" lon="0.0652">
        <ele>1345.5</ele>
        <time>2018-02-27T09:17:23Z</time>
      </trkpt>
      <trkpt lat="42.8947" lon="0.06531">
        <ele>1345.98</ele>
        <time>2018-02-27T09:17:45Z</time>
      </trkpt>
      <trkpt lat="42.89475" lon="0.06538">
        <ele>1346.94</ele>
        <time>2018-02-27T09:18:01Z</time>
      </trkpt>
      <trkpt lat="42.89479" lon="0.06549">
        <ele>1348.87</ele>
        <time>2018-02-27T09:18:17Z</time>
      </trkpt>
      <trkpt lat="42.89474" lon="0.0656">
        <ele>1351.27</ele>
        <time>2018-02-27T09:18:31Z</time>
      </trkpt>
      <trkpt lat="42.89467" lon="0.06553">
        <ele>1353.67</ele>
        <time>2018-02-27T09:18:49Z</time>
      </trkpt>
      <trkpt lat="42.89466" lon="0.06552">
        <ele>1354.15</ele>
        <time>2018-02-27T09:18:50Z</time>
      </trkpt>
      <trkpt lat="42.89461" lon="0.06537">
        <ele>1355.12</ele>
        <time>2018-02-27T09:19:06Z</time>
      </trkpt>
      <trkpt lat="42.89446" lon="0.06537">
        <ele>1357.04</ele>
        <time>2018-02-27T09:19:23Z</time>
      </trkpt>
      <trkpt lat="42.89447" lon="0.06554">
        <ele>1359.44</ele>
        <time>2018-02-27T09:19:37Z</time>
      </trkpt>
      <trkpt lat="42.89445" lon="0.06566">
        <ele>1362.33</ele>
        <time>2018-02-27T09:19:54Z</time>
      </trkpt>
      <trkpt lat="42.89449" lon="0.06581">
        <ele>1364.73</ele>
        <time>2018-02-27T09:20:08Z</time>
      </trkpt>
      <trkpt lat="42.89448" lon="0.0658">
        <ele>1367.61</ele>
        <time>2018-02-27T09:20:26Z</time>
      </trkpt>
      <trkpt lat="42.89446" lon="0.06587">
        <ele>1370.02</ele>
        <time>2018-02-27T09:20:42Z</time>
      </trkpt>
      <trkpt lat="42.89444" lon="0.06575">
        <ele>1371.94</ele>
        <time>2018-02-27T09:20:59Z</time>
      </trkpt>
      <trkpt lat="42.89439" lon="0.06565">
        <ele>1374.34</ele>
        <time>2018-02-27T09:21:15Z</time>
      </trkpt>
      <trkpt lat="42.89425" lon="0.06556">
        <ele>1375.3</ele>
        <time>2018-02-27T09:21:29Z</time>
      </trkpt>
      <trkpt lat="42.89413" lon="0.06544">
        <ele>1377.71</ele>
        <time>2018-02-27T09:21:48Z</time>
      </trkpt>
      <trkpt lat="42.89403" lon="0.06531">
        <ele>1378.67</ele>
        <time>2018-02-27T09:22:04Z</time>
      </trkpt>
      <trkpt lat="42.89397" lon="0.06527">
        <ele>1379.15</ele>
        <time>2018-02-27T09:22:12Z</time>
      </trkpt>
      <trkpt lat="42.89393" lon="0.06525">
        <ele>1379.15</ele>
        <time>2018-02-27T09:22:15Z</time>
      </trkpt>
      <trkpt lat="42.89383" lon="0.06513">
        <ele>1381.07</ele>
        <time>2018-02-27T09:22:30Z</time>
      </trkpt>
      <trkpt lat="42.8938" lon="0.06503">
        <ele>1382.99</ele>
        <time>2018-02-27T09:22:42Z</time>
      </trkpt>
      <trkpt lat="42.89372" lon="0.06513">
        <ele>1384.92</ele>
        <time>2018-02-27T09:22:57Z</time>
      </trkpt>
      <trkpt lat="42.89371" lon="0.06524">
        <ele>1386.36</ele>
        <time>2018-02-27T09:23:11Z</time>
      </trkpt>
      <trkpt lat="42.89374" lon="0.06528">
        <ele>1387.32</ele>
        <time>2018-02-27T09:23:26Z</time>
      </trkpt>
      <trkpt lat="42.89369" lon="0.0653">
        <ele>1387.32</ele>
        <time>2018-02-27T09:23:53Z</time>
      </trkpt>
      <trkpt lat="42.89364" lon="0.06528">
        <ele>1386.84</ele>
        <time>2018-02-27T09:24:19Z</time>
      </trkpt>
      <trkpt lat="42.89366" lon="0.06527">
        <ele>1387.32</ele>
        <time>2018-02-27T09:24:47Z</time>
      </trkpt>
      <trkpt lat="42.89373" lon="0.06538">
        <ele>1386.84</ele>
        <time>2018-02-27T09:25:09Z</time>
      </trkpt>
      <trkpt lat="42.89377" lon="0.06542">
        <ele>1388.76</ele>
        <time>2018-02-27T09:25:30Z</time>
      </trkpt>
      <trkpt lat="42.89382" lon="0.06558">
        <ele>1390.2</ele>
        <time>2018-02-27T09:25:46Z</time>
      </trkpt>
      <trkpt lat="42.89383" lon="0.06571">
        <ele>1392.61</ele>
        <time>2018-02-27T09:26:02Z</time>
      </trkpt>
      <trkpt lat="42.89384" lon="0.06568">
        <ele>1395.49</ele>
        <time>2018-02-27T09:26:19Z</time>
      </trkpt>
      <trkpt lat="42.89375" lon="0.06556">
        <ele>1397.89</ele>
        <time>2018-02-27T09:26:34Z</time>
      </trkpt>
      <trkpt lat="42.89364" lon="0.0655">
        <ele>1399.34</ele>
        <time>2018-02-27T09:26:46Z</time>
      </trkpt>
      <trkpt lat="42.89366" lon="0.0657">
        <ele>1401.74</ele>
        <time>2018-02-27T09:27:01Z</time>
      </trkpt>
      <trkpt lat="42.89367" lon="0.06588">
        <ele>1403.66</ele>
        <time>2018-02-27T09:27:18Z</time>
      </trkpt>
      <trkpt lat="42.89368" lon="0.06591">
        <ele>1406.55</ele>
        <time>2018-02-27T09:27:32Z</time>
      </trkpt>
      <trkpt lat="42.89363" lon="0.06577">
        <ele>1408.47</ele>
        <time>2018-02-27T09:27:48Z</time>
      </trkpt>
      <trkpt lat="42.89354" lon="0.06567">
        <ele>1409.91</ele>
        <time>2018-02-27T09:28:03Z</time>
      </trkpt>
      <trkpt lat="42.89351" lon="0.06568">
        <ele>1412.31</ele>
        <time>2018-02-27T09:28:15Z</time>
      </trkpt>
      <trkpt lat="42.89356" lon="0.06589">
        <ele>1414.24</ele>
        <time>2018-02-27T09:28:31Z</time>
      </trkpt>
      <trkpt lat="42.89355" lon="0.06602">
        <ele>1416.16</ele>
        <time>2018-02-27T09:28:44Z</time>
      </trkpt>
      <trkpt lat="42.89352" lon="0.06596">
        <ele>1418.08</ele>
        <time>2018-02-27T09:28:58Z</time>
      </trkpt>
      <trkpt lat="42.89349" lon="0.06584">
        <ele>1419.52</ele>
        <time>2018-02-27T09:29:11Z</time>
      </trkpt>
      <trkpt lat="42.89339" lon="0.06582">
        <ele>1421.45</ele>
        <time>2018-02-27T09:29:24Z</time>
      </trkpt>
      <trkpt lat="42.89346" lon="0.06598">
        <ele>1422.41</ele>
        <time>2018-02-27T09:29:37Z</time>
      </trkpt>
      <trkpt lat="42.89347" lon="0.06613">
        <ele>1424.33</ele>
        <time>2018-02-27T09:29:53Z</time>
      </trkpt>
      <trkpt lat="42.89342" lon="0.06603">
        <ele>1426.25</ele>
        <time>2018-02-27T09:30:10Z</time>
      </trkpt>
      <trkpt lat="42.89338" lon="0.0659">
        <ele>1428.18</ele>
        <time>2018-02-27T09:30:24Z</time>
      </trkpt>
      <trkpt lat="42.89333" lon="0.0658">
        <ele>1429.62</ele>
        <time>2018-02-27T09:30:38Z</time>
      </trkpt>
      <trkpt lat="42.89319" lon="0.06575">
        <ele>1431.06</ele>
        <time>2018-02-27T09:30:50Z</time>
      </trkpt>
      <trkpt lat="42.89307" lon="0.06572">
        <ele>1432.02</ele>
        <time>2018-02-27T09:31:05Z</time>
      </trkpt>
      <trkpt lat="42.89289" lon="0.06567">
        <ele>1432.5</ele>
        <time>2018-02-27T09:31:22Z</time>
      </trkpt>
      <trkpt lat="42.89282" lon="0.06563">
        <ele>1433.94</ele>
        <time>2018-02-27T09:31:36Z</time>
      </trkpt>
      <trkpt lat="42.89272" lon="0.06558">
        <ele>1435.39</ele>
        <time>2018-02-27T09:31:50Z</time>
      </trkpt>
      <trkpt lat="42.89266" lon="0.06554">
        <ele>1436.35</ele>
        <time>2018-02-27T09:32:04Z</time>
      </trkpt>
      <trkpt lat="42.89262" lon="0.06556">
        <ele>1436.35</ele>
        <time>2018-02-27T09:32:20Z</time>
      </trkpt>
      <trkpt lat="42.89262" lon="0.06558">
        <ele>1440.67</ele>
        <time>2018-02-27T09:32:32Z</time>
      </trkpt>
      <trkpt lat="42.89263" lon="0.06558">
        <ele>1436.35</ele>
        <time>2018-02-27T09:32:33Z</time>
      </trkpt>
      <trkpt lat="42.89258" lon="0.06559">
        <ele>1436.35</ele>
        <time>2018-02-27T09:32:52Z</time>
      </trkpt>
      <trkpt lat="42.89262" lon="0.06574">
        <ele>1439.71</ele>
        <time>2018-02-27T09:33:06Z</time>
      </trkpt>
      <trkpt lat="42.89271" lon="0.0658">
        <ele>1441.63</ele>
        <time>2018-02-27T09:33:20Z</time>
      </trkpt>
      <trkpt lat="42.89276" lon="0.0659">
        <ele>1443.56</ele>
        <time>2018-02-27T09:33:36Z</time>
      </trkpt>
      <trkpt lat="42.89272" lon="0.0659">
        <ele>1445.48</ele>
        <time>2018-02-27T09:33:51Z</time>
      </trkpt>
      <trkpt lat="42.89264" lon="0.06587">
        <ele>1447.88</ele>
        <time>2018-02-27T09:34:04Z</time>
      </trkpt>
      <trkpt lat="42.89258" lon="0.06585">
        <ele>1449.32</ele>
        <time>2018-02-27T09:34:17Z</time>
      </trkpt>
      <trkpt lat="42.89247" lon="0.0658">
        <ele>1451.25</ele>
        <time>2018-02-27T09:34:31Z</time>
      </trkpt>
      <trkpt lat="42.89242" lon="0.06592">
        <ele>1453.17</ele>
        <time>2018-02-27T09:34:46Z</time>
      </trkpt>
      <trkpt lat="42.89249" lon="0.06607">
        <ele>1455.09</ele>
        <time>2018-02-27T09:35:00Z</time>
      </trkpt>
      <trkpt lat="42.89255" lon="0.0662">
        <ele>1457.02</ele>
        <time>2018-02-27T09:35:15Z</time>
      </trkpt>
      <trkpt lat="42.89259" lon="0.06627">
        <ele>1458.94</ele>
        <time>2018-02-27T09:35:30Z</time>
      </trkpt>
      <trkpt lat="42.89261" lon="0.06624">
        <ele>1457.5</ele>
        <time>2018-02-27T09:35:51Z</time>
      </trkpt>
      <trkpt lat="42.89264" lon="0.06618">
        <ele>1457.5</ele>
        <time>2018-02-27T09:36:18Z</time>
      </trkpt>
      <trkpt lat="42.89267" lon="0.06617">
        <ele>1457.02</ele>
        <time>2018-02-27T09:36:40Z</time>
      </trkpt>
      <trkpt lat="42.89265" lon="0.06621">
        <ele>1456.53</ele>
        <time>2018-02-27T09:37:02Z</time>
      </trkpt>
      <trkpt lat="42.89262" lon="0.06621">
        <ele>1456.05</ele>
        <time>2018-02-27T09:37:28Z</time>
      </trkpt>
      <trkpt lat="42.89258" lon="0.06624">
        <ele>1456.53</ele>
        <time>2018-02-27T09:37:47Z</time>
      </trkpt>
      <trkpt lat="42.89256" lon="0.06624">
        <ele>1456.05</ele>
        <time>2018-02-27T09:37:53Z</time>
      </trkpt>
      <trkpt lat="42.89258" lon="0.06626">
        <ele>1460.38</ele>
        <time>2018-02-27T09:38:01Z</time>
      </trkpt>
      <trkpt lat="42.89256" lon="0.06624">
        <ele>1457.02</ele>
        <time>2018-02-27T09:38:05Z</time>
      </trkpt>
      <trkpt lat="42.89262" lon="0.06623">
        <ele>1457.98</ele>
        <time>2018-02-27T09:38:30Z</time>
      </trkpt>
      <trkpt lat="42.89262" lon="0.0662">
        <ele>1457.98</ele>
        <time>2018-02-27T09:38:55Z</time>
      </trkpt>
      <trkpt lat="42.89258" lon="0.06622">
        <ele>1460.38</ele>
        <time>2018-02-27T09:39:15Z</time>
      </trkpt>
      <trkpt lat="42.8926" lon="0.06615">
        <ele>1460.38</ele>
        <time>2018-02-27T09:39:42Z</time>
      </trkpt>
      <trkpt lat="42.89252" lon="0.06617">
        <ele>1462.3</ele>
        <time>2018-02-27T09:39:57Z</time>
      </trkpt>
      <trkpt lat="42.89241" lon="0.06613">
        <ele>1463.26</ele>
        <time>2018-02-27T09:40:12Z</time>
      </trkpt>
      <trkpt lat="42.8923" lon="0.06612">
        <ele>1464.71</ele>
        <time>2018-02-27T09:40:25Z</time>
      </trkpt>
      <trkpt lat="42.89235" lon="0.06631">
        <ele>1466.63</ele>
        <time>2018-02-27T09:40:40Z</time>
      </trkpt>
      <trkpt lat="42.89244" lon="0.06648">
        <ele>1468.07</ele>
        <time>2018-02-27T09:40:54Z</time>
      </trkpt>
      <trkpt lat="42.89244" lon="0.06646">
        <ele>1470.47</ele>
        <time>2018-02-27T09:41:07Z</time>
      </trkpt>
      <trkpt lat="42.89233" lon="0.06635">
        <ele>1472.88</ele>
        <time>2018-02-27T09:41:23Z</time>
      </trkpt>
      <trkpt lat="42.89228" lon="0.06642">
        <ele>1474.8</ele>
        <time>2018-02-27T09:41:35Z</time>
      </trkpt>
      <trkpt lat="42.89234" lon="0.06656">
        <ele>1476.72</ele>
        <time>2018-02-27T09:41:48Z</time>
      </trkpt>
      <trkpt lat="42.8924" lon="0.06668">
        <ele>1478.65</ele>
        <time>2018-02-27T09:42:04Z</time>
      </trkpt>
      <trkpt lat="42.89233" lon="0.06661">
        <ele>1480.57</ele>
        <time>2018-02-27T09:42:19Z</time>
      </trkpt>
      <trkpt lat="42.89225" lon="0.06651">
        <ele>1482.49</ele>
        <time>2018-02-27T09:42:34Z</time>
      </trkpt>
      <trkpt lat="42.89218" lon="0.06641">
        <ele>1483.93</ele>
        <time>2018-02-27T09:42:51Z</time>
      </trkpt>
      <trkpt lat="42.89202" lon="0.06638">
        <ele>1485.37</ele>
        <time>2018-02-27T09:43:06Z</time>
      </trkpt>
      <trkpt lat="42.89209" lon="0.06655">
        <ele>1487.78</ele>
        <time>2018-02-27T09:43:23Z</time>
      </trkpt>
      <trkpt lat="42.89217" lon="0.06671">
        <ele>1489.7</ele>
        <time>2018-02-27T09:43:39Z</time>
      </trkpt>
      <trkpt lat="42.89219" lon="0.06684">
        <ele>1490.66</ele>
        <time>2018-02-27T09:43:52Z</time>
      </trkpt>
      <trkpt lat="42.89225" lon="0.06694">
        <ele>1493.06</ele>
        <time>2018-02-27T09:44:06Z</time>
      </trkpt>
      <trkpt lat="42.89227" lon="0.06708">
        <ele>1494.51</ele>
        <time>2018-02-27T09:44:20Z</time>
      </trkpt>
      <trkpt lat="42.8923" lon="0.06713">
        <ele>1495.47</ele>
        <time>2018-02-27T09:44:26Z</time>
      </trkpt>
      <trkpt lat="42.89237" lon="0.06724">
        <ele>1497.39</ele>
        <time>2018-02-27T09:44:42Z</time>
      </trkpt>
      <trkpt lat="42.89235" lon="0.06717">
        <ele>1499.31</ele>
        <time>2018-02-27T09:44:56Z</time>
      </trkpt>
      <trkpt lat="42.89225" lon="0.06708">
        <ele>1501.72</ele>
        <time>2018-02-27T09:45:14Z</time>
      </trkpt>
      <trkpt lat="42.89216" lon="0.06699">
        <ele>1503.16</ele>
        <time>2018-02-27T09:45:27Z</time>
      </trkpt>
      <trkpt lat="42.89205" lon="0.06689">
        <ele>1504.6</ele>
        <time>2018-02-27T09:45:43Z</time>
      </trkpt>
      <trkpt lat="42.89199" lon="0.06694">
        <ele>1507</ele>
        <time>2018-02-27T09:45:59Z</time>
      </trkpt>
      <trkpt lat="42.89202" lon="0.06706">
        <ele>1509.41</ele>
        <time>2018-02-27T09:46:11Z</time>
      </trkpt>
      <trkpt lat="42.89207" lon="0.06718">
        <ele>1509.89</ele>
        <time>2018-02-27T09:46:28Z</time>
      </trkpt>
      <trkpt lat="42.89213" lon="0.06731">
        <ele>1511.33</ele>
        <time>2018-02-27T09:46:43Z</time>
      </trkpt>
      <trkpt lat="42.89211" lon="0.0673">
        <ele>1513.73</ele>
        <time>2018-02-27T09:46:57Z</time>
      </trkpt>
      <trkpt lat="42.89203" lon="0.06722">
        <ele>1515.66</ele>
        <time>2018-02-27T09:47:11Z</time>
      </trkpt>
      <trkpt lat="42.89194" lon="0.06718">
        <ele>1517.58</ele>
        <time>2018-02-27T09:47:28Z</time>
      </trkpt>
      <trkpt lat="42.89198" lon="0.06733">
        <ele>1519.02</ele>
        <time>2018-02-27T09:47:42Z</time>
      </trkpt>
      <trkpt lat="42.892" lon="0.06745">
        <ele>1520.46</ele>
        <time>2018-02-27T09:47:54Z</time>
      </trkpt>
      <trkpt lat="42.89199" lon="0.06755">
        <ele>1521.9</ele>
        <time>2018-02-27T09:48:07Z</time>
      </trkpt>
      <trkpt lat="42.89196" lon="0.06748">
        <ele>1524.79</ele>
        <time>2018-02-27T09:48:21Z</time>
      </trkpt>
      <trkpt lat="42.89181" lon="0.06736">
        <ele>1526.23</ele>
        <time>2018-02-27T09:48:38Z</time>
      </trkpt>
      <trkpt lat="42.89174" lon="0.06731">
        <ele>1527.67</ele>
        <time>2018-02-27T09:48:55Z</time>
      </trkpt>
      <trkpt lat="42.89166" lon="0.06731">
        <ele>1529.11</ele>
        <time>2018-02-27T09:49:10Z</time>
      </trkpt>
      <trkpt lat="42.89156" lon="0.06737">
        <ele>1530.08</ele>
        <time>2018-02-27T09:49:26Z</time>
      </trkpt>
      <trkpt lat="42.89152" lon="0.06737">
        <ele>1530.56</ele>
        <time>2018-02-27T09:49:39Z</time>
      </trkpt>
      <trkpt lat="42.8915" lon="0.0674">
        <ele>1531.04</ele>
        <time>2018-02-27T09:49:57Z</time>
      </trkpt>
      <trkpt lat="42.89147" lon="0.06738">
        <ele>1530.08</ele>
        <time>2018-02-27T09:50:12Z</time>
      </trkpt>
      <trkpt lat="42.89146" lon="0.06739">
        <ele>1530.56</ele>
        <time>2018-02-27T09:50:28Z</time>
      </trkpt>
      <trkpt lat="42.89145" lon="0.06734">
        <ele>1531.52</ele>
        <time>2018-02-27T09:50:57Z</time>
      </trkpt>
      <trkpt lat="42.89148" lon="0.06741">
        <ele>1531.04</ele>
        <time>2018-02-27T09:51:21Z</time>
      </trkpt>
      <trkpt lat="42.89147" lon="0.06736">
        <ele>1530.56</ele>
        <time>2018-02-27T09:51:40Z</time>
      </trkpt>
      <trkpt lat="42.89143" lon="0.06727">
        <ele>1530.56</ele>
        <time>2018-02-27T09:51:52Z</time>
      </trkpt>
      <trkpt lat="42.8914" lon="0.06723">
        <ele>1530.56</ele>
        <time>2018-02-27T09:52:05Z</time>
      </trkpt>
      <trkpt lat="42.89141" lon="0.0672">
        <ele>1530.56</ele>
        <time>2018-02-27T09:52:23Z</time>
      </trkpt>
      <trkpt lat="42.89137" lon="0.06718">
        <ele>1530.56</ele>
        <time>2018-02-27T09:52:37Z</time>
      </trkpt>
      <trkpt lat="42.8912" lon="0.06713">
        <ele>1531.04</ele>
        <time>2018-02-27T09:52:52Z</time>
      </trkpt>
      <trkpt lat="42.89105" lon="0.06712">
        <ele>1531.52</ele>
        <time>2018-02-27T09:53:06Z</time>
      </trkpt>
      <trkpt lat="42.89104" lon="0.06712">
        <ele>1531.04</ele>
        <time>2018-02-27T09:53:07Z</time>
      </trkpt>
      <trkpt lat="42.89089" lon="0.06721">
        <ele>1532</ele>
        <time>2018-02-27T09:53:21Z</time>
      </trkpt>
      <trkpt lat="42.89086" lon="0.06725">
        <ele>1531.52</ele>
        <time>2018-02-27T09:53:27Z</time>
      </trkpt>
      <trkpt lat="42.89071" lon="0.06731">
        <ele>1532</ele>
        <time>2018-02-27T09:53:42Z</time>
      </trkpt>
      <trkpt lat="42.89057" lon="0.06735">
        <ele>1531.52</ele>
        <time>2018-02-27T09:53:53Z</time>
      </trkpt>
      <trkpt lat="42.89056" lon="0.06737">
        <ele>1531.04</ele>
        <time>2018-02-27T09:54:05Z</time>
      </trkpt>
      <trkpt lat="42.89051" lon="0.06736">
        <ele>1530.56</ele>
        <time>2018-02-27T09:54:24Z</time>
      </trkpt>
      <trkpt lat="42.89042" lon="0.06734">
        <ele>1530.56</ele>
        <time>2018-02-27T09:54:45Z</time>
      </trkpt>
      <trkpt lat="42.89056" lon="0.06749">
        <ele>1531.04</ele>
        <time>2018-02-27T09:55:04Z</time>
      </trkpt>
      <trkpt lat="42.89064" lon="0.0674">
        <ele>1531.04</ele>
        <time>2018-02-27T09:55:12Z</time>
      </trkpt>
      <trkpt lat="42.89081" lon="0.06723">
        <ele>1531.52</ele>
        <time>2018-02-27T09:55:27Z</time>
      </trkpt>
      <trkpt lat="42.8909" lon="0.06716">
        <ele>1531.52</ele>
        <time>2018-02-27T09:55:43Z</time>
      </trkpt>
      <trkpt lat="42.89092" lon="0.06717">
        <ele>1531.04</ele>
        <time>2018-02-27T09:56:01Z</time>
      </trkpt>
      <trkpt lat="42.89095" lon="0.06716">
        <ele>1531.04</ele>
        <time>2018-02-27T09:56:04Z</time>
      </trkpt>
      <trkpt lat="42.89103" lon="0.06714">
        <ele>1530.56</ele>
        <time>2018-02-27T09:56:11Z</time>
      </trkpt>
      <trkpt lat="42.89115" lon="0.06717">
        <ele>1530.08</ele>
        <time>2018-02-27T09:56:23Z</time>
      </trkpt>
      <trkpt lat="42.89125" lon="0.06727">
        <ele>1529.59</ele>
        <time>2018-02-27T09:56:36Z</time>
      </trkpt>
      <trkpt lat="42.89132" lon="0.06731">
        <ele>1529.11</ele>
        <time>2018-02-27T09:56:48Z</time>
      </trkpt>
      <trkpt lat="42.89132" lon="0.06732">
        <ele>1529.11</ele>
        <time>2018-02-27T09:56:49Z</time>
      </trkpt>
      <trkpt lat="42.89138" lon="0.06751">
        <ele>1529.11</ele>
        <time>2018-02-27T09:57:03Z</time>
      </trkpt>
      <trkpt lat="42.89138" lon="0.06755">
        <ele>1529.59</ele>
        <time>2018-02-27T09:57:06Z</time>
      </trkpt>
      <trkpt lat="42.89149" lon="0.06769">
        <ele>1531.04</ele>
        <time>2018-02-27T09:57:20Z</time>
      </trkpt>
      <trkpt lat="42.89159" lon="0.06775">
        <ele>1530.56</ele>
        <time>2018-02-27T09:57:33Z</time>
      </trkpt>
      <trkpt lat="42.8916" lon="0.06773">
        <ele>1533.92</ele>
        <time>2018-02-27T09:57:37Z</time>
      </trkpt>
      <trkpt lat="42.89158" lon="0.06776">
        <ele>1530.56</ele>
        <time>2018-02-27T09:57:43Z</time>
      </trkpt>
      <trkpt lat="42.89157" lon="0.06777">
        <ele>1534.4</ele>
        <time>2018-02-27T09:57:44Z</time>
      </trkpt>
      <trkpt lat="42.89162" lon="0.06784">
        <ele>1533.44</ele>
        <time>2018-02-27T09:57:59Z</time>
      </trkpt>
      <trkpt lat="42.89172" lon="0.06812">
        <ele>1534.4</ele>
        <time>2018-02-27T09:58:16Z</time>
      </trkpt>
      <trkpt lat="42.89177" lon="0.06834">
        <ele>1536.32</ele>
        <time>2018-02-27T09:58:32Z</time>
      </trkpt>
      <trkpt lat="42.89182" lon="0.06846">
        <ele>1537.29</ele>
        <time>2018-02-27T09:58:42Z</time>
      </trkpt>
      <trkpt lat="42.8919" lon="0.06866">
        <ele>1537.77</ele>
        <time>2018-02-27T09:58:58Z</time>
      </trkpt>
      <trkpt lat="42.89203" lon="0.06864">
        <ele>1538.25</ele>
        <time>2018-02-27T09:59:13Z</time>
      </trkpt>
      <trkpt lat="42.89208" lon="0.06865">
        <ele>1539.21</ele>
        <time>2018-02-27T09:59:26Z</time>
      </trkpt>
      <trkpt lat="42.89206" lon="0.06865">
        <ele>1539.21</ele>
        <time>2018-02-27T09:59:37Z</time>
      </trkpt>
      <trkpt lat="42.89202" lon="0.06858">
        <ele>1538.25</ele>
        <time>2018-02-27T09:59:55Z</time>
      </trkpt>
      <trkpt lat="42.89196" lon="0.06857">
        <ele>1538.25</ele>
        <time>2018-02-27T10:00:09Z</time>
      </trkpt>
      <trkpt lat="42.89195" lon="0.06854">
        <ele>1537.77</ele>
        <time>2018-02-27T10:00:39Z</time>
      </trkpt>
      <trkpt lat="42.89202" lon="0.06866">
        <ele>1538.25</ele>
        <time>2018-02-27T10:01:00Z</time>
      </trkpt>
      <trkpt lat="42.89204" lon="0.06888">
        <ele>1538.73</ele>
        <time>2018-02-27T10:01:12Z</time>
      </trkpt>
      <trkpt lat="42.89208" lon="0.069">
        <ele>1540.17</ele>
        <time>2018-02-27T10:01:25Z</time>
      </trkpt>
      <trkpt lat="42.89209" lon="0.06922">
        <ele>1541.13</ele>
        <time>2018-02-27T10:01:39Z</time>
      </trkpt>
      <trkpt lat="42.89214" lon="0.0694">
        <ele>1543.05</ele>
        <time>2018-02-27T10:01:54Z</time>
      </trkpt>
      <trkpt lat="42.89213" lon="0.06944">
        <ele>1542.57</ele>
        <time>2018-02-27T10:01:56Z</time>
      </trkpt>
      <trkpt lat="42.89216" lon="0.06951">
        <ele>1545.94</ele>
        <time>2018-02-27T10:02:02Z</time>
      </trkpt>
      <trkpt lat="42.8922" lon="0.06966">
        <ele>1545.46</ele>
        <time>2018-02-27T10:02:15Z</time>
      </trkpt>
      <trkpt lat="42.89224" lon="0.06975">
        <ele>1545.94</ele>
        <time>2018-02-27T10:02:22Z</time>
      </trkpt>
      <trkpt lat="42.89223" lon="0.06995">
        <ele>1547.86</ele>
        <time>2018-02-27T10:02:36Z</time>
      </trkpt>
      <trkpt lat="42.89231" lon="0.06985">
        <ele>1547.86</ele>
        <time>2018-02-27T10:02:51Z</time>
      </trkpt>
      <trkpt lat="42.89225" lon="0.06993">
        <ele>1550.74</ele>
        <time>2018-02-27T10:03:07Z</time>
      </trkpt>
      <trkpt lat="42.89223" lon="0.06997">
        <ele>1551.22</ele>
        <time>2018-02-27T10:03:19Z</time>
      </trkpt>
      <trkpt lat="42.89217" lon="0.07002">
        <ele>1553.63</ele>
        <time>2018-02-27T10:03:35Z</time>
      </trkpt>
      <trkpt lat="42.89216" lon="0.07009">
        <ele>1555.07</ele>
        <time>2018-02-27T10:03:50Z</time>
      </trkpt>
      <trkpt lat="42.89201" lon="0.07021">
        <ele>1557.47</ele>
        <time>2018-02-27T10:04:03Z</time>
      </trkpt>
      <trkpt lat="42.89204" lon="0.07023">
        <ele>1559.4</ele>
        <time>2018-02-27T10:04:19Z</time>
      </trkpt>
      <trkpt lat="42.89201" lon="0.07016">
        <ele>1561.32</ele>
        <time>2018-02-27T10:04:34Z</time>
      </trkpt>
      <trkpt lat="42.89197" lon="0.07016">
        <ele>1563.72</ele>
        <time>2018-02-27T10:04:47Z</time>
      </trkpt>
      <trkpt lat="42.89199" lon="0.07019">
        <ele>1563.24</ele>
        <time>2018-02-27T10:05:00Z</time>
      </trkpt>
      <trkpt lat="42.89198" lon="0.07017">
        <ele>1562.76</ele>
        <time>2018-02-27T10:05:22Z</time>
      </trkpt>
      <trkpt lat="42.89199" lon="0.0702">
        <ele>1563.24</ele>
        <time>2018-02-27T10:05:35Z</time>
      </trkpt>
      <trkpt lat="42.89201" lon="0.07018">
        <ele>1562.76</ele>
        <time>2018-02-27T10:05:55Z</time>
      </trkpt>
      <trkpt lat="42.89199" lon="0.07011">
        <ele>1562.76</ele>
        <time>2018-02-27T10:06:08Z</time>
      </trkpt>
      <trkpt lat="42.89194" lon="0.06998">
        <ele>1564.2</ele>
        <time>2018-02-27T10:06:22Z</time>
      </trkpt>
      <trkpt lat="42.89188" lon="0.06983">
        <ele>1564.68</ele>
        <time>2018-02-27T10:06:36Z</time>
      </trkpt>
      <trkpt lat="42.89187" lon="0.06975">
        <ele>1565.16</ele>
        <time>2018-02-27T10:06:51Z</time>
      </trkpt>
      <trkpt lat="42.89193" lon="0.06975">
        <ele>1565.16</ele>
        <time>2018-02-27T10:07:16Z</time>
      </trkpt>
      <trkpt lat="42.89188" lon="0.06966">
        <ele>1565.64</ele>
        <time>2018-02-27T10:07:30Z</time>
      </trkpt>
      <trkpt lat="42.89183" lon="0.06946">
        <ele>1567.09</ele>
        <time>2018-02-27T10:07:44Z</time>
      </trkpt>
      <trkpt lat="42.8918" lon="0.06935">
        <ele>1568.05</ele>
        <time>2018-02-27T10:07:55Z</time>
      </trkpt>
      <trkpt lat="42.8917" lon="0.06915">
        <ele>1569.01</ele>
        <time>2018-02-27T10:08:11Z</time>
      </trkpt>
      <trkpt lat="42.89158" lon="0.06903">
        <ele>1570.93</ele>
        <time>2018-02-27T10:08:26Z</time>
      </trkpt>
      <trkpt lat="42.89149" lon="0.06891">
        <ele>1571.89</ele>
        <time>2018-02-27T10:08:40Z</time>
      </trkpt>
      <trkpt lat="42.89141" lon="0.06877">
        <ele>1572.85</ele>
        <time>2018-02-27T10:08:54Z</time>
      </trkpt>
      <trkpt lat="42.8913" lon="0.06862">
        <ele>1574.3</ele>
        <time>2018-02-27T10:09:08Z</time>
      </trkpt>
      <trkpt lat="42.89119" lon="0.06855">
        <ele>1574.78</ele>
        <time>2018-02-27T10:09:20Z</time>
      </trkpt>
      <trkpt lat="42.89109" lon="0.06844">
        <ele>1575.74</ele>
        <time>2018-02-27T10:09:35Z</time>
      </trkpt>
      <trkpt lat="42.891" lon="0.06834">
        <ele>1576.22</ele>
        <time>2018-02-27T10:09:48Z</time>
      </trkpt>
      <trkpt lat="42.89087" lon="0.06824">
        <ele>1577.66</ele>
        <time>2018-02-27T10:10:02Z</time>
      </trkpt>
      <trkpt lat="42.89082" lon="0.06832">
        <ele>1579.58</ele>
        <time>2018-02-27T10:10:17Z</time>
      </trkpt>
      <trkpt lat="42.89081" lon="0.06839">
        <ele>1581.03</ele>
        <time>2018-02-27T10:10:30Z</time>
      </trkpt>
      <trkpt lat="42.89087" lon="0.06854">
        <ele>1584.87</ele>
        <time>2018-02-27T10:10:46Z</time>
      </trkpt>
      <trkpt lat="42.89085" lon="0.06866">
        <ele>1586.31</ele>
        <time>2018-02-27T10:11:00Z</time>
      </trkpt>
      <trkpt lat="42.89087" lon="0.06879">
        <ele>1588.24</ele>
        <time>2018-02-27T10:11:17Z</time>
      </trkpt>
      <trkpt lat="42.89092" lon="0.06891">
        <ele>1589.68</ele>
        <time>2018-02-27T10:11:31Z</time>
      </trkpt>
      <trkpt lat="42.89094" lon="0.06899">
        <ele>1591.6</ele>
        <time>2018-02-27T10:11:45Z</time>
      </trkpt>
      <trkpt lat="42.89098" lon="0.0691">
        <ele>1594</ele>
        <time>2018-02-27T10:12:01Z</time>
      </trkpt>
      <trkpt lat="42.89099" lon="0.06919">
        <ele>1595.93</ele>
        <time>2018-02-27T10:12:17Z</time>
      </trkpt>
      <trkpt lat="42.89103" lon="0.06933">
        <ele>1599.29</ele>
        <time>2018-02-27T10:12:36Z</time>
      </trkpt>
      <trkpt lat="42.89108" lon="0.06948">
        <ele>1601.69</ele>
        <time>2018-02-27T10:12:55Z</time>
      </trkpt>
      <trkpt lat="42.89109" lon="0.0696">
        <ele>1604.1</ele>
        <time>2018-02-27T10:13:12Z</time>
      </trkpt>
      <trkpt lat="42.89109" lon="0.06969">
        <ele>1606.02</ele>
        <time>2018-02-27T10:13:28Z</time>
      </trkpt>
      <trkpt lat="42.89111" lon="0.06982">
        <ele>1608.42</ele>
        <time>2018-02-27T10:13:42Z</time>
      </trkpt>
      <trkpt lat="42.89109" lon="0.06992">
        <ele>1610.83</ele>
        <time>2018-02-27T10:13:57Z</time>
      </trkpt>
      <trkpt lat="42.89111" lon="0.07004">
        <ele>1612.75</ele>
        <time>2018-02-27T10:14:15Z</time>
      </trkpt>
      <trkpt lat="42.8911" lon="0.07016">
        <ele>1614.67</ele>
        <time>2018-02-27T10:14:31Z</time>
      </trkpt>
      <trkpt lat="42.89115" lon="0.07025">
        <ele>1616.59</ele>
        <time>2018-02-27T10:14:45Z</time>
      </trkpt>
      <trkpt lat="42.89118" lon="0.07037">
        <ele>1619</ele>
        <time>2018-02-27T10:15:02Z</time>
      </trkpt>
      <trkpt lat="42.89112" lon="0.07048">
        <ele>1620.44</ele>
        <time>2018-02-27T10:15:19Z</time>
      </trkpt>
      <trkpt lat="42.89113" lon="0.07064">
        <ele>1623.32</ele>
        <time>2018-02-27T10:15:39Z</time>
      </trkpt>
      <trkpt lat="42.8911" lon="0.07075">
        <ele>1624.77</ele>
        <time>2018-02-27T10:15:54Z</time>
      </trkpt>
      <trkpt lat="42.89111" lon="0.0709">
        <ele>1627.65</ele>
        <time>2018-02-27T10:16:10Z</time>
      </trkpt>
      <trkpt lat="42.8911" lon="0.07101">
        <ele>1629.57</ele>
        <time>2018-02-27T10:16:29Z</time>
      </trkpt>
      <trkpt lat="42.8911" lon="0.07104">
        <ele>1631.01</ele>
        <time>2018-02-27T10:16:46Z</time>
      </trkpt>
      <trkpt lat="42.89112" lon="0.07109">
        <ele>1631.01</ele>
        <time>2018-02-27T10:17:09Z</time>
      </trkpt>
      <trkpt lat="42.89112" lon="0.0711">
        <ele>1631.98</ele>
        <time>2018-02-27T10:17:11Z</time>
      </trkpt>
      <trkpt lat="42.89107" lon="0.07125">
        <ele>1633.42</ele>
        <time>2018-02-27T10:17:32Z</time>
      </trkpt>
      <trkpt lat="42.89107" lon="0.07133">
        <ele>1635.34</ele>
        <time>2018-02-27T10:17:47Z</time>
      </trkpt>
      <trkpt lat="42.89108" lon="0.07144">
        <ele>1637.74</ele>
        <time>2018-02-27T10:18:04Z</time>
      </trkpt>
      <trkpt lat="42.89103" lon="0.07153">
        <ele>1639.67</ele>
        <time>2018-02-27T10:18:22Z</time>
      </trkpt>
      <trkpt lat="42.89103" lon="0.07162">
        <ele>1642.07</ele>
        <time>2018-02-27T10:18:39Z</time>
      </trkpt>
      <trkpt lat="42.89099" lon="0.07167">
        <ele>1643.51</ele>
        <time>2018-02-27T10:18:54Z</time>
      </trkpt>
      <trkpt lat="42.89097" lon="0.07174">
        <ele>1646.4</ele>
        <time>2018-02-27T10:19:07Z</time>
      </trkpt>
      <trkpt lat="42.89096" lon="0.07184">
        <ele>1647.84</ele>
        <time>2018-02-27T10:19:23Z</time>
      </trkpt>
      <trkpt lat="42.89091" lon="0.07192">
        <ele>1650.24</ele>
        <time>2018-02-27T10:19:38Z</time>
      </trkpt>
      <trkpt lat="42.89086" lon="0.072">
        <ele>1651.68</ele>
        <time>2018-02-27T10:19:53Z</time>
      </trkpt>
      <trkpt lat="42.89082" lon="0.07212">
        <ele>1653.12</ele>
        <time>2018-02-27T10:20:08Z</time>
      </trkpt>
      <trkpt lat="42.89075" lon="0.07224">
        <ele>1655.05</ele>
        <time>2018-02-27T10:20:24Z</time>
      </trkpt>
      <trkpt lat="42.8907" lon="0.07234">
        <ele>1657.93</ele>
        <time>2018-02-27T10:20:41Z</time>
      </trkpt>
      <trkpt lat="42.89068" lon="0.07247">
        <ele>1659.85</ele>
        <time>2018-02-27T10:21:00Z</time>
      </trkpt>
      <trkpt lat="42.89065" lon="0.07261">
        <ele>1662.74</ele>
        <time>2018-02-27T10:21:16Z</time>
      </trkpt>
      <trkpt lat="42.89065" lon="0.07279">
        <ele>1663.7</ele>
        <time>2018-02-27T10:21:33Z</time>
      </trkpt>
      <trkpt lat="42.89063" lon="0.07293">
        <ele>1666.1</ele>
        <time>2018-02-27T10:21:52Z</time>
      </trkpt>
      <trkpt lat="42.8906" lon="0.07301">
        <ele>1668.51</ele>
        <time>2018-02-27T10:22:11Z</time>
      </trkpt>
      <trkpt lat="42.89056" lon="0.07296">
        <ele>1669.47</ele>
        <time>2018-02-27T10:22:25Z</time>
      </trkpt>
      <trkpt lat="42.8906" lon="0.07291">
        <ele>1668.99</ele>
        <time>2018-02-27T10:22:56Z</time>
      </trkpt>
      <trkpt lat="42.89057" lon="0.07288">
        <ele>1668.99</ele>
        <time>2018-02-27T10:23:25Z</time>
      </trkpt>
      <trkpt lat="42.89064" lon="0.07304">
        <ele>1668.99</ele>
        <time>2018-02-27T10:23:42Z</time>
      </trkpt>
      <trkpt lat="42.89054" lon="0.07295">
        <ele>1668.51</ele>
        <time>2018-02-27T10:24:03Z</time>
      </trkpt>
      <trkpt lat="42.8906" lon="0.07296">
        <ele>1668.99</ele>
        <time>2018-02-27T10:24:31Z</time>
      </trkpt>
      <trkpt lat="42.89057" lon="0.07295">
        <ele>1669.95</ele>
        <time>2018-02-27T10:24:42Z</time>
      </trkpt>
      <trkpt lat="42.8906" lon="0.07298">
        <ele>1669.95</ele>
        <time>2018-02-27T10:25:05Z</time>
      </trkpt>
      <trkpt lat="42.89067" lon="0.073">
        <ele>1669.95</ele>
        <time>2018-02-27T10:25:25Z</time>
      </trkpt>
      <trkpt lat="42.8907" lon="0.07304">
        <ele>1669.95</ele>
        <time>2018-02-27T10:25:53Z</time>
      </trkpt>
      <trkpt lat="42.89069" lon="0.07303">
        <ele>1669.47</ele>
        <time>2018-02-27T10:26:14Z</time>
      </trkpt>
      <trkpt lat="42.89066" lon="0.07292">
        <ele>1669.47</ele>
        <time>2018-02-27T10:26:38Z</time>
      </trkpt>
      <trkpt lat="42.89068" lon="0.07289">
        <ele>1668.99</ele>
        <time>2018-02-27T10:27:02Z</time>
      </trkpt>
      <trkpt lat="42.89069" lon="0.07288">
        <ele>1669.95</ele>
        <time>2018-02-27T10:27:21Z</time>
      </trkpt>
      <trkpt lat="42.89068" lon="0.07296">
        <ele>1669.95</ele>
        <time>2018-02-27T10:27:40Z</time>
      </trkpt>
      <trkpt lat="42.8906" lon="0.07294">
        <ele>1670.43</ele>
        <time>2018-02-27T10:27:56Z</time>
      </trkpt>
      <trkpt lat="42.89061" lon="0.07297">
        <ele>1670.43</ele>
        <time>2018-02-27T10:28:16Z</time>
      </trkpt>
      <trkpt lat="42.89064" lon="0.0729">
        <ele>1669.95</ele>
        <time>2018-02-27T10:28:38Z</time>
      </trkpt>
      <trkpt lat="42.89063" lon="0.07291">
        <ele>1669.95</ele>
        <time>2018-02-27T10:29:00Z</time>
      </trkpt>
      <trkpt lat="42.89062" lon="0.07296">
        <ele>1669.95</ele>
        <time>2018-02-27T10:29:22Z</time>
      </trkpt>
      <trkpt lat="42.89066" lon="0.07298">
        <ele>1669.95</ele>
        <time>2018-02-27T10:30:04Z</time>
      </trkpt>
      <trkpt lat="42.89063" lon="0.07297">
        <ele>1669.47</ele>
        <time>2018-02-27T10:30:34Z</time>
      </trkpt>
      <trkpt lat="42.89064" lon="0.07296">
        <ele>1670.43</ele>
        <time>2018-02-27T10:30:54Z</time>
      </trkpt>
      <trkpt lat="42.89058" lon="0.07291">
        <ele>1669.95</ele>
        <time>2018-02-27T10:31:17Z</time>
      </trkpt>
      <trkpt lat="42.89056" lon="0.07294">
        <ele>1669.95</ele>
        <time>2018-02-27T10:31:43Z</time>
      </trkpt>
      <trkpt lat="42.89057" lon="0.07288">
        <ele>1669.95</ele>
        <time>2018-02-27T10:32:04Z</time>
      </trkpt>
      <trkpt lat="42.89053" lon="0.07285">
        <ele>1669.95</ele>
        <time>2018-02-27T10:32:31Z</time>
      </trkpt>
      <trkpt lat="42.89056" lon="0.07287">
        <ele>1669.95</ele>
        <time>2018-02-27T10:32:55Z</time>
      </trkpt>
      <trkpt lat="42.89057" lon="0.0729">
        <ele>1673.31</ele>
        <time>2018-02-27T10:33:08Z</time>
      </trkpt>
      <trkpt lat="42.89053" lon="0.07285">
        <ele>1675.72</ele>
        <time>2018-02-27T10:33:21Z</time>
      </trkpt>
      <trkpt lat="42.89049" lon="0.0728">
        <ele>1678.12</ele>
        <time>2018-02-27T10:33:34Z</time>
      </trkpt>
      <trkpt lat="42.89043" lon="0.07274">
        <ele>1679.56</ele>
        <time>2018-02-27T10:33:47Z</time>
      </trkpt>
      <trkpt lat="42.89041" lon="0.07271">
        <ele>1681</ele>
        <time>2018-02-27T10:33:52Z</time>
      </trkpt>
      <trkpt lat="42.89033" lon="0.07256">
        <ele>1682.44</ele>
        <time>2018-02-27T10:34:10Z</time>
      </trkpt>
      <trkpt lat="42.89029" lon="0.0724">
        <ele>1684.85</ele>
        <time>2018-02-27T10:34:26Z</time>
      </trkpt>
      <trkpt lat="42.89023" lon="0.07229">
        <ele>1686.29</ele>
        <time>2018-02-27T10:34:41Z</time>
      </trkpt>
      <trkpt lat="42.89023" lon="0.07227">
        <ele>1686.29</ele>
        <time>2018-02-27T10:34:42Z</time>
      </trkpt>
      <trkpt lat="42.89018" lon="0.07209">
        <ele>1688.21</ele>
        <time>2018-02-27T10:34:58Z</time>
      </trkpt>
      <trkpt lat="42.89016" lon="0.07196">
        <ele>1689.17</ele>
        <time>2018-02-27T10:35:11Z</time>
      </trkpt>
      <trkpt lat="42.89015" lon="0.07184">
        <ele>1690.14</ele>
        <time>2018-02-27T10:35:24Z</time>
      </trkpt>
      <trkpt lat="42.89012" lon="0.07168">
        <ele>1692.06</ele>
        <time>2018-02-27T10:35:37Z</time>
      </trkpt>
      <trkpt lat="42.89011" lon="0.0716">
        <ele>1693.98</ele>
        <time>2018-02-27T10:35:50Z</time>
      </trkpt>
      <trkpt lat="42.89008" lon="0.07146">
        <ele>1695.9</ele>
        <time>2018-02-27T10:36:03Z</time>
      </trkpt>
      <trkpt lat="42.89003" lon="0.07129">
        <ele>1698.79</ele>
        <time>2018-02-27T10:36:20Z</time>
      </trkpt>
      <trkpt lat="42.88997" lon="0.07118">
        <ele>1701.19</ele>
        <time>2018-02-27T10:36:34Z</time>
      </trkpt>
      <trkpt lat="42.8899" lon="0.07106">
        <ele>1703.11</ele>
        <time>2018-02-27T10:36:49Z</time>
      </trkpt>
      <trkpt lat="42.88982" lon="0.07096">
        <ele>1705.04</ele>
        <time>2018-02-27T10:37:03Z</time>
      </trkpt>
      <trkpt lat="42.88973" lon="0.07088">
        <ele>1707.44</ele>
        <time>2018-02-27T10:37:20Z</time>
      </trkpt>
      <trkpt lat="42.88964" lon="0.07082">
        <ele>1709.84</ele>
        <time>2018-02-27T10:37:35Z</time>
      </trkpt>
      <trkpt lat="42.88955" lon="0.07075">
        <ele>1711.76</ele>
        <time>2018-02-27T10:37:49Z</time>
      </trkpt>
      <trkpt lat="42.88946" lon="0.07074">
        <ele>1713.21</ele>
        <time>2018-02-27T10:38:05Z</time>
      </trkpt>
      <trkpt lat="42.88943" lon="0.07071">
        <ele>1709.36</ele>
        <time>2018-02-27T10:38:23Z</time>
      </trkpt>
      <trkpt lat="42.88944" lon="0.07071">
        <ele>1716.09</ele>
        <time>2018-02-27T10:38:25Z</time>
      </trkpt>
      <trkpt lat="42.88939" lon="0.07078">
        <ele>1715.13</ele>
        <time>2018-02-27T10:38:38Z</time>
      </trkpt>
      <trkpt lat="42.88931" lon="0.07084">
        <ele>1717.53</ele>
        <time>2018-02-27T10:38:52Z</time>
      </trkpt>
      <trkpt lat="42.88928" lon="0.07093">
        <ele>1719.94</ele>
        <time>2018-02-27T10:39:07Z</time>
      </trkpt>
      <trkpt lat="42.88925" lon="0.07099">
        <ele>1721.86</ele>
        <time>2018-02-27T10:39:28Z</time>
      </trkpt>
      <trkpt lat="42.88927" lon="0.07107">
        <ele>1723.3</ele>
        <time>2018-02-27T10:39:42Z</time>
      </trkpt>
      <trkpt lat="42.88928" lon="0.07108">
        <ele>1721.86</ele>
        <time>2018-02-27T10:39:45Z</time>
      </trkpt>
      <trkpt lat="42.88929" lon="0.07113">
        <ele>1722.82</ele>
        <time>2018-02-27T10:39:55Z</time>
      </trkpt>
      <trkpt lat="42.8893" lon="0.07124">
        <ele>1724.26</ele>
        <time>2018-02-27T10:40:07Z</time>
      </trkpt>
      <trkpt lat="42.88929" lon="0.07139">
        <ele>1725.7</ele>
        <time>2018-02-27T10:40:22Z</time>
      </trkpt>
      <trkpt lat="42.88932" lon="0.07156">
        <ele>1728.59</ele>
        <time>2018-02-27T10:40:37Z</time>
      </trkpt>
      <trkpt lat="42.88937" lon="0.0717">
        <ele>1727.63</ele>
        <time>2018-02-27T10:40:51Z</time>
      </trkpt>
      <trkpt lat="42.88941" lon="0.07184">
        <ele>1729.07</ele>
        <time>2018-02-27T10:41:03Z</time>
      </trkpt>
      <trkpt lat="42.88942" lon="0.07199">
        <ele>1730.51</ele>
        <time>2018-02-27T10:41:19Z</time>
      </trkpt>
      <trkpt lat="42.88946" lon="0.07212">
        <ele>1731.47</ele>
        <time>2018-02-27T10:41:32Z</time>
      </trkpt>
      <trkpt lat="42.88943" lon="0.07217">
        <ele>1733.88</ele>
        <time>2018-02-27T10:41:44Z</time>
      </trkpt>
      <trkpt lat="42.88941" lon="0.07216">
        <ele>1735.32</ele>
        <time>2018-02-27T10:41:59Z</time>
      </trkpt>
      <trkpt lat="42.88942" lon="0.07214">
        <ele>1735.32</ele>
        <time>2018-02-27T10:42:15Z</time>
      </trkpt>
      <trkpt lat="42.88936" lon="0.07204">
        <ele>1736.76</ele>
        <time>2018-02-27T10:42:28Z</time>
      </trkpt>
      <trkpt lat="42.88926" lon="0.07191">
        <ele>1737.24</ele>
        <time>2018-02-27T10:42:44Z</time>
      </trkpt>
      <trkpt lat="42.88928" lon="0.07191">
        <ele>1732.91</ele>
        <time>2018-02-27T10:42:50Z</time>
      </trkpt>
      <trkpt lat="42.88927" lon="0.07192">
        <ele>1745.41</ele>
        <time>2018-02-27T10:42:52Z</time>
      </trkpt>
      <trkpt lat="42.88927" lon="0.07193">
        <ele>1737.72</ele>
        <time>2018-02-27T10:42:54Z</time>
      </trkpt>
      <trkpt lat="42.88926" lon="0.07189">
        <ele>1736.76</ele>
        <time>2018-02-27T10:42:59Z</time>
      </trkpt>
      <trkpt lat="42.8892" lon="0.07175">
        <ele>1737.24</ele>
        <time>2018-02-27T10:43:10Z</time>
      </trkpt>
      <trkpt lat="42.8891" lon="0.07162">
        <ele>1738.2</ele>
        <time>2018-02-27T10:43:23Z</time>
      </trkpt>
      <trkpt lat="42.88904" lon="0.07154">
        <ele>1739.16</ele>
        <time>2018-02-27T10:43:34Z</time>
      </trkpt>
      <trkpt lat="42.88892" lon="0.07142">
        <ele>1739.64</ele>
        <time>2018-02-27T10:43:49Z</time>
      </trkpt>
      <trkpt lat="42.88881" lon="0.07131">
        <ele>1739.64</ele>
        <time>2018-02-27T10:44:04Z</time>
      </trkpt>
      <trkpt lat="42.8887" lon="0.0712">
        <ele>1741.08</ele>
        <time>2018-02-27T10:44:20Z</time>
      </trkpt>
      <trkpt lat="42.88862" lon="0.0711">
        <ele>1742.05</ele>
        <time>2018-02-27T10:44:33Z</time>
      </trkpt>
      <trkpt lat="42.88856" lon="0.07107">
        <ele>1742.05</ele>
        <time>2018-02-27T10:44:50Z</time>
      </trkpt>
      <trkpt lat="42.88852" lon="0.0711">
        <ele>1743.97</ele>
        <time>2018-02-27T10:45:03Z</time>
      </trkpt>
      <trkpt lat="42.88852" lon="0.07127">
        <ele>1746.85</ele>
        <time>2018-02-27T10:45:19Z</time>
      </trkpt>
      <trkpt lat="42.88851" lon="0.07138">
        <ele>1749.26</ele>
        <time>2018-02-27T10:45:33Z</time>
      </trkpt>
      <trkpt lat="42.88854" lon="0.07149">
        <ele>1751.18</ele>
        <time>2018-02-27T10:45:47Z</time>
      </trkpt>
      <trkpt lat="42.88857" lon="0.0716">
        <ele>1752.62</ele>
        <time>2018-02-27T10:46:02Z</time>
      </trkpt>
      <trkpt lat="42.88858" lon="0.07172">
        <ele>1755.02</ele>
        <time>2018-02-27T10:46:15Z</time>
      </trkpt>
      <trkpt lat="42.88862" lon="0.07187">
        <ele>1755.5</ele>
        <time>2018-02-27T10:46:31Z</time>
      </trkpt>
      <trkpt lat="42.88869" lon="0.07199">
        <ele>1756.47</ele>
        <time>2018-02-27T10:46:47Z</time>
      </trkpt>
      <trkpt lat="42.88872" lon="0.07213">
        <ele>1756.95</ele>
        <time>2018-02-27T10:47:01Z</time>
      </trkpt>
      <trkpt lat="42.88874" lon="0.07228">
        <ele>1757.91</ele>
        <time>2018-02-27T10:47:14Z</time>
      </trkpt>
      <trkpt lat="42.8887" lon="0.07229">
        <ele>1759.35</ele>
        <time>2018-02-27T10:47:26Z</time>
      </trkpt>
      <trkpt lat="42.88867" lon="0.07214">
        <ele>1760.31</ele>
        <time>2018-02-27T10:47:41Z</time>
      </trkpt>
      <trkpt lat="42.8886" lon="0.07205">
        <ele>1761.27</ele>
        <time>2018-02-27T10:47:55Z</time>
      </trkpt>
      <trkpt lat="42.8885" lon="0.07196">
        <ele>1762.23</ele>
        <time>2018-02-27T10:48:09Z</time>
      </trkpt>
      <trkpt lat="42.88839" lon="0.07189">
        <ele>1763.2</ele>
        <time>2018-02-27T10:48:23Z</time>
      </trkpt>
      <trkpt lat="42.8883" lon="0.07179">
        <ele>1764.64</ele>
        <time>2018-02-27T10:48:36Z</time>
      </trkpt>
      <trkpt lat="42.88826" lon="0.07167">
        <ele>1765.12</ele>
        <time>2018-02-27T10:48:49Z</time>
      </trkpt>
      <trkpt lat="42.88818" lon="0.07156">
        <ele>1766.56</ele>
        <time>2018-02-27T10:49:02Z</time>
      </trkpt>
      <trkpt lat="42.88811" lon="0.07149">
        <ele>1767.52</ele>
        <time>2018-02-27T10:49:15Z</time>
      </trkpt>
      <trkpt lat="42.88803" lon="0.07149">
        <ele>1769.44</ele>
        <time>2018-02-27T10:49:30Z</time>
      </trkpt>
      <trkpt lat="42.88792" lon="0.07152">
        <ele>1771.85</ele>
        <time>2018-02-27T10:49:43Z</time>
      </trkpt>
      <trkpt lat="42.88782" lon="0.07151">
        <ele>1774.25</ele>
        <time>2018-02-27T10:50:01Z</time>
      </trkpt>
      <trkpt lat="42.88782" lon="0.07152">
        <ele>1774.25</ele>
        <time>2018-02-27T10:50:02Z</time>
      </trkpt>
      <trkpt lat="42.88777" lon="0.07147">
        <ele>1774.73</ele>
        <time>2018-02-27T10:50:18Z</time>
      </trkpt>
      <trkpt lat="42.88771" lon="0.07148">
        <ele>1775.69</ele>
        <time>2018-02-27T10:50:32Z</time>
      </trkpt>
      <trkpt lat="42.88767" lon="0.07142">
        <ele>1775.21</ele>
        <time>2018-02-27T10:50:47Z</time>
      </trkpt>
      <trkpt lat="42.8876" lon="0.07131">
        <ele>1775.69</ele>
        <time>2018-02-27T10:51:02Z</time>
      </trkpt>
      <trkpt lat="42.88748" lon="0.07118">
        <ele>1777.13</ele>
        <time>2018-02-27T10:51:16Z</time>
      </trkpt>
      <trkpt lat="42.8874" lon="0.07105">
        <ele>1778.58</ele>
        <time>2018-02-27T10:51:31Z</time>
      </trkpt>
      <trkpt lat="42.88733" lon="0.07097">
        <ele>1778.58</ele>
        <time>2018-02-27T10:51:45Z</time>
      </trkpt>
      <trkpt lat="42.88731" lon="0.07094">
        <ele>1779.54</ele>
        <time>2018-02-27T10:51:48Z</time>
      </trkpt>
      <trkpt lat="42.8872" lon="0.07085">
        <ele>1780.98</ele>
        <time>2018-02-27T10:52:02Z</time>
      </trkpt>
      <trkpt lat="42.88713" lon="0.07075">
        <ele>1780.98</ele>
        <time>2018-02-27T10:52:16Z</time>
      </trkpt>
      <trkpt lat="42.8871" lon="0.07063">
        <ele>1782.42</ele>
        <time>2018-02-27T10:52:31Z</time>
      </trkpt>
      <trkpt lat="42.88698" lon="0.07056">
        <ele>1783.38</ele>
        <time>2018-02-27T10:52:44Z</time>
      </trkpt>
      <trkpt lat="42.88686" lon="0.07044">
        <ele>1783.86</ele>
        <time>2018-02-27T10:52:58Z</time>
      </trkpt>
      <trkpt lat="42.88676" lon="0.07034">
        <ele>1784.82</ele>
        <time>2018-02-27T10:53:12Z</time>
      </trkpt>
      <trkpt lat="42.88671" lon="0.07028">
        <ele>1785.31</ele>
        <time>2018-02-27T10:53:26Z</time>
      </trkpt>
      <trkpt lat="42.8866" lon="0.0702">
        <ele>1785.79</ele>
        <time>2018-02-27T10:53:40Z</time>
      </trkpt>
      <trkpt lat="42.88651" lon="0.07009">
        <ele>1786.75</ele>
        <time>2018-02-27T10:53:54Z</time>
      </trkpt>
      <trkpt lat="42.88641" lon="0.07005">
        <ele>1787.23</ele>
        <time>2018-02-27T10:54:08Z</time>
      </trkpt>
      <trkpt lat="42.88636" lon="0.07008">
        <ele>1788.19</ele>
        <time>2018-02-27T10:54:21Z</time>
      </trkpt>
      <trkpt lat="42.88635" lon="0.07006">
        <ele>1788.19</ele>
        <time>2018-02-27T10:54:41Z</time>
      </trkpt>
      <trkpt lat="42.88634" lon="0.07016">
        <ele>1787.71</ele>
        <time>2018-02-27T10:54:56Z</time>
      </trkpt>
      <trkpt lat="42.88631" lon="0.07011">
        <ele>1787.23</ele>
        <time>2018-02-27T10:55:16Z</time>
      </trkpt>
      <trkpt lat="42.88634" lon="0.07009">
        <ele>1793</ele>
        <time>2018-02-27T10:55:24Z</time>
      </trkpt>
      <trkpt lat="42.88633" lon="0.0701">
        <ele>1788.19</ele>
        <time>2018-02-27T10:55:28Z</time>
      </trkpt>
      <trkpt lat="42.88629" lon="0.07021">
        <ele>1789.63</ele>
        <time>2018-02-27T10:55:40Z</time>
      </trkpt>
      <trkpt lat="42.88629" lon="0.0703">
        <ele>1790.59</ele>
        <time>2018-02-27T10:55:57Z</time>
      </trkpt>
      <trkpt lat="42.88627" lon="0.07032">
        <ele>1791.55</ele>
        <time>2018-02-27T10:56:15Z</time>
      </trkpt>
      <trkpt lat="42.88625" lon="0.07039">
        <ele>1794.44</ele>
        <time>2018-02-27T10:56:25Z</time>
      </trkpt>
      <trkpt lat="42.88624" lon="0.07047">
        <ele>1795.88</ele>
        <time>2018-02-27T10:56:42Z</time>
      </trkpt>
      <trkpt lat="42.88621" lon="0.0705">
        <ele>1798.28</ele>
        <time>2018-02-27T10:56:56Z</time>
      </trkpt>
      <trkpt lat="42.8862" lon="0.07054">
        <ele>1799.73</ele>
        <time>2018-02-27T10:57:08Z</time>
      </trkpt>
      <trkpt lat="42.88618" lon="0.07049">
        <ele>1801.65</ele>
        <time>2018-02-27T10:57:24Z</time>
      </trkpt>
      <trkpt lat="42.88613" lon="0.07045">
        <ele>1803.09</ele>
        <time>2018-02-27T10:57:37Z</time>
      </trkpt>
      <trkpt lat="42.88611" lon="0.0706">
        <ele>1805.01</ele>
        <time>2018-02-27T10:57:54Z</time>
      </trkpt>
      <trkpt lat="42.88611" lon="0.07065">
        <ele>1806.94</ele>
        <time>2018-02-27T10:58:12Z</time>
      </trkpt>
      <trkpt lat="42.88611" lon="0.07067">
        <ele>1808.38</ele>
        <time>2018-02-27T10:58:25Z</time>
      </trkpt>
      <trkpt lat="42.8861" lon="0.07075">
        <ele>1809.82</ele>
        <time>2018-02-27T10:58:36Z</time>
      </trkpt>
      <trkpt lat="42.8861" lon="0.07084">
        <ele>1811.74</ele>
        <time>2018-02-27T10:58:53Z</time>
      </trkpt>
      <trkpt lat="42.88605" lon="0.0708">
        <ele>1814.63</ele>
        <time>2018-02-27T10:59:12Z</time>
      </trkpt>
      <trkpt lat="42.88603" lon="0.07085">
        <ele>1816.07</ele>
        <time>2018-02-27T10:59:29Z</time>
      </trkpt>
      <trkpt lat="42.886" lon="0.07095">
        <ele>1817.99</ele>
        <time>2018-02-27T10:59:45Z</time>
      </trkpt>
      <trkpt lat="42.88602" lon="0.07091">
        <ele>1924.22</ele>
        <time>2018-02-27T11:03:24Z</time>
      </trkpt>
      <trkpt lat="42.88596" lon="0.07117">
        <ele>1923.74</ele>
        <time>2018-02-27T11:03:25Z</time>
      </trkpt>
      <trkpt lat="42.88592" lon="0.07124">
        <ele>1924.7</ele>
        <time>2018-02-27T11:03:32Z</time>
      </trkpt>
      <trkpt lat="42.8859" lon="0.07122">
        <ele>1921.33</ele>
        <time>2018-02-27T11:03:34Z</time>
      </trkpt>
      <trkpt lat="42.88592" lon="0.07123">
        <ele>1917.01</ele>
        <time>2018-02-27T11:03:35Z</time>
      </trkpt>
      <trkpt lat="42.88593" lon="0.07123">
        <ele>1917.01</ele>
        <time>2018-02-27T11:03:36Z</time>
      </trkpt>
      <trkpt lat="42.88594" lon="0.07123">
        <ele>1898.26</ele>
        <time>2018-02-27T11:03:41Z</time>
      </trkpt>
      <trkpt lat="42.88594" lon="0.07124">
        <ele>1892.49</ele>
        <time>2018-02-27T11:03:43Z</time>
      </trkpt>
      <trkpt lat="42.88595" lon="0.07124">
        <ele>1883.36</ele>
        <time>2018-02-27T11:03:47Z</time>
      </trkpt>
      <trkpt lat="42.88596" lon="0.07124">
        <ele>1875.19</ele>
        <time>2018-02-27T11:03:51Z</time>
      </trkpt>
      <trkpt lat="42.88597" lon="0.07124">
        <ele>1867.02</ele>
        <time>2018-02-27T11:03:56Z</time>
      </trkpt>
      <trkpt lat="42.88596" lon="0.07124">
        <ele>1858.85</ele>
        <time>2018-02-27T11:04:02Z</time>
      </trkpt>
      <trkpt lat="42.88595" lon="0.07124">
        <ele>1855.48</ele>
        <time>2018-02-27T11:04:05Z</time>
      </trkpt>
      <trkpt lat="42.88593" lon="0.07124">
        <ele>1852.12</ele>
        <time>2018-02-27T11:04:08Z</time>
      </trkpt>
      <trkpt lat="42.88592" lon="0.07123">
        <ele>1848.75</ele>
        <time>2018-02-27T11:04:12Z</time>
      </trkpt>
      <trkpt lat="42.88591" lon="0.07122">
        <ele>1843.95</ele>
        <time>2018-02-27T11:04:15Z</time>
      </trkpt>
      <trkpt lat="42.8859" lon="0.07122">
        <ele>1846.83</ele>
        <time>2018-02-27T11:04:16Z</time>
      </trkpt>
      <trkpt lat="42.8859" lon="0.07123">
        <ele>1843.95</ele>
        <time>2018-02-27T11:04:18Z</time>
      </trkpt>
      <trkpt lat="42.88593" lon="0.0713">
        <ele>1840.1</ele>
        <time>2018-02-27T11:04:22Z</time>
      </trkpt>
      <trkpt lat="42.88598" lon="0.07133">
        <ele>1839.62</ele>
        <time>2018-02-27T11:04:27Z</time>
      </trkpt>
      <trkpt lat="42.88604" lon="0.07137">
        <ele>1835.77</ele>
        <time>2018-02-27T11:04:34Z</time>
      </trkpt>
      <trkpt lat="42.88605" lon="0.07142">
        <ele>1834.33</ele>
        <time>2018-02-27T11:04:40Z</time>
      </trkpt>
      <trkpt lat="42.88608" lon="0.07151">
        <ele>1831.93</ele>
        <time>2018-02-27T11:04:50Z</time>
      </trkpt>
      <trkpt lat="42.88608" lon="0.07167">
        <ele>1828.08</ele>
        <time>2018-02-27T11:05:04Z</time>
      </trkpt>
      <trkpt lat="42.88611" lon="0.07183">
        <ele>1827.6</ele>
        <time>2018-02-27T11:05:19Z</time>
      </trkpt>
      <trkpt lat="42.88613" lon="0.07197">
        <ele>1827.6</ele>
        <time>2018-02-27T11:05:34Z</time>
      </trkpt>
      <trkpt lat="42.88617" lon="0.07214">
        <ele>1829.53</ele>
        <time>2018-02-27T11:05:46Z</time>
      </trkpt>
      <trkpt lat="42.88622" lon="0.0723">
        <ele>1830.97</ele>
        <time>2018-02-27T11:06:02Z</time>
      </trkpt>
      <trkpt lat="42.88625" lon="0.07244">
        <ele>1833.85</ele>
        <time>2018-02-27T11:06:20Z</time>
      </trkpt>
      <trkpt lat="42.88629" lon="0.07257">
        <ele>1834.33</ele>
        <time>2018-02-27T11:06:35Z</time>
      </trkpt>
      <trkpt lat="42.88633" lon="0.07275">
        <ele>1836.74</ele>
        <time>2018-02-27T11:06:52Z</time>
      </trkpt>
      <trkpt lat="42.88638" lon="0.07287">
        <ele>1837.22</ele>
        <time>2018-02-27T11:07:06Z</time>
      </trkpt>
      <trkpt lat="42.8864" lon="0.07303">
        <ele>1838.18</ele>
        <time>2018-02-27T11:07:20Z</time>
      </trkpt>
      <trkpt lat="42.88645" lon="0.07322">
        <ele>1840.1</ele>
        <time>2018-02-27T11:07:36Z</time>
      </trkpt>
      <trkpt lat="42.88651" lon="0.07335">
        <ele>1840.58</ele>
        <time>2018-02-27T11:07:51Z</time>
      </trkpt>
      <trkpt lat="42.88658" lon="0.0735">
        <ele>1842.98</ele>
        <time>2018-02-27T11:08:08Z</time>
      </trkpt>
      <trkpt lat="42.88663" lon="0.07361">
        <ele>1843.95</ele>
        <time>2018-02-27T11:08:23Z</time>
      </trkpt>
      <trkpt lat="42.88667" lon="0.07374">
        <ele>1844.91</ele>
        <time>2018-02-27T11:08:38Z</time>
      </trkpt>
      <trkpt lat="42.8867" lon="0.07386">
        <ele>1846.35</ele>
        <time>2018-02-27T11:08:54Z</time>
      </trkpt>
      <trkpt lat="42.88674" lon="0.07399">
        <ele>1848.27</ele>
        <time>2018-02-27T11:09:12Z</time>
      </trkpt>
      <trkpt lat="42.88676" lon="0.07412">
        <ele>1850.68</ele>
        <time>2018-02-27T11:09:31Z</time>
      </trkpt>
      <trkpt lat="42.88678" lon="0.0742">
        <ele>1852.6</ele>
        <time>2018-02-27T11:09:46Z</time>
      </trkpt>
      <trkpt lat="42.88676" lon="0.07424">
        <ele>1855</ele>
        <time>2018-02-27T11:10:03Z</time>
      </trkpt>
      <trkpt lat="42.88674" lon="0.07424">
        <ele>1857.4</ele>
        <time>2018-02-27T11:10:20Z</time>
      </trkpt>
      <trkpt lat="42.88674" lon="0.07439">
        <ele>1859.33</ele>
        <time>2018-02-27T11:10:35Z</time>
      </trkpt>
      <trkpt lat="42.88672" lon="0.07448">
        <ele>1861.25</ele>
        <time>2018-02-27T11:10:50Z</time>
      </trkpt>
      <trkpt lat="42.88668" lon="0.07447">
        <ele>1863.17</ele>
        <time>2018-02-27T11:11:06Z</time>
      </trkpt>
      <trkpt lat="42.88665" lon="0.07452">
        <ele>1864.61</ele>
        <time>2018-02-27T11:11:19Z</time>
      </trkpt>
      <trkpt lat="42.88663" lon="0.0746">
        <ele>1866.06</ele>
        <time>2018-02-27T11:11:34Z</time>
      </trkpt>
      <trkpt lat="42.88661" lon="0.0747">
        <ele>1867.98</ele>
        <time>2018-02-27T11:11:48Z</time>
      </trkpt>
      <trkpt lat="42.88658" lon="0.07477">
        <ele>1869.42</ele>
        <time>2018-02-27T11:12:04Z</time>
      </trkpt>
      <trkpt lat="42.88655" lon="0.07475">
        <ele>1870.86</ele>
        <time>2018-02-27T11:12:19Z</time>
      </trkpt>
      <trkpt lat="42.8865" lon="0.0747">
        <ele>1872.3</ele>
        <time>2018-02-27T11:12:34Z</time>
      </trkpt>
      <trkpt lat="42.88646" lon="0.07468">
        <ele>1874.23</ele>
        <time>2018-02-27T11:12:48Z</time>
      </trkpt>
      <trkpt lat="42.88642" lon="0.07463">
        <ele>1876.15</ele>
        <time>2018-02-27T11:13:03Z</time>
      </trkpt>
      <trkpt lat="42.88638" lon="0.07457">
        <ele>1878.07</ele>
        <time>2018-02-27T11:13:16Z</time>
      </trkpt>
      <trkpt lat="42.88637" lon="0.07451">
        <ele>1879.51</ele>
        <time>2018-02-27T11:13:28Z</time>
      </trkpt>
      <trkpt lat="42.88633" lon="0.07445">
        <ele>1881.44</ele>
        <time>2018-02-27T11:13:43Z</time>
      </trkpt>
      <trkpt lat="42.88626" lon="0.07436">
        <ele>1883.84</ele>
        <time>2018-02-27T11:14:01Z</time>
      </trkpt>
      <trkpt lat="42.88622" lon="0.0743">
        <ele>1884.32</ele>
        <time>2018-02-27T11:14:13Z</time>
      </trkpt>
      <trkpt lat="42.88616" lon="0.07425">
        <ele>1886.24</ele>
        <time>2018-02-27T11:14:27Z</time>
      </trkpt>
      <trkpt lat="42.88612" lon="0.07417">
        <ele>1887.69</ele>
        <time>2018-02-27T11:14:42Z</time>
      </trkpt>
      <trkpt lat="42.88606" lon="0.0741">
        <ele>1889.13</ele>
        <time>2018-02-27T11:14:54Z</time>
      </trkpt>
      <trkpt lat="42.88605" lon="0.07412">
        <ele>1890.09</ele>
        <time>2018-02-27T11:15:09Z</time>
      </trkpt>
      <trkpt lat="42.88606" lon="0.07417">
        <ele>1890.09</ele>
        <time>2018-02-27T11:15:31Z</time>
      </trkpt>
      <trkpt lat="42.88602" lon="0.07421">
        <ele>1889.13</ele>
        <time>2018-02-27T11:16:05Z</time>
      </trkpt>
      <trkpt lat="42.88601" lon="0.07407">
        <ele>1890.57</ele>
        <time>2018-02-27T11:16:25Z</time>
      </trkpt>
      <trkpt lat="42.88593" lon="0.07396">
        <ele>1892.49</ele>
        <time>2018-02-27T11:16:39Z</time>
      </trkpt>
      <trkpt lat="42.88582" lon="0.07388">
        <ele>1894.9</ele>
        <time>2018-02-27T11:16:57Z</time>
      </trkpt>
      <trkpt lat="42.88574" lon="0.0738">
        <ele>1896.82</ele>
        <time>2018-02-27T11:17:14Z</time>
      </trkpt>
      <trkpt lat="42.88569" lon="0.07374">
        <ele>1898.74</ele>
        <time>2018-02-27T11:17:27Z</time>
      </trkpt>
      <trkpt lat="42.8856" lon="0.07368">
        <ele>1900.18</ele>
        <time>2018-02-27T11:17:42Z</time>
      </trkpt>
      <trkpt lat="42.88552" lon="0.0736">
        <ele>1902.11</ele>
        <time>2018-02-27T11:17:59Z</time>
      </trkpt>
      <trkpt lat="42.88545" lon="0.07354">
        <ele>1903.55</ele>
        <time>2018-02-27T11:18:15Z</time>
      </trkpt>
      <trkpt lat="42.88538" lon="0.07348">
        <ele>1905.95</ele>
        <time>2018-02-27T11:18:30Z</time>
      </trkpt>
      <trkpt lat="42.88532" lon="0.0734">
        <ele>1908.35</ele>
        <time>2018-02-27T11:18:45Z</time>
      </trkpt>
      <trkpt lat="42.88524" lon="0.07335">
        <ele>1909.8</ele>
        <time>2018-02-27T11:19:00Z</time>
      </trkpt>
      <trkpt lat="42.88517" lon="0.07329">
        <ele>1911.72</ele>
        <time>2018-02-27T11:19:16Z</time>
      </trkpt>
      <trkpt lat="42.88511" lon="0.07323">
        <ele>1913.64</ele>
        <time>2018-02-27T11:19:32Z</time>
      </trkpt>
      <trkpt lat="42.88503" lon="0.0732">
        <ele>1915.56</ele>
        <time>2018-02-27T11:19:45Z</time>
      </trkpt>
      <trkpt lat="42.88496" lon="0.07316">
        <ele>1917.97</ele>
        <time>2018-02-27T11:20:00Z</time>
      </trkpt>
      <trkpt lat="42.88488" lon="0.07313">
        <ele>1918.93</ele>
        <time>2018-02-27T11:20:16Z</time>
      </trkpt>
      <trkpt lat="42.88481" lon="0.07312">
        <ele>1920.85</ele>
        <time>2018-02-27T11:20:31Z</time>
      </trkpt>
      <trkpt lat="42.88471" lon="0.07308">
        <ele>1923.25</ele>
        <time>2018-02-27T11:20:48Z</time>
      </trkpt>
      <trkpt lat="42.88462" lon="0.07309">
        <ele>1925.66</ele>
        <time>2018-02-27T11:21:04Z</time>
      </trkpt>
      <trkpt lat="42.88453" lon="0.07311">
        <ele>1927.1</ele>
        <time>2018-02-27T11:21:23Z</time>
      </trkpt>
      <trkpt lat="42.88445" lon="0.07313">
        <ele>1929.02</ele>
        <time>2018-02-27T11:21:39Z</time>
      </trkpt>
      <trkpt lat="42.88437" lon="0.07313">
        <ele>1930.95</ele>
        <time>2018-02-27T11:21:56Z</time>
      </trkpt>
      <trkpt lat="42.88432" lon="0.0731">
        <ele>1933.35</ele>
        <time>2018-02-27T11:22:10Z</time>
      </trkpt>
      <trkpt lat="42.88424" lon="0.07308">
        <ele>1935.27</ele>
        <time>2018-02-27T11:22:27Z</time>
      </trkpt>
      <trkpt lat="42.88418" lon="0.07303">
        <ele>1936.71</ele>
        <time>2018-02-27T11:22:41Z</time>
      </trkpt>
      <trkpt lat="42.88413" lon="0.07301">
        <ele>1939.6</ele>
        <time>2018-02-27T11:22:56Z</time>
      </trkpt>
      <trkpt lat="42.88408" lon="0.07302">
        <ele>1941.52</ele>
        <time>2018-02-27T11:23:10Z</time>
      </trkpt>
      <trkpt lat="42.88406" lon="0.07303">
        <ele>1942</ele>
        <time>2018-02-27T11:23:29Z</time>
      </trkpt>
      <trkpt lat="42.88402" lon="0.07308">
        <ele>1944.88</ele>
        <time>2018-02-27T11:23:42Z</time>
      </trkpt>
      <trkpt lat="42.88399" lon="0.07313">
        <ele>1946.33</ele>
        <time>2018-02-27T11:23:59Z</time>
      </trkpt>
      <trkpt lat="42.884" lon="0.07308">
        <ele>1946.81</ele>
        <time>2018-02-27T11:24:24Z</time>
      </trkpt>
      <trkpt lat="42.88398" lon="0.07307">
        <ele>1947.29</ele>
        <time>2018-02-27T11:24:30Z</time>
      </trkpt>
      <trkpt lat="42.88396" lon="0.07309">
        <ele>1947.77</ele>
        <time>2018-02-27T11:24:43Z</time>
      </trkpt>
      <trkpt lat="42.88394" lon="0.07311">
        <ele>1948.73</ele>
        <time>2018-02-27T11:24:58Z</time>
      </trkpt>
      <trkpt lat="42.8839" lon="0.07307">
        <ele>1948.73</ele>
        <time>2018-02-27T11:25:18Z</time>
      </trkpt>
      <trkpt lat="42.88388" lon="0.07308">
        <ele>1949.21</ele>
        <time>2018-02-27T11:25:37Z</time>
      </trkpt>
      <trkpt lat="42.88379" lon="0.07303">
        <ele>1951.13</ele>
        <time>2018-02-27T11:25:52Z</time>
      </trkpt>
      <trkpt lat="42.88372" lon="0.07299">
        <ele>1952.09</ele>
        <time>2018-02-27T11:26:07Z</time>
      </trkpt>
      <trkpt lat="42.88358" lon="0.07294">
        <ele>1953.06</ele>
        <time>2018-02-27T11:26:24Z</time>
      </trkpt>
      <trkpt lat="42.88346" lon="0.07292">
        <ele>1954.98</ele>
        <time>2018-02-27T11:26:41Z</time>
      </trkpt>
      <trkpt lat="42.88334" lon="0.07294">
        <ele>1954.98</ele>
        <time>2018-02-27T11:26:58Z</time>
      </trkpt>
      <trkpt lat="42.88329" lon="0.07297">
        <ele>1957.86</ele>
        <time>2018-02-27T11:27:12Z</time>
      </trkpt>
      <trkpt lat="42.88322" lon="0.07301">
        <ele>1960.27</ele>
        <time>2018-02-27T11:27:29Z</time>
      </trkpt>
      <trkpt lat="42.88315" lon="0.07297">
        <ele>1961.71</ele>
        <time>2018-02-27T11:27:43Z</time>
      </trkpt>
      <trkpt lat="42.88313" lon="0.07296">
        <ele>1963.15</ele>
        <time>2018-02-27T11:27:46Z</time>
      </trkpt>
      <trkpt lat="42.88309" lon="0.07293">
        <ele>1964.11</ele>
        <time>2018-02-27T11:28:00Z</time>
      </trkpt>
      <trkpt lat="42.88304" lon="0.07292">
        <ele>1965.55</ele>
        <time>2018-02-27T11:28:13Z</time>
      </trkpt>
      <trkpt lat="42.88304" lon="0.07293">
        <ele>1966.03</ele>
        <time>2018-02-27T11:28:38Z</time>
      </trkpt>
      <trkpt lat="42.883" lon="0.07307">
        <ele>1967.48</ele>
        <time>2018-02-27T11:28:56Z</time>
      </trkpt>
      <trkpt lat="42.88298" lon="0.073">
        <ele>1968.92</ele>
        <time>2018-02-27T11:29:11Z</time>
      </trkpt>
      <trkpt lat="42.88295" lon="0.07295">
        <ele>1970.36</ele>
        <time>2018-02-27T11:29:27Z</time>
      </trkpt>
      <trkpt lat="42.88291" lon="0.07293">
        <ele>1971.32</ele>
        <time>2018-02-27T11:29:41Z</time>
      </trkpt>
      <trkpt lat="42.88288" lon="0.07294">
        <ele>1972.76</ele>
        <time>2018-02-27T11:30:01Z</time>
      </trkpt>
      <trkpt lat="42.88287" lon="0.07305">
        <ele>1973.24</ele>
        <time>2018-02-27T11:30:21Z</time>
      </trkpt>
      <trkpt lat="42.88287" lon="0.07312">
        <ele>1974.69</ele>
        <time>2018-02-27T11:30:38Z</time>
      </trkpt>
      <trkpt lat="42.88286" lon="0.07323">
        <ele>1977.09</ele>
        <time>2018-02-27T11:30:55Z</time>
      </trkpt>
      <trkpt lat="42.88287" lon="0.0733">
        <ele>1979.01</ele>
        <time>2018-02-27T11:31:11Z</time>
      </trkpt>
      <trkpt lat="42.88287" lon="0.07339">
        <ele>1980.45</ele>
        <time>2018-02-27T11:31:24Z</time>
      </trkpt>
      <trkpt lat="42.88289" lon="0.07349">
        <ele>1981.9</ele>
        <time>2018-02-27T11:31:40Z</time>
      </trkpt>
      <trkpt lat="42.88293" lon="0.0736">
        <ele>1982.86</ele>
        <time>2018-02-27T11:31:58Z</time>
      </trkpt>
      <trkpt lat="42.88299" lon="0.07369">
        <ele>1984.3</ele>
        <time>2018-02-27T11:32:15Z</time>
      </trkpt>
      <trkpt lat="42.88305" lon="0.07376">
        <ele>1986.22</ele>
        <time>2018-02-27T11:32:33Z</time>
      </trkpt>
      <trkpt lat="42.88311" lon="0.07383">
        <ele>1987.18</ele>
        <time>2018-02-27T11:32:48Z</time>
      </trkpt>
      <trkpt lat="42.88315" lon="0.07388">
        <ele>1989.59</ele>
        <time>2018-02-27T11:33:03Z</time>
      </trkpt>
      <trkpt lat="42.88323" lon="0.07396">
        <ele>1991.51</ele>
        <time>2018-02-27T11:33:18Z</time>
      </trkpt>
      <trkpt lat="42.88333" lon="0.07403">
        <ele>1993.43</ele>
        <time>2018-02-27T11:33:36Z</time>
      </trkpt>
      <trkpt lat="42.8834" lon="0.07411">
        <ele>1994.87</ele>
        <time>2018-02-27T11:33:55Z</time>
      </trkpt>
      <trkpt lat="42.88345" lon="0.07411">
        <ele>1995.35</ele>
        <time>2018-02-27T11:34:15Z</time>
      </trkpt>
      <trkpt lat="42.88349" lon="0.07416">
        <ele>1995.83</ele>
        <time>2018-02-27T11:34:30Z</time>
      </trkpt>
      <trkpt lat="42.88356" lon="0.07429">
        <ele>1998.72</ele>
        <time>2018-02-27T11:34:45Z</time>
      </trkpt>
      <trkpt lat="42.88358" lon="0.07434">
        <ele>2000.16</ele>
        <time>2018-02-27T11:34:50Z</time>
      </trkpt>
      <trkpt lat="42.88367" lon="0.07444">
        <ele>2002.56</ele>
        <time>2018-02-27T11:35:05Z</time>
      </trkpt>
      <trkpt lat="42.88378" lon="0.07451">
        <ele>2003.04</ele>
        <time>2018-02-27T11:35:21Z</time>
      </trkpt>
      <trkpt lat="42.88386" lon="0.0746">
        <ele>2004.97</ele>
        <time>2018-02-27T11:35:39Z</time>
      </trkpt>
      <trkpt lat="42.8839" lon="0.07466">
        <ele>2006.89</ele>
        <time>2018-02-27T11:35:55Z</time>
      </trkpt>
      <trkpt lat="42.88385" lon="0.07468">
        <ele>2008.81</ele>
        <time>2018-02-27T11:36:10Z</time>
      </trkpt>
      <trkpt lat="42.8838" lon="0.07473">
        <ele>2012.18</ele>
        <time>2018-02-27T11:36:24Z</time>
      </trkpt>
      <trkpt lat="42.88379" lon="0.07476">
        <ele>2008.81</ele>
        <time>2018-02-27T11:36:38Z</time>
      </trkpt>
      <trkpt lat="42.88382" lon="0.07474">
        <ele>2010.25</ele>
        <time>2018-02-27T11:36:59Z</time>
      </trkpt>
      <trkpt lat="42.88381" lon="0.07474">
        <ele>2009.77</ele>
        <time>2018-02-27T11:37:28Z</time>
      </trkpt>
      <trkpt lat="42.88382" lon="0.07474">
        <ele>2010.73</ele>
        <time>2018-02-27T11:37:52Z</time>
      </trkpt>
      <trkpt lat="42.88381" lon="0.07475">
        <ele>2010.25</ele>
        <time>2018-02-27T11:38:09Z</time>
      </trkpt>
      <trkpt lat="42.88378" lon="0.07479">
        <ele>2010.73</ele>
        <time>2018-02-27T11:38:31Z</time>
      </trkpt>
      <trkpt lat="42.88379" lon="0.07479">
        <ele>2005.93</ele>
        <time>2018-02-27T11:38:53Z</time>
      </trkpt>
      <trkpt lat="42.88381" lon="0.0748">
        <ele>2010.73</ele>
        <time>2018-02-27T11:38:57Z</time>
      </trkpt>
      <trkpt lat="42.88385" lon="0.07472">
        <ele>2011.22</ele>
        <time>2018-02-27T11:39:12Z</time>
      </trkpt>
      <trkpt lat="42.88387" lon="0.07472">
        <ele>2010.73</ele>
        <time>2018-02-27T11:39:32Z</time>
      </trkpt>
      <trkpt lat="42.88388" lon="0.07473">
        <ele>2010.25</ele>
        <time>2018-02-27T11:39:54Z</time>
      </trkpt>
      <trkpt lat="42.88385" lon="0.07473">
        <ele>2010.25</ele>
        <time>2018-02-27T11:40:18Z</time>
      </trkpt>
      <trkpt lat="42.88383" lon="0.07469">
        <ele>2010.25</ele>
        <time>2018-02-27T11:40:47Z</time>
      </trkpt>
      <trkpt lat="42.88382" lon="0.07472">
        <ele>2010.73</ele>
        <time>2018-02-27T11:41:10Z</time>
      </trkpt>
      <trkpt lat="42.88385" lon="0.07473">
        <ele>2009.77</ele>
        <time>2018-02-27T11:41:33Z</time>
      </trkpt>
      <trkpt lat="42.88387" lon="0.07473">
        <ele>2010.73</ele>
        <time>2018-02-27T11:41:54Z</time>
      </trkpt>
      <trkpt lat="42.88385" lon="0.07472">
        <ele>2010.73</ele>
        <time>2018-02-27T11:42:15Z</time>
      </trkpt>
      <trkpt lat="42.88381" lon="0.07479">
        <ele>2010.25</ele>
        <time>2018-02-27T11:42:42Z</time>
      </trkpt>
      <trkpt lat="42.88383" lon="0.07474">
        <ele>2010.73</ele>
        <time>2018-02-27T11:43:08Z</time>
      </trkpt>
      <trkpt lat="42.88383" lon="0.07471">
        <ele>2010.25</ele>
        <time>2018-02-27T11:43:37Z</time>
      </trkpt>
      <trkpt lat="42.88383" lon="0.07472">
        <ele>2009.77</ele>
        <time>2018-02-27T11:44:09Z</time>
      </trkpt>
      <trkpt lat="42.88384" lon="0.07469">
        <ele>2009.77</ele>
        <time>2018-02-27T11:44:32Z</time>
      </trkpt>
      <trkpt lat="42.8839" lon="0.07476">
        <ele>2009.77</ele>
        <time>2018-02-27T11:44:47Z</time>
      </trkpt>
      <trkpt lat="42.8839" lon="0.07479">
        <ele>2008.81</ele>
        <time>2018-02-27T11:44:57Z</time>
      </trkpt>
      <trkpt lat="42.88397" lon="0.07485">
        <ele>2006.89</ele>
        <time>2018-02-27T11:45:14Z</time>
      </trkpt>
      <trkpt lat="42.88401" lon="0.07491">
        <ele>2005.45</ele>
        <time>2018-02-27T11:45:28Z</time>
      </trkpt>
      <trkpt lat="42.88403" lon="0.07497">
        <ele>2004.97</ele>
        <time>2018-02-27T11:45:43Z</time>
      </trkpt>
      <trkpt lat="42.88398" lon="0.07496">
        <ele>2004.97</ele>
        <time>2018-02-27T11:46:01Z</time>
      </trkpt>
      <trkpt lat="42.88397" lon="0.07491">
        <ele>2005.93</ele>
        <time>2018-02-27T11:46:20Z</time>
      </trkpt>
      <trkpt lat="42.88395" lon="0.07479">
        <ele>2007.37</ele>
        <time>2018-02-27T11:46:38Z</time>
      </trkpt>
      <trkpt lat="42.88396" lon="0.07475">
        <ele>2007.85</ele>
        <time>2018-02-27T11:46:55Z</time>
      </trkpt>
      <trkpt lat="42.88393" lon="0.07472">
        <ele>2007.85</ele>
        <time>2018-02-27T11:47:16Z</time>
      </trkpt>
      <trkpt lat="42.88392" lon="0.07473">
        <ele>2007.85</ele>
        <time>2018-02-27T11:47:39Z</time>
      </trkpt>
      <trkpt lat="42.88393" lon="0.07476">
        <ele>2007.37</ele>
        <time>2018-02-27T11:47:56Z</time>
      </trkpt>
      <trkpt lat="42.8839" lon="0.07476">
        <ele>2008.33</ele>
        <time>2018-02-27T11:48:12Z</time>
      </trkpt>
      <trkpt lat="42.88383" lon="0.07474">
        <ele>2009.77</ele>
        <time>2018-02-27T11:48:27Z</time>
      </trkpt>
      <trkpt lat="42.88382" lon="0.07472">
        <ele>2009.77</ele>
        <time>2018-02-27T11:48:42Z</time>
      </trkpt>
      <trkpt lat="42.88379" lon="0.07474">
        <ele>2009.77</ele>
        <time>2018-02-27T11:48:58Z</time>
      </trkpt>
      <trkpt lat="42.88382" lon="0.07475">
        <ele>2009.77</ele>
        <time>2018-02-27T11:49:11Z</time>
      </trkpt>
      <trkpt lat="42.88381" lon="0.07475">
        <ele>2008.33</ele>
        <time>2018-02-27T11:49:49Z</time>
      </trkpt>
      <trkpt lat="42.88381" lon="0.07476">
        <ele>2008.33</ele>
        <time>2018-02-27T11:50:24Z</time>
      </trkpt>
      <trkpt lat="42.88379" lon="0.07475">
        <ele>2008.33</ele>
        <time>2018-02-27T11:51:18Z</time>
      </trkpt>
      <trkpt lat="42.8838" lon="0.07473">
        <ele>2008.33</ele>
        <time>2018-02-27T11:51:53Z</time>
      </trkpt>
      <trkpt lat="42.88381" lon="0.07476">
        <ele>2008.81</ele>
        <time>2018-02-27T11:52:28Z</time>
      </trkpt>
      <trkpt lat="42.8838" lon="0.07475">
        <ele>2008.33</ele>
        <time>2018-02-27T11:53:03Z</time>
      </trkpt>
      <trkpt lat="42.88382" lon="0.07475">
        <ele>2008.81</ele>
        <time>2018-02-27T11:53:38Z</time>
      </trkpt>
      <trkpt lat="42.88383" lon="0.07473">
        <ele>2009.29</ele>
        <time>2018-02-27T11:54:16Z</time>
      </trkpt>
      <trkpt lat="42.88383" lon="0.07474">
        <ele>2008.81</ele>
        <time>2018-02-27T11:54:51Z</time>
      </trkpt>
      <trkpt lat="42.88384" lon="0.07476">
        <ele>2010.25</ele>
        <time>2018-02-27T11:55:26Z</time>
      </trkpt>
      <trkpt lat="42.88379" lon="0.07475">
        <ele>2009.29</ele>
        <time>2018-02-27T11:56:01Z</time>
      </trkpt>
      <trkpt lat="42.88381" lon="0.07473">
        <ele>2009.29</ele>
        <time>2018-02-27T11:56:42Z</time>
      </trkpt>
      <trkpt lat="42.88379" lon="0.07476">
        <ele>2009.29</ele>
        <time>2018-02-27T11:57:27Z</time>
      </trkpt>
      <trkpt lat="42.88381" lon="0.07472">
        <ele>2008.81</ele>
        <time>2018-02-27T11:58:13Z</time>
      </trkpt>
      <trkpt lat="42.88382" lon="0.07471">
        <ele>2008.33</ele>
        <time>2018-02-27T11:59:02Z</time>
      </trkpt>
      <trkpt lat="42.88381" lon="0.07476">
        <ele>2008.33</ele>
        <time>2018-02-27T11:59:45Z</time>
      </trkpt>
      <trkpt lat="42.88382" lon="0.07475">
        <ele>2008.33</ele>
        <time>2018-02-27T12:00:27Z</time>
      </trkpt>
      <trkpt lat="42.88384" lon="0.07474">
        <ele>2008.81</ele>
        <time>2018-02-27T12:01:05Z</time>
      </trkpt>
      <trkpt lat="42.88383" lon="0.07474">
        <ele>2007.85</ele>
        <time>2018-02-27T12:01:23Z</time>
      </trkpt>
      <trkpt lat="42.88385" lon="0.07474">
        <ele>2007.85</ele>
        <time>2018-02-27T12:01:51Z</time>
      </trkpt>
      <trkpt lat="42.88381" lon="0.07475">
        <ele>2008.33</ele>
        <time>2018-02-27T12:02:22Z</time>
      </trkpt>
      <trkpt lat="42.88377" lon="0.07478">
        <ele>2008.33</ele>
        <time>2018-02-27T12:03:16Z</time>
      </trkpt>
      <trkpt lat="42.88382" lon="0.07476">
        <ele>2008.81</ele>
        <time>2018-02-27T12:04:11Z</time>
      </trkpt>
      <trkpt lat="42.88385" lon="0.07475">
        <ele>2008.81</ele>
        <time>2018-02-27T12:05:03Z</time>
      </trkpt>
      <trkpt lat="42.88386" lon="0.07472">
        <ele>2009.29</ele>
        <time>2018-02-27T12:05:37Z</time>
      </trkpt>
      <trkpt lat="42.88381" lon="0.07476">
        <ele>2009.29</ele>
        <time>2018-02-27T12:06:27Z</time>
      </trkpt>
      <trkpt lat="42.88385" lon="0.07472">
        <ele>2009.29</ele>
        <time>2018-02-27T12:07:08Z</time>
      </trkpt>
      <trkpt lat="42.88384" lon="0.07472">
        <ele>2009.29</ele>
        <time>2018-02-27T12:07:48Z</time>
      </trkpt>
      <trkpt lat="42.88385" lon="0.07474">
        <ele>2010.25</ele>
        <time>2018-02-27T12:08:33Z</time>
      </trkpt>
      <trkpt lat="42.88381" lon="0.07475">
        <ele>2009.77</ele>
        <time>2018-02-27T12:08:58Z</time>
      </trkpt>
      <trkpt lat="42.8838" lon="0.07478">
        <ele>2009.29</ele>
        <time>2018-02-27T12:09:32Z</time>
      </trkpt>
      <trkpt lat="42.88384" lon="0.07474">
        <ele>2009.77</ele>
        <time>2018-02-27T12:10:09Z</time>
      </trkpt>
      <trkpt lat="42.88385" lon="0.07475">
        <ele>2010.25</ele>
        <time>2018-02-27T12:10:40Z</time>
      </trkpt>
      <trkpt lat="42.88384" lon="0.07477">
        <ele>2009.77</ele>
        <time>2018-02-27T12:11:23Z</time>
      </trkpt>
      <trkpt lat="42.88382" lon="0.07477">
        <ele>2010.25</ele>
        <time>2018-02-27T12:11:54Z</time>
      </trkpt>
      <trkpt lat="42.88381" lon="0.07475">
        <ele>2009.77</ele>
        <time>2018-02-27T12:12:33Z</time>
      </trkpt>
      <trkpt lat="42.88383" lon="0.07476">
        <ele>2009.77</ele>
        <time>2018-02-27T12:13:17Z</time>
      </trkpt>
      <trkpt lat="42.88385" lon="0.07474">
        <ele>2010.73</ele>
        <time>2018-02-27T12:14:00Z</time>
      </trkpt>
      <trkpt lat="42.88382" lon="0.07475">
        <ele>2010.25</ele>
        <time>2018-02-27T12:14:36Z</time>
      </trkpt>
      <trkpt lat="42.88381" lon="0.07475">
        <ele>2009.77</ele>
        <time>2018-02-27T12:15:11Z</time>
      </trkpt>
      <trkpt lat="42.88384" lon="0.07474">
        <ele>2010.25</ele>
        <time>2018-02-27T12:15:52Z</time>
      </trkpt>
      <trkpt lat="42.88382" lon="0.07475">
        <ele>2010.25</ele>
        <time>2018-02-27T12:16:23Z</time>
      </trkpt>
      <trkpt lat="42.88381" lon="0.07476">
        <ele>2010.25</ele>
        <time>2018-02-27T12:16:47Z</time>
      </trkpt>
      <trkpt lat="42.88382" lon="0.07475">
        <ele>2010.25</ele>
        <time>2018-02-27T12:17:22Z</time>
      </trkpt>
      <trkpt lat="42.88386" lon="0.07473">
        <ele>2010.25</ele>
        <time>2018-02-27T12:18:02Z</time>
      </trkpt>
      <trkpt lat="42.88382" lon="0.07474">
        <ele>2009.77</ele>
        <time>2018-02-27T12:18:41Z</time>
      </trkpt>
      <trkpt lat="42.88386" lon="0.07472">
        <ele>2010.73</ele>
        <time>2018-02-27T12:19:21Z</time>
      </trkpt>
      <trkpt lat="42.88385" lon="0.07473">
        <ele>2010.73</ele>
        <time>2018-02-27T12:19:57Z</time>
      </trkpt>
      <trkpt lat="42.88382" lon="0.07473">
        <ele>2010.73</ele>
        <time>2018-02-27T12:20:31Z</time>
      </trkpt>
      <trkpt lat="42.88383" lon="0.07475">
        <ele>2011.22</ele>
        <time>2018-02-27T12:21:08Z</time>
      </trkpt>
      <trkpt lat="42.88388" lon="0.07473">
        <ele>2010.73</ele>
        <time>2018-02-27T12:21:43Z</time>
      </trkpt>
      <trkpt lat="42.88387" lon="0.07474">
        <ele>2011.22</ele>
        <time>2018-02-27T12:22:21Z</time>
      </trkpt>
      <trkpt lat="42.88382" lon="0.07476">
        <ele>2010.25</ele>
        <time>2018-02-27T12:22:53Z</time>
      </trkpt>
      <trkpt lat="42.88381" lon="0.07476">
        <ele>2010.73</ele>
        <time>2018-02-27T12:23:33Z</time>
      </trkpt>
      <trkpt lat="42.88379" lon="0.07473">
        <ele>2010.25</ele>
        <time>2018-02-27T12:24:04Z</time>
      </trkpt>
      <trkpt lat="42.8838" lon="0.07477">
        <ele>2010.73</ele>
        <time>2018-02-27T12:24:26Z</time>
      </trkpt>
      <trkpt lat="42.88382" lon="0.07478">
        <ele>2010.73</ele>
        <time>2018-02-27T12:24:52Z</time>
      </trkpt>
      <trkpt lat="42.88381" lon="0.07477">
        <ele>2010.25</ele>
        <time>2018-02-27T12:25:20Z</time>
      </trkpt>
      <trkpt lat="42.88381" lon="0.07475">
        <ele>2011.22</ele>
        <time>2018-02-27T12:26:11Z</time>
      </trkpt>
      <trkpt lat="42.88385" lon="0.07476">
        <ele>2010.25</ele>
        <time>2018-02-27T12:26:51Z</time>
      </trkpt>
      <trkpt lat="42.88385" lon="0.07477">
        <ele>2010.25</ele>
        <time>2018-02-27T12:27:24Z</time>
      </trkpt>
      <trkpt lat="42.88383" lon="0.07476">
        <ele>2010.73</ele>
        <time>2018-02-27T12:27:59Z</time>
      </trkpt>
      <trkpt lat="42.88383" lon="0.07475">
        <ele>2010.73</ele>
        <time>2018-02-27T12:28:41Z</time>
      </trkpt>
      <trkpt lat="42.88383" lon="0.07476">
        <ele>2010.25</ele>
        <time>2018-02-27T12:29:20Z</time>
      </trkpt>
      <trkpt lat="42.88384" lon="0.07475">
        <ele>2010.73</ele>
        <time>2018-02-27T12:29:53Z</time>
      </trkpt>
      <trkpt lat="42.88383" lon="0.07477">
        <ele>2010.25</ele>
        <time>2018-02-27T12:30:28Z</time>
      </trkpt>
      <trkpt lat="42.88382" lon="0.07472">
        <ele>2010.25</ele>
        <time>2018-02-27T12:30:44Z</time>
      </trkpt>
      <trkpt lat="42.88382" lon="0.07473">
        <ele>2010.25</ele>
        <time>2018-02-27T12:31:11Z</time>
      </trkpt>
      <trkpt lat="42.88381" lon="0.07476">
        <ele>2010.25</ele>
        <time>2018-02-27T12:31:26Z</time>
      </trkpt>
      <trkpt lat="42.8838" lon="0.07478">
        <ele>2010.25</ele>
        <time>2018-02-27T12:31:46Z</time>
      </trkpt>
      <trkpt lat="42.88383" lon="0.07477">
        <ele>2011.22</ele>
        <time>2018-02-27T12:32:17Z</time>
      </trkpt>
      <trkpt lat="42.88381" lon="0.07478">
        <ele>2010.73</ele>
        <time>2018-02-27T12:33:46Z</time>
      </trkpt>
      <trkpt lat="42.8838" lon="0.07478">
        <ele>2010.73</ele>
        <time>2018-02-27T12:34:19Z</time>
      </trkpt>
      <trkpt lat="42.88377" lon="0.07477">
        <ele>2010.73</ele>
        <time>2018-02-27T12:34:48Z</time>
      </trkpt>
      <trkpt lat="42.88381" lon="0.07477">
        <ele>2011.22</ele>
        <time>2018-02-27T12:35:25Z</time>
      </trkpt>
      <trkpt lat="42.88382" lon="0.07476">
        <ele>2010.73</ele>
        <time>2018-02-27T12:35:58Z</time>
      </trkpt>
      <trkpt lat="42.88381" lon="0.07475">
        <ele>2010.73</ele>
        <time>2018-02-27T12:36:41Z</time>
      </trkpt>
      <trkpt lat="42.88384" lon="0.07474">
        <ele>2010.73</ele>
        <time>2018-02-27T12:37:25Z</time>
      </trkpt>
      <trkpt lat="42.88384" lon="0.07476">
        <ele>2010.25</ele>
        <time>2018-02-27T12:38:01Z</time>
      </trkpt>
      <trkpt lat="42.88383" lon="0.07476">
        <ele>2010.73</ele>
        <time>2018-02-27T12:38:30Z</time>
      </trkpt>
      <trkpt lat="42.88382" lon="0.07475">
        <ele>2010.25</ele>
        <time>2018-02-27T12:39:08Z</time>
      </trkpt>
      <trkpt lat="42.88384" lon="0.07478">
        <ele>2010.73</ele>
        <time>2018-02-27T12:39:29Z</time>
      </trkpt>
      <trkpt lat="42.88384" lon="0.07476">
        <ele>2010.73</ele>
        <time>2018-02-27T12:39:59Z</time>
      </trkpt>
      <trkpt lat="42.88382" lon="0.07475">
        <ele>2010.25</ele>
        <time>2018-02-27T12:40:18Z</time>
      </trkpt>
      <trkpt lat="42.88383" lon="0.07477">
        <ele>2009.77</ele>
        <time>2018-02-27T12:40:43Z</time>
      </trkpt>
      <trkpt lat="42.88387" lon="0.07477">
        <ele>2010.25</ele>
        <time>2018-02-27T12:41:11Z</time>
      </trkpt>
      <trkpt lat="42.88385" lon="0.07476">
        <ele>2010.25</ele>
        <time>2018-02-27T12:41:44Z</time>
      </trkpt>
      <trkpt lat="42.88383" lon="0.07476">
        <ele>2009.77</ele>
        <time>2018-02-27T12:42:11Z</time>
      </trkpt>
      <trkpt lat="42.8838" lon="0.07475">
        <ele>2009.77</ele>
        <time>2018-02-27T12:42:40Z</time>
      </trkpt>
      <trkpt lat="42.88381" lon="0.07476">
        <ele>2009.77</ele>
        <time>2018-02-27T12:43:07Z</time>
      </trkpt>
      <trkpt lat="42.88377" lon="0.07477">
        <ele>2010.25</ele>
        <time>2018-02-27T12:43:42Z</time>
      </trkpt>
      <trkpt lat="42.8838" lon="0.07476">
        <ele>2009.29</ele>
        <time>2018-02-27T12:44:06Z</time>
      </trkpt>
      <trkpt lat="42.88385" lon="0.07478">
        <ele>2010.25</ele>
        <time>2018-02-27T12:44:24Z</time>
      </trkpt>
      <trkpt lat="42.88385" lon="0.07479">
        <ele>2009.77</ele>
        <time>2018-02-27T12:45:02Z</time>
      </trkpt>
      <trkpt lat="42.88384" lon="0.07478">
        <ele>2009.77</ele>
        <time>2018-02-27T12:45:34Z</time>
      </trkpt>
      <trkpt lat="42.88387" lon="0.07476">
        <ele>2009.77</ele>
        <time>2018-02-27T12:46:18Z</time>
      </trkpt>
      <trkpt lat="42.88384" lon="0.07474">
        <ele>2009.29</ele>
        <time>2018-02-27T12:47:03Z</time>
      </trkpt>
      <trkpt lat="42.88385" lon="0.07475">
        <ele>2008.81</ele>
        <time>2018-02-27T12:47:40Z</time>
      </trkpt>
      <trkpt lat="42.88386" lon="0.07475">
        <ele>2010.25</ele>
        <time>2018-02-27T12:47:43Z</time>
      </trkpt>
      <trkpt lat="42.88387" lon="0.07475">
        <ele>2009.77</ele>
        <time>2018-02-27T12:48:06Z</time>
      </trkpt>
      <trkpt lat="42.88391" lon="0.07474">
        <ele>2010.25</ele>
        <time>2018-02-27T12:48:31Z</time>
      </trkpt>
      <trkpt lat="42.88391" lon="0.07476">
        <ele>2004.97</ele>
        <time>2018-02-27T12:48:35Z</time>
      </trkpt>
      <trkpt lat="42.88391" lon="0.07475">
        <ele>2014.58</ele>
        <time>2018-02-27T12:48:36Z</time>
      </trkpt>
      <trkpt lat="42.88391" lon="0.07476">
        <ele>2009.77</ele>
        <time>2018-02-27T12:48:37Z</time>
      </trkpt>
      <trkpt lat="42.88393" lon="0.0747">
        <ele>2010.25</ele>
        <time>2018-02-27T12:48:52Z</time>
      </trkpt>
      <trkpt lat="42.88392" lon="0.0747">
        <ele>2008.81</ele>
        <time>2018-02-27T12:49:14Z</time>
      </trkpt>
      <trkpt lat="42.88394" lon="0.07467">
        <ele>2006.89</ele>
        <time>2018-02-27T12:49:28Z</time>
      </trkpt>
      <trkpt lat="42.88389" lon="0.07455">
        <ele>2004.49</ele>
        <time>2018-02-27T12:49:42Z</time>
      </trkpt>
      <trkpt lat="42.88383" lon="0.0745">
        <ele>2004.49</ele>
        <time>2018-02-27T12:49:56Z</time>
      </trkpt>
      <trkpt lat="42.88376" lon="0.07442">
        <ele>2000.64</ele>
        <time>2018-02-27T12:50:10Z</time>
      </trkpt>
      <trkpt lat="42.88374" lon="0.07439">
        <ele>2001.12</ele>
        <time>2018-02-27T12:50:23Z</time>
      </trkpt>
      <trkpt lat="42.88376" lon="0.07441">
        <ele>2002.08</ele>
        <time>2018-02-27T12:50:41Z</time>
      </trkpt>
      <trkpt lat="42.88375" lon="0.07439">
        <ele>2001.6</ele>
        <time>2018-02-27T12:51:00Z</time>
      </trkpt>
      <trkpt lat="42.88372" lon="0.07434">
        <ele>2000.64</ele>
        <time>2018-02-27T12:51:19Z</time>
      </trkpt>
      <trkpt lat="42.88372" lon="0.07433">
        <ele>2000.64</ele>
        <time>2018-02-27T12:51:20Z</time>
      </trkpt>
      <trkpt lat="42.88361" lon="0.07422">
        <ele>1997.76</ele>
        <time>2018-02-27T12:51:33Z</time>
      </trkpt>
      <trkpt lat="42.88353" lon="0.07413">
        <ele>1995.83</ele>
        <time>2018-02-27T12:51:41Z</time>
      </trkpt>
      <trkpt lat="42.88342" lon="0.074">
        <ele>1992.47</ele>
        <time>2018-02-27T12:51:55Z</time>
      </trkpt>
      <trkpt lat="42.88332" lon="0.07389">
        <ele>1990.55</ele>
        <time>2018-02-27T12:52:09Z</time>
      </trkpt>
      <trkpt lat="42.88324" lon="0.0738">
        <ele>1988.62</ele>
        <time>2018-02-27T12:52:18Z</time>
      </trkpt>
      <trkpt lat="42.88322" lon="0.07377">
        <ele>1987.66</ele>
        <time>2018-02-27T12:52:20Z</time>
      </trkpt>
      <trkpt lat="42.88316" lon="0.0737">
        <ele>1985.74</ele>
        <time>2018-02-27T12:52:28Z</time>
      </trkpt>
      <trkpt lat="42.88306" lon="0.07356">
        <ele>1981.9</ele>
        <time>2018-02-27T12:52:42Z</time>
      </trkpt>
      <trkpt lat="42.88301" lon="0.07338">
        <ele>1979.01</ele>
        <time>2018-02-27T12:52:56Z</time>
      </trkpt>
      <trkpt lat="42.88302" lon="0.07322">
        <ele>1976.61</ele>
        <time>2018-02-27T12:53:10Z</time>
      </trkpt>
      <trkpt lat="42.88303" lon="0.07311">
        <ele>1973.24</ele>
        <time>2018-02-27T12:53:20Z</time>
      </trkpt>
      <trkpt lat="42.88301" lon="0.07298">
        <ele>1970.84</ele>
        <time>2018-02-27T12:53:34Z</time>
      </trkpt>
      <trkpt lat="42.88306" lon="0.073">
        <ele>1967.48</ele>
        <time>2018-02-27T12:53:49Z</time>
      </trkpt>
      <trkpt lat="42.88311" lon="0.07302">
        <ele>1965.55</ele>
        <time>2018-02-27T12:54:03Z</time>
      </trkpt>
      <trkpt lat="42.88314" lon="0.07302">
        <ele>1962.19</ele>
        <time>2018-02-27T12:54:17Z</time>
      </trkpt>
      <trkpt lat="42.88321" lon="0.07307">
        <ele>1959.78</ele>
        <time>2018-02-27T12:54:31Z</time>
      </trkpt>
      <trkpt lat="42.88327" lon="0.07303">
        <ele>1957.86</ele>
        <time>2018-02-27T12:54:45Z</time>
      </trkpt>
      <trkpt lat="42.88335" lon="0.073">
        <ele>1954.02</ele>
        <time>2018-02-27T12:54:59Z</time>
      </trkpt>
      <trkpt lat="42.88341" lon="0.073">
        <ele>1952.09</ele>
        <time>2018-02-27T12:55:09Z</time>
      </trkpt>
      <trkpt lat="42.88354" lon="0.07305">
        <ele>1951.13</ele>
        <time>2018-02-27T12:55:26Z</time>
      </trkpt>
      <trkpt lat="42.88359" lon="0.07305">
        <ele>1950.65</ele>
        <time>2018-02-27T12:55:32Z</time>
      </trkpt>
      <trkpt lat="42.88375" lon="0.07313">
        <ele>1948.25</ele>
        <time>2018-02-27T12:55:50Z</time>
      </trkpt>
      <trkpt lat="42.88387" lon="0.0731">
        <ele>1946.81</ele>
        <time>2018-02-27T12:56:05Z</time>
      </trkpt>
      <trkpt lat="42.88394" lon="0.07311">
        <ele>1945.85</ele>
        <time>2018-02-27T12:56:21Z</time>
      </trkpt>
      <trkpt lat="42.88405" lon="0.07312">
        <ele>1942.96</ele>
        <time>2018-02-27T12:56:35Z</time>
      </trkpt>
      <trkpt lat="42.88412" lon="0.0731">
        <ele>1940.56</ele>
        <time>2018-02-27T12:56:43Z</time>
      </trkpt>
      <trkpt lat="42.8842" lon="0.07316">
        <ele>1937.19</ele>
        <time>2018-02-27T12:56:53Z</time>
      </trkpt>
      <trkpt lat="42.88426" lon="0.07319">
        <ele>1933.83</ele>
        <time>2018-02-27T12:57:03Z</time>
      </trkpt>
      <trkpt lat="42.88437" lon="0.0732">
        <ele>1930.46</ele>
        <time>2018-02-27T12:57:17Z</time>
      </trkpt>
      <trkpt lat="42.88441" lon="0.07321">
        <ele>1929.5</ele>
        <time>2018-02-27T12:57:22Z</time>
      </trkpt>
      <trkpt lat="42.88449" lon="0.07323">
        <ele>1926.14</ele>
        <time>2018-02-27T12:57:31Z</time>
      </trkpt>
      <trkpt lat="42.8845" lon="0.07323">
        <ele>1926.14</ele>
        <time>2018-02-27T12:57:32Z</time>
      </trkpt>
      <trkpt lat="42.88465" lon="0.07323">
        <ele>1923.25</ele>
        <time>2018-02-27T12:57:44Z</time>
      </trkpt>
      <trkpt lat="42.88476" lon="0.07325">
        <ele>1919.89</ele>
        <time>2018-02-27T12:57:55Z</time>
      </trkpt>
      <trkpt lat="42.88489" lon="0.07323">
        <ele>1916.53</ele>
        <time>2018-02-27T12:58:09Z</time>
      </trkpt>
      <trkpt lat="42.88491" lon="0.07324">
        <ele>1916.04</ele>
        <time>2018-02-27T12:58:10Z</time>
      </trkpt>
      <trkpt lat="42.88503" lon="0.07333">
        <ele>1913.16</ele>
        <time>2018-02-27T12:58:24Z</time>
      </trkpt>
      <trkpt lat="42.88512" lon="0.07338">
        <ele>1909.8</ele>
        <time>2018-02-27T12:58:35Z</time>
      </trkpt>
      <trkpt lat="42.88521" lon="0.07345">
        <ele>1906.91</ele>
        <time>2018-02-27T12:58:46Z</time>
      </trkpt>
      <trkpt lat="42.88522" lon="0.07346">
        <ele>1906.43</ele>
        <time>2018-02-27T12:58:47Z</time>
      </trkpt>
      <trkpt lat="42.88535" lon="0.07358">
        <ele>1903.07</ele>
        <time>2018-02-27T12:59:01Z</time>
      </trkpt>
      <trkpt lat="42.88536" lon="0.07359">
        <ele>1903.07</ele>
        <time>2018-02-27T12:59:02Z</time>
      </trkpt>
      <trkpt lat="42.88551" lon="0.07367">
        <ele>1899.7</ele>
        <time>2018-02-27T12:59:15Z</time>
      </trkpt>
      <trkpt lat="42.88563" lon="0.07378">
        <ele>1896.82</ele>
        <time>2018-02-27T12:59:28Z</time>
      </trkpt>
      <trkpt lat="42.88575" lon="0.07392">
        <ele>1893.45</ele>
        <time>2018-02-27T12:59:43Z</time>
      </trkpt>
      <trkpt lat="42.88587" lon="0.07403">
        <ele>1890.57</ele>
        <time>2018-02-27T12:59:56Z</time>
      </trkpt>
      <trkpt lat="42.886" lon="0.07414">
        <ele>1887.21</ele>
        <time>2018-02-27T13:00:09Z</time>
      </trkpt>
      <trkpt lat="42.88606" lon="0.07422">
        <ele>1884.8</ele>
        <time>2018-02-27T13:00:17Z</time>
      </trkpt>
      <trkpt lat="42.88616" lon="0.07431">
        <ele>1881.92</ele>
        <time>2018-02-27T13:00:26Z</time>
      </trkpt>
      <trkpt lat="42.88626" lon="0.07444">
        <ele>1879.03</ele>
        <time>2018-02-27T13:00:40Z</time>
      </trkpt>
      <trkpt lat="42.88628" lon="0.07447">
        <ele>1879.03</ele>
        <time>2018-02-27T13:00:56Z</time>
      </trkpt>
      <trkpt lat="42.88632" lon="0.07454">
        <ele>1878.07</ele>
        <time>2018-02-27T13:01:13Z</time>
      </trkpt>
      <trkpt lat="42.88638" lon="0.07463">
        <ele>1875.19</ele>
        <time>2018-02-27T13:01:25Z</time>
      </trkpt>
      <trkpt lat="42.88643" lon="0.07474">
        <ele>1871.82</ele>
        <time>2018-02-27T13:01:37Z</time>
      </trkpt>
      <trkpt lat="42.88649" lon="0.07486">
        <ele>1868.94</ele>
        <time>2018-02-27T13:01:49Z</time>
      </trkpt>
      <trkpt lat="42.88652" lon="0.07489">
        <ele>1868.46</ele>
        <time>2018-02-27T13:02:02Z</time>
      </trkpt>
      <trkpt lat="42.8865" lon="0.07494">
        <ele>1866.06</ele>
        <time>2018-02-27T13:02:17Z</time>
      </trkpt>
      <trkpt lat="42.88647" lon="0.07498">
        <ele>1864.13</ele>
        <time>2018-02-27T13:02:34Z</time>
      </trkpt>
      <trkpt lat="42.88652" lon="0.07503">
        <ele>1862.21</ele>
        <time>2018-02-27T13:02:42Z</time>
      </trkpt>
      <trkpt lat="42.88661" lon="0.07502">
        <ele>1861.73</ele>
        <time>2018-02-27T13:02:53Z</time>
      </trkpt>
      <trkpt lat="42.88662" lon="0.07506">
        <ele>1861.25</ele>
        <time>2018-02-27T13:03:05Z</time>
      </trkpt>
      <trkpt lat="42.88663" lon="0.07502">
        <ele>1862.21</ele>
        <time>2018-02-27T13:03:32Z</time>
      </trkpt>
      <trkpt lat="42.88666" lon="0.075">
        <ele>1861.73</ele>
        <time>2018-02-27T13:04:03Z</time>
      </trkpt>
      <trkpt lat="42.88666" lon="0.07499">
        <ele>1862.21</ele>
        <time>2018-02-27T13:04:28Z</time>
      </trkpt>
      <trkpt lat="42.88665" lon="0.07505">
        <ele>1861.25</ele>
        <time>2018-02-27T13:04:49Z</time>
      </trkpt>
      <trkpt lat="42.88664" lon="0.07505">
        <ele>1860.77</ele>
        <time>2018-02-27T13:05:27Z</time>
      </trkpt>
      <trkpt lat="42.8866" lon="0.075">
        <ele>1861.25</ele>
        <time>2018-02-27T13:05:45Z</time>
      </trkpt>
      <trkpt lat="42.88661" lon="0.075">
        <ele>1862.21</ele>
        <time>2018-02-27T13:05:47Z</time>
      </trkpt>
      <trkpt lat="42.88659" lon="0.07499">
        <ele>1862.21</ele>
        <time>2018-02-27T13:06:05Z</time>
      </trkpt>
      <trkpt lat="42.88661" lon="0.07496">
        <ele>1862.21</ele>
        <time>2018-02-27T13:06:36Z</time>
      </trkpt>
      <trkpt lat="42.88658" lon="0.07499">
        <ele>1862.69</ele>
        <time>2018-02-27T13:06:58Z</time>
      </trkpt>
      <trkpt lat="42.88665" lon="0.07507">
        <ele>1862.21</ele>
        <time>2018-02-27T13:07:15Z</time>
      </trkpt>
      <trkpt lat="42.88666" lon="0.07513">
        <ele>1861.73</ele>
        <time>2018-02-27T13:07:33Z</time>
      </trkpt>
      <trkpt lat="42.88665" lon="0.07503">
        <ele>1862.21</ele>
        <time>2018-02-27T13:07:50Z</time>
      </trkpt>
      <trkpt lat="42.88666" lon="0.07499">
        <ele>1863.17</ele>
        <time>2018-02-27T13:08:02Z</time>
      </trkpt>
      <trkpt lat="42.88666" lon="0.07502">
        <ele>1863.65</ele>
        <time>2018-02-27T13:08:18Z</time>
      </trkpt>
      <trkpt lat="42.88667" lon="0.07503">
        <ele>1863.17</ele>
        <time>2018-02-27T13:08:23Z</time>
      </trkpt>
      <trkpt lat="42.88672" lon="0.07495">
        <ele>1862.21</ele>
        <time>2018-02-27T13:08:33Z</time>
      </trkpt>
      <trkpt lat="42.88677" lon="0.07493">
        <ele>1860.77</ele>
        <time>2018-02-27T13:08:39Z</time>
      </trkpt>
      <trkpt lat="42.88679" lon="0.07481">
        <ele>1859.33</ele>
        <time>2018-02-27T13:08:53Z</time>
      </trkpt>
      <trkpt lat="42.88684" lon="0.07472">
        <ele>1857.89</ele>
        <time>2018-02-27T13:09:03Z</time>
      </trkpt>
      <trkpt lat="42.88682" lon="0.07468">
        <ele>1858.37</ele>
        <time>2018-02-27T13:09:15Z</time>
      </trkpt>
      <trkpt lat="42.88679" lon="0.07463">
        <ele>1859.81</ele>
        <time>2018-02-27T13:09:24Z</time>
      </trkpt>
      <trkpt lat="42.88677" lon="0.07453">
        <ele>1860.29</ele>
        <time>2018-02-27T13:09:37Z</time>
      </trkpt>
      <trkpt lat="42.88682" lon="0.07452">
        <ele>1859.33</ele>
        <time>2018-02-27T13:09:51Z</time>
      </trkpt>
      <trkpt lat="42.88689" lon="0.07448">
        <ele>1855.96</ele>
        <time>2018-02-27T13:10:06Z</time>
      </trkpt>
      <trkpt lat="42.88692" lon="0.07448">
        <ele>1856.44</ele>
        <time>2018-02-27T13:10:21Z</time>
      </trkpt>
      <trkpt lat="42.88694" lon="0.07447">
        <ele>1852.6</ele>
        <time>2018-02-27T13:10:34Z</time>
      </trkpt>
      <trkpt lat="42.88695" lon="0.07447">
        <ele>1852.6</ele>
        <time>2018-02-27T13:10:35Z</time>
      </trkpt>
      <trkpt lat="42.887" lon="0.07442">
        <ele>1851.16</ele>
        <time>2018-02-27T13:10:49Z</time>
      </trkpt>
      <trkpt lat="42.88701" lon="0.0744">
        <ele>1849.71</ele>
        <time>2018-02-27T13:10:52Z</time>
      </trkpt>
      <trkpt lat="42.88708" lon="0.07441">
        <ele>1846.35</ele>
        <time>2018-02-27T13:11:07Z</time>
      </trkpt>
      <trkpt lat="42.88709" lon="0.07439">
        <ele>1845.39</ele>
        <time>2018-02-27T13:11:20Z</time>
      </trkpt>
      <trkpt lat="42.88716" lon="0.07436">
        <ele>1842.98</ele>
        <time>2018-02-27T13:11:33Z</time>
      </trkpt>
      <trkpt lat="42.88721" lon="0.07435">
        <ele>1839.62</ele>
        <time>2018-02-27T13:11:46Z</time>
      </trkpt>
      <trkpt lat="42.88726" lon="0.07435">
        <ele>1836.26</ele>
        <time>2018-02-27T13:12:00Z</time>
      </trkpt>
      <trkpt lat="42.88732" lon="0.07435">
        <ele>1834.33</ele>
        <time>2018-02-27T13:12:13Z</time>
      </trkpt>
      <trkpt lat="42.88734" lon="0.07431">
        <ele>1833.85</ele>
        <time>2018-02-27T13:12:31Z</time>
      </trkpt>
      <trkpt lat="42.88738" lon="0.07436">
        <ele>1830.97</ele>
        <time>2018-02-27T13:12:55Z</time>
      </trkpt>
      <trkpt lat="42.88748" lon="0.0743">
        <ele>1827.6</ele>
        <time>2018-02-27T13:13:09Z</time>
      </trkpt>
      <trkpt lat="42.88751" lon="0.0743">
        <ele>1824.24</ele>
        <time>2018-02-27T13:13:25Z</time>
      </trkpt>
      <trkpt lat="42.88758" lon="0.07425">
        <ele>1821.35</ele>
        <time>2018-02-27T13:13:41Z</time>
      </trkpt>
      <trkpt lat="42.88761" lon="0.07427">
        <ele>1818.95</ele>
        <time>2018-02-27T13:13:51Z</time>
      </trkpt>
      <trkpt lat="42.88766" lon="0.0742">
        <ele>1815.59</ele>
        <time>2018-02-27T13:14:05Z</time>
      </trkpt>
      <trkpt lat="42.88771" lon="0.07421">
        <ele>1813.18</ele>
        <time>2018-02-27T13:14:18Z</time>
      </trkpt>
      <trkpt lat="42.88778" lon="0.07422">
        <ele>1810.3</ele>
        <time>2018-02-27T13:14:30Z</time>
      </trkpt>
      <trkpt lat="42.88784" lon="0.07421">
        <ele>1806.94</ele>
        <time>2018-02-27T13:14:43Z</time>
      </trkpt>
      <trkpt lat="42.88783" lon="0.07414">
        <ele>1808.86</ele>
        <time>2018-02-27T13:15:02Z</time>
      </trkpt>
      <trkpt lat="42.88784" lon="0.07415">
        <ele>1807.42</ele>
        <time>2018-02-27T13:15:23Z</time>
      </trkpt>
      <trkpt lat="42.88792" lon="0.07419">
        <ele>1804.05</ele>
        <time>2018-02-27T13:15:36Z</time>
      </trkpt>
      <trkpt lat="42.888" lon="0.07417">
        <ele>1800.69</ele>
        <time>2018-02-27T13:15:49Z</time>
      </trkpt>
      <trkpt lat="42.88804" lon="0.07416">
        <ele>1799.24</ele>
        <time>2018-02-27T13:16:08Z</time>
      </trkpt>
      <trkpt lat="42.88806" lon="0.07419">
        <ele>1795.88</ele>
        <time>2018-02-27T13:16:24Z</time>
      </trkpt>
      <trkpt lat="42.88812" lon="0.07416">
        <ele>1793</ele>
        <time>2018-02-27T13:16:35Z</time>
      </trkpt>
      <trkpt lat="42.88815" lon="0.07413">
        <ele>1792.03</ele>
        <time>2018-02-27T13:16:50Z</time>
      </trkpt>
      <trkpt lat="42.88822" lon="0.07409">
        <ele>1790.11</ele>
        <time>2018-02-27T13:17:04Z</time>
      </trkpt>
      <trkpt lat="42.88825" lon="0.07413">
        <ele>1788.19</ele>
        <time>2018-02-27T13:17:15Z</time>
      </trkpt>
      <trkpt lat="42.8883" lon="0.07411">
        <ele>1784.82</ele>
        <time>2018-02-27T13:17:28Z</time>
      </trkpt>
      <trkpt lat="42.88837" lon="0.07408">
        <ele>1781.46</ele>
        <time>2018-02-27T13:17:39Z</time>
      </trkpt>
      <trkpt lat="42.88845" lon="0.07405">
        <ele>1779.06</ele>
        <time>2018-02-27T13:17:55Z</time>
      </trkpt>
      <trkpt lat="42.88849" lon="0.07407">
        <ele>1778.1</ele>
        <time>2018-02-27T13:18:10Z</time>
      </trkpt>
      <trkpt lat="42.88846" lon="0.07406">
        <ele>1778.58</ele>
        <time>2018-02-27T13:18:37Z</time>
      </trkpt>
      <trkpt lat="42.88848" lon="0.07406">
        <ele>1777.61</ele>
        <time>2018-02-27T13:18:59Z</time>
      </trkpt>
      <trkpt lat="42.88848" lon="0.07409">
        <ele>1778.1</ele>
        <time>2018-02-27T13:19:21Z</time>
      </trkpt>
      <trkpt lat="42.88854" lon="0.07404">
        <ele>1776.65</ele>
        <time>2018-02-27T13:19:36Z</time>
      </trkpt>
      <trkpt lat="42.88863" lon="0.07401">
        <ele>1773.77</ele>
        <time>2018-02-27T13:19:51Z</time>
      </trkpt>
      <trkpt lat="42.88869" lon="0.07399">
        <ele>1770.41</ele>
        <time>2018-02-27T13:20:04Z</time>
      </trkpt>
      <trkpt lat="42.88878" lon="0.07397">
        <ele>1767.52</ele>
        <time>2018-02-27T13:20:19Z</time>
      </trkpt>
      <trkpt lat="42.88883" lon="0.07398">
        <ele>1764.64</ele>
        <time>2018-02-27T13:20:31Z</time>
      </trkpt>
      <trkpt lat="42.8889" lon="0.07393">
        <ele>1762.23</ele>
        <time>2018-02-27T13:20:46Z</time>
      </trkpt>
      <trkpt lat="42.88895" lon="0.07392">
        <ele>1759.35</ele>
        <time>2018-02-27T13:21:00Z</time>
      </trkpt>
      <trkpt lat="42.889" lon="0.07392">
        <ele>1755.5</ele>
        <time>2018-02-27T13:21:14Z</time>
      </trkpt>
      <trkpt lat="42.88908" lon="0.07389">
        <ele>1753.1</ele>
        <time>2018-02-27T13:21:28Z</time>
      </trkpt>
      <trkpt lat="42.88913" lon="0.07387">
        <ele>1750.22</ele>
        <time>2018-02-27T13:21:39Z</time>
      </trkpt>
      <trkpt lat="42.88922" lon="0.07386">
        <ele>1746.85</ele>
        <time>2018-02-27T13:21:52Z</time>
      </trkpt>
      <trkpt lat="42.88928" lon="0.07385">
        <ele>1744.93</ele>
        <time>2018-02-27T13:22:06Z</time>
      </trkpt>
      <trkpt lat="42.88934" lon="0.07385">
        <ele>1743.97</ele>
        <time>2018-02-27T13:22:18Z</time>
      </trkpt>
      <trkpt lat="42.88939" lon="0.07384">
        <ele>1741.57</ele>
        <time>2018-02-27T13:22:33Z</time>
      </trkpt>
      <trkpt lat="42.88938" lon="0.07382">
        <ele>1740.12</ele>
        <time>2018-02-27T13:22:48Z</time>
      </trkpt>
      <trkpt lat="42.88937" lon="0.07384">
        <ele>1738.68</ele>
        <time>2018-02-27T13:23:07Z</time>
      </trkpt>
      <trkpt lat="42.88947" lon="0.07379">
        <ele>1736.28</ele>
        <time>2018-02-27T13:23:26Z</time>
      </trkpt>
      <trkpt lat="42.88948" lon="0.07379">
        <ele>1735.8</ele>
        <time>2018-02-27T13:23:43Z</time>
      </trkpt>
      <trkpt lat="42.88948" lon="0.0738">
        <ele>1735.8</ele>
        <time>2018-02-27T13:23:59Z</time>
      </trkpt>
      <trkpt lat="42.88949" lon="0.07376">
        <ele>1735.8</ele>
        <time>2018-02-27T13:24:20Z</time>
      </trkpt>
      <trkpt lat="42.88948" lon="0.07375">
        <ele>1736.28</ele>
        <time>2018-02-27T13:24:41Z</time>
      </trkpt>
      <trkpt lat="42.88949" lon="0.07377">
        <ele>1732.91</ele>
        <time>2018-02-27T13:24:46Z</time>
      </trkpt>
      <trkpt lat="42.88948" lon="0.07376">
        <ele>1738.2</ele>
        <time>2018-02-27T13:24:47Z</time>
      </trkpt>
      <trkpt lat="42.88944" lon="0.07372">
        <ele>1735.8</ele>
        <time>2018-02-27T13:25:15Z</time>
      </trkpt>
      <trkpt lat="42.88945" lon="0.07377">
        <ele>1736.28</ele>
        <time>2018-02-27T13:25:34Z</time>
      </trkpt>
      <trkpt lat="42.88942" lon="0.07371">
        <ele>1737.24</ele>
        <time>2018-02-27T13:25:47Z</time>
      </trkpt>
      <trkpt lat="42.88942" lon="0.07354">
        <ele>1738.68</ele>
        <time>2018-02-27T13:26:01Z</time>
      </trkpt>
      <trkpt lat="42.88938" lon="0.07335">
        <ele>1739.16</ele>
        <time>2018-02-27T13:26:16Z</time>
      </trkpt>
      <trkpt lat="42.88932" lon="0.07321">
        <ele>1740.6</ele>
        <time>2018-02-27T13:26:29Z</time>
      </trkpt>
      <trkpt lat="42.88928" lon="0.0731">
        <ele>1741.57</ele>
        <time>2018-02-27T13:26:44Z</time>
      </trkpt>
      <trkpt lat="42.88919" lon="0.07296">
        <ele>1742.05</ele>
        <time>2018-02-27T13:26:59Z</time>
      </trkpt>
      <trkpt lat="42.88912" lon="0.07284">
        <ele>1743.49</ele>
        <time>2018-02-27T13:27:14Z</time>
      </trkpt>
      <trkpt lat="42.88908" lon="0.07277">
        <ele>1743.97</ele>
        <time>2018-02-27T13:27:26Z</time>
      </trkpt>
      <trkpt lat="42.889" lon="0.07268">
        <ele>1744.45</ele>
        <time>2018-02-27T13:27:38Z</time>
      </trkpt>
      <trkpt lat="42.88893" lon="0.07257">
        <ele>1745.89</ele>
        <time>2018-02-27T13:27:51Z</time>
      </trkpt>
      <trkpt lat="42.88883" lon="0.07244">
        <ele>1746.37</ele>
        <time>2018-02-27T13:28:07Z</time>
      </trkpt>
      <trkpt lat="42.88877" lon="0.07232">
        <ele>1747.81</ele>
        <time>2018-02-27T13:28:21Z</time>
      </trkpt>
      <trkpt lat="42.88878" lon="0.07216">
        <ele>1744.93</ele>
        <time>2018-02-27T13:28:37Z</time>
      </trkpt>
      <trkpt lat="42.88869" lon="0.07192">
        <ele>1744.93</ele>
        <time>2018-02-27T13:28:55Z</time>
      </trkpt>
      <trkpt lat="42.88862" lon="0.07174">
        <ele>1743.49</ele>
        <time>2018-02-27T13:29:09Z</time>
      </trkpt>
      <trkpt lat="42.88858" lon="0.07158">
        <ele>1740.6</ele>
        <time>2018-02-27T13:29:24Z</time>
      </trkpt>
      <trkpt lat="42.88855" lon="0.07137">
        <ele>1736.76</ele>
        <time>2018-02-27T13:29:37Z</time>
      </trkpt>
      <trkpt lat="42.88855" lon="0.07135">
        <ele>1736.76</ele>
        <time>2018-02-27T13:29:38Z</time>
      </trkpt>
      <trkpt lat="42.88856" lon="0.0712">
        <ele>1733.88</ele>
        <time>2018-02-27T13:29:50Z</time>
      </trkpt>
      <trkpt lat="42.88864" lon="0.07119">
        <ele>1730.51</ele>
        <time>2018-02-27T13:30:04Z</time>
      </trkpt>
      <trkpt lat="42.88872" lon="0.0712">
        <ele>1727.63</ele>
        <time>2018-02-27T13:30:15Z</time>
      </trkpt>
      <trkpt lat="42.8888" lon="0.07118">
        <ele>1724.26</ele>
        <time>2018-02-27T13:30:25Z</time>
      </trkpt>
      <trkpt lat="42.88888" lon="0.07116">
        <ele>1721.38</ele>
        <time>2018-02-27T13:30:36Z</time>
      </trkpt>
      <trkpt lat="42.88898" lon="0.07116">
        <ele>1718.01</ele>
        <time>2018-02-27T13:30:48Z</time>
      </trkpt>
      <trkpt lat="42.889" lon="0.07116">
        <ele>1717.53</ele>
        <time>2018-02-27T13:30:49Z</time>
      </trkpt>
      <trkpt lat="42.88905" lon="0.07114">
        <ele>1716.09</ele>
        <time>2018-02-27T13:30:53Z</time>
      </trkpt>
      <trkpt lat="42.88916" lon="0.07111">
        <ele>1713.21</ele>
        <time>2018-02-27T13:31:04Z</time>
      </trkpt>
      <trkpt lat="42.88923" lon="0.07107">
        <ele>1710.32</ele>
        <time>2018-02-27T13:31:11Z</time>
      </trkpt>
      <trkpt lat="42.88934" lon="0.07098">
        <ele>1706.48</ele>
        <time>2018-02-27T13:31:23Z</time>
      </trkpt>
      <trkpt lat="42.88937" lon="0.0709">
        <ele>1704.55</ele>
        <time>2018-02-27T13:31:30Z</time>
      </trkpt>
      <trkpt lat="42.88944" lon="0.07085">
        <ele>1701.19</ele>
        <time>2018-02-27T13:31:38Z</time>
      </trkpt>
      <trkpt lat="42.88953" lon="0.07085">
        <ele>1698.31</ele>
        <time>2018-02-27T13:31:48Z</time>
      </trkpt>
      <trkpt lat="42.88965" lon="0.07093">
        <ele>1695.42</ele>
        <time>2018-02-27T13:32:03Z</time>
      </trkpt>
      <trkpt lat="42.88973" lon="0.07098">
        <ele>1692.06</ele>
        <time>2018-02-27T13:32:12Z</time>
      </trkpt>
      <trkpt lat="42.88978" lon="0.07105">
        <ele>1691.1</ele>
        <time>2018-02-27T13:32:19Z</time>
      </trkpt>
      <trkpt lat="42.88987" lon="0.07121">
        <ele>1687.25</ele>
        <time>2018-02-27T13:32:33Z</time>
      </trkpt>
      <trkpt lat="42.88992" lon="0.07133">
        <ele>1684.37</ele>
        <time>2018-02-27T13:32:43Z</time>
      </trkpt>
      <trkpt lat="42.88994" lon="0.07135">
        <ele>1683.89</ele>
        <time>2018-02-27T13:32:45Z</time>
      </trkpt>
      <trkpt lat="42.89001" lon="0.07153">
        <ele>1681</ele>
        <time>2018-02-27T13:32:59Z</time>
      </trkpt>
      <trkpt lat="42.89004" lon="0.07165">
        <ele>1678.12</ele>
        <time>2018-02-27T13:33:08Z</time>
      </trkpt>
      <trkpt lat="42.8901" lon="0.07193">
        <ele>1675.23</ele>
        <time>2018-02-27T13:33:23Z</time>
      </trkpt>
      <trkpt lat="42.89014" lon="0.07213">
        <ele>1673.79</ele>
        <time>2018-02-27T13:33:36Z</time>
      </trkpt>
      <trkpt lat="42.89019" lon="0.07237">
        <ele>1671.39</ele>
        <time>2018-02-27T13:33:51Z</time>
      </trkpt>
      <trkpt lat="42.89024" lon="0.0726">
        <ele>1669.47</ele>
        <time>2018-02-27T13:34:06Z</time>
      </trkpt>
      <trkpt lat="42.8903" lon="0.07274">
        <ele>1666.1</ele>
        <time>2018-02-27T13:34:20Z</time>
      </trkpt>
      <trkpt lat="42.89038" lon="0.07289">
        <ele>1662.74</ele>
        <time>2018-02-27T13:34:31Z</time>
      </trkpt>
      <trkpt lat="42.89045" lon="0.07298">
        <ele>1658.89</ele>
        <time>2018-02-27T13:34:43Z</time>
      </trkpt>
      <trkpt lat="42.89046" lon="0.07298">
        <ele>1662.26</ele>
        <time>2018-02-27T13:34:44Z</time>
      </trkpt>
      <trkpt lat="42.89051" lon="0.07298">
        <ele>1658.41</ele>
        <time>2018-02-27T13:34:48Z</time>
      </trkpt>
      <trkpt lat="42.8906" lon="0.07305">
        <ele>1656.01</ele>
        <time>2018-02-27T13:35:03Z</time>
      </trkpt>
      <trkpt lat="42.89059" lon="0.0731">
        <ele>1655.53</ele>
        <time>2018-02-27T13:35:19Z</time>
      </trkpt>
      <trkpt lat="42.89064" lon="0.07309">
        <ele>1654.57</ele>
        <time>2018-02-27T13:35:23Z</time>
      </trkpt>
      <trkpt lat="42.89075" lon="0.07298">
        <ele>1651.2</ele>
        <time>2018-02-27T13:35:34Z</time>
      </trkpt>
      <trkpt lat="42.89077" lon="0.0729">
        <ele>1649.28</ele>
        <time>2018-02-27T13:35:40Z</time>
      </trkpt>
      <trkpt lat="42.89077" lon="0.07282">
        <ele>1648.8</ele>
        <time>2018-02-27T13:35:57Z</time>
      </trkpt>
      <trkpt lat="42.89081" lon="0.07265">
        <ele>1647.36</ele>
        <time>2018-02-27T13:36:10Z</time>
      </trkpt>
      <trkpt lat="42.89083" lon="0.07246">
        <ele>1643.99</ele>
        <time>2018-02-27T13:36:22Z</time>
      </trkpt>
      <trkpt lat="42.89084" lon="0.07243">
        <ele>1643.51</ele>
        <time>2018-02-27T13:36:24Z</time>
      </trkpt>
      <trkpt lat="42.89086" lon="0.07235">
        <ele>1641.59</ele>
        <time>2018-02-27T13:36:29Z</time>
      </trkpt>
      <trkpt lat="42.89096" lon="0.07215">
        <ele>1637.26</ele>
        <time>2018-02-27T13:36:43Z</time>
      </trkpt>
      <trkpt lat="42.89103" lon="0.07199">
        <ele>1634.38</ele>
        <time>2018-02-27T13:36:56Z</time>
      </trkpt>
      <trkpt lat="42.89097" lon="0.07189">
        <ele>1632.94</ele>
        <time>2018-02-27T13:37:11Z</time>
      </trkpt>
      <trkpt lat="42.89104" lon="0.0718">
        <ele>1631.49</ele>
        <time>2018-02-27T13:37:37Z</time>
      </trkpt>
      <trkpt lat="42.89109" lon="0.0717">
        <ele>1628.13</ele>
        <time>2018-02-27T13:37:46Z</time>
      </trkpt>
      <trkpt lat="42.8911" lon="0.07169">
        <ele>1627.65</ele>
        <time>2018-02-27T13:37:47Z</time>
      </trkpt>
      <trkpt lat="42.89112" lon="0.07159">
        <ele>1624.28</ele>
        <time>2018-02-27T13:37:55Z</time>
      </trkpt>
      <trkpt lat="42.89112" lon="0.07157">
        <ele>1623.8</ele>
        <time>2018-02-27T13:37:56Z</time>
      </trkpt>
      <trkpt lat="42.89107" lon="0.0715">
        <ele>1622.84</ele>
        <time>2018-02-27T13:38:17Z</time>
      </trkpt>
      <trkpt lat="42.89114" lon="0.07143">
        <ele>1620.92</ele>
        <time>2018-02-27T13:38:24Z</time>
      </trkpt>
      <trkpt lat="42.89117" lon="0.07129">
        <ele>1617.56</ele>
        <time>2018-02-27T13:38:34Z</time>
      </trkpt>
      <trkpt lat="42.89121" lon="0.07115">
        <ele>1615.15</ele>
        <time>2018-02-27T13:38:47Z</time>
      </trkpt>
      <trkpt lat="42.89119" lon="0.07096">
        <ele>1611.31</ele>
        <time>2018-02-27T13:38:58Z</time>
      </trkpt>
      <trkpt lat="42.8912" lon="0.07074">
        <ele>1607.94</ele>
        <time>2018-02-27T13:39:15Z</time>
      </trkpt>
      <trkpt lat="42.8912" lon="0.07056">
        <ele>1605.06</ele>
        <time>2018-02-27T13:39:30Z</time>
      </trkpt>
      <trkpt lat="42.89118" lon="0.07043">
        <ele>1602.66</ele>
        <time>2018-02-27T13:39:38Z</time>
      </trkpt>
      <trkpt lat="42.89116" lon="0.0702">
        <ele>1599.77</ele>
        <time>2018-02-27T13:39:54Z</time>
      </trkpt>
      <trkpt lat="42.89117" lon="0.07009">
        <ele>1596.41</ele>
        <time>2018-02-27T13:40:03Z</time>
      </trkpt>
      <trkpt lat="42.89119" lon="0.06997">
        <ele>1593.52</ele>
        <time>2018-02-27T13:40:17Z</time>
      </trkpt>
      <trkpt lat="42.89119" lon="0.0699">
        <ele>1590.16</ele>
        <time>2018-02-27T13:40:31Z</time>
      </trkpt>
      <trkpt lat="42.89118" lon="0.06982">
        <ele>1587.27</ele>
        <time>2018-02-27T13:40:40Z</time>
      </trkpt>
      <trkpt lat="42.89117" lon="0.06969">
        <ele>1584.87</ele>
        <time>2018-02-27T13:40:48Z</time>
      </trkpt>
      <trkpt lat="42.89117" lon="0.06958">
        <ele>1581.51</ele>
        <time>2018-02-27T13:41:01Z</time>
      </trkpt>
      <trkpt lat="42.89112" lon="0.0695">
        <ele>1578.62</ele>
        <time>2018-02-27T13:41:13Z</time>
      </trkpt>
      <trkpt lat="42.89109" lon="0.06944">
        <ele>1575.26</ele>
        <time>2018-02-27T13:41:22Z</time>
      </trkpt>
      <trkpt lat="42.89106" lon="0.06929">
        <ele>1572.85</ele>
        <time>2018-02-27T13:41:36Z</time>
      </trkpt>
      <trkpt lat="42.89101" lon="0.06921">
        <ele>1569.49</ele>
        <time>2018-02-27T13:41:45Z</time>
      </trkpt>
      <trkpt lat="42.89095" lon="0.06912">
        <ele>1566.61</ele>
        <time>2018-02-27T13:41:57Z</time>
      </trkpt>
      <trkpt lat="42.89092" lon="0.06905">
        <ele>1563.24</ele>
        <time>2018-02-27T13:42:06Z</time>
      </trkpt>
      <trkpt lat="42.89095" lon="0.06896">
        <ele>1560.36</ele>
        <time>2018-02-27T13:42:16Z</time>
      </trkpt>
      <trkpt lat="42.89097" lon="0.06869">
        <ele>1557.95</ele>
        <time>2018-02-27T13:42:28Z</time>
      </trkpt>
      <trkpt lat="42.89097" lon="0.06848">
        <ele>1557.47</ele>
        <time>2018-02-27T13:42:32Z</time>
      </trkpt>
      <trkpt lat="42.89106" lon="0.06853">
        <ele>1556.51</ele>
        <time>2018-02-27T13:42:46Z</time>
      </trkpt>
      <trkpt lat="42.89119" lon="0.06875">
        <ele>1554.59</ele>
        <time>2018-02-27T13:43:03Z</time>
      </trkpt>
      <trkpt lat="42.8913" lon="0.06891">
        <ele>1553.15</ele>
        <time>2018-02-27T13:43:18Z</time>
      </trkpt>
      <trkpt lat="42.89142" lon="0.06905">
        <ele>1552.19</ele>
        <time>2018-02-27T13:43:31Z</time>
      </trkpt>
      <trkpt lat="42.89149" lon="0.06912">
        <ele>1551.71</ele>
        <time>2018-02-27T13:43:37Z</time>
      </trkpt>
      <trkpt lat="42.89158" lon="0.06924">
        <ele>1550.26</ele>
        <time>2018-02-27T13:43:49Z</time>
      </trkpt>
      <trkpt lat="42.89165" lon="0.06943">
        <ele>1548.34</ele>
        <time>2018-02-27T13:44:04Z</time>
      </trkpt>
      <trkpt lat="42.89174" lon="0.06962">
        <ele>1547.38</ele>
        <time>2018-02-27T13:44:20Z</time>
      </trkpt>
      <trkpt lat="42.8918" lon="0.06981">
        <ele>1545.46</ele>
        <time>2018-02-27T13:44:35Z</time>
      </trkpt>
      <trkpt lat="42.89188" lon="0.07009">
        <ele>1543.53</ele>
        <time>2018-02-27T13:44:55Z</time>
      </trkpt>
      <trkpt lat="42.89196" lon="0.07029">
        <ele>1542.57</ele>
        <time>2018-02-27T13:45:09Z</time>
      </trkpt>
      <trkpt lat="42.89204" lon="0.07049">
        <ele>1541.61</ele>
        <time>2018-02-27T13:45:23Z</time>
      </trkpt>
      <trkpt lat="42.89209" lon="0.07069">
        <ele>1540.65</ele>
        <time>2018-02-27T13:45:37Z</time>
      </trkpt>
      <trkpt lat="42.89218" lon="0.07092">
        <ele>1539.21</ele>
        <time>2018-02-27T13:45:53Z</time>
      </trkpt>
      <trkpt lat="42.89224" lon="0.0711">
        <ele>1538.73</ele>
        <time>2018-02-27T13:46:06Z</time>
      </trkpt>
      <trkpt lat="42.89233" lon="0.07134">
        <ele>1536.8</ele>
        <time>2018-02-27T13:46:22Z</time>
      </trkpt>
      <trkpt lat="42.89234" lon="0.07152">
        <ele>1537.29</ele>
        <time>2018-02-27T13:46:35Z</time>
      </trkpt>
      <trkpt lat="42.89234" lon="0.07159">
        <ele>1537.77</ele>
        <time>2018-02-27T13:46:40Z</time>
      </trkpt>
      <trkpt lat="42.89239" lon="0.07178">
        <ele>1537.29</ele>
        <time>2018-02-27T13:46:55Z</time>
      </trkpt>
      <trkpt lat="42.89245" lon="0.07192">
        <ele>1538.25</ele>
        <time>2018-02-27T13:47:10Z</time>
      </trkpt>
      <trkpt lat="42.89244" lon="0.072">
        <ele>1537.77</ele>
        <time>2018-02-27T13:47:25Z</time>
      </trkpt>
      <trkpt lat="42.89245" lon="0.07204">
        <ele>1537.77</ele>
        <time>2018-02-27T13:47:38Z</time>
      </trkpt>
      <trkpt lat="42.89247" lon="0.07204">
        <ele>1537.77</ele>
        <time>2018-02-27T13:47:40Z</time>
      </trkpt>
      <trkpt lat="42.89251" lon="0.07205">
        <ele>1537.77</ele>
        <time>2018-02-27T13:47:43Z</time>
      </trkpt>
      <trkpt lat="42.89254" lon="0.0721">
        <ele>1537.29</ele>
        <time>2018-02-27T13:47:48Z</time>
      </trkpt>
      <trkpt lat="42.8926" lon="0.07224">
        <ele>1535.36</ele>
        <time>2018-02-27T13:48:00Z</time>
      </trkpt>
      <trkpt lat="42.89265" lon="0.07243">
        <ele>1533.92</ele>
        <time>2018-02-27T13:48:12Z</time>
      </trkpt>
      <trkpt lat="42.8927" lon="0.07274">
        <ele>1532</ele>
        <time>2018-02-27T13:48:28Z</time>
      </trkpt>
      <trkpt lat="42.8928" lon="0.07299">
        <ele>1530.08</ele>
        <time>2018-02-27T13:48:43Z</time>
      </trkpt>
      <trkpt lat="42.89287" lon="0.07321">
        <ele>1528.63</ele>
        <time>2018-02-27T13:48:58Z</time>
      </trkpt>
      <trkpt lat="42.89295" lon="0.07341">
        <ele>1527.19</ele>
        <time>2018-02-27T13:49:11Z</time>
      </trkpt>
      <trkpt lat="42.893" lon="0.07349">
        <ele>1526.71</ele>
        <time>2018-02-27T13:49:17Z</time>
      </trkpt>
      <trkpt lat="42.89313" lon="0.07363">
        <ele>1525.27</ele>
        <time>2018-02-27T13:49:30Z</time>
      </trkpt>
      <trkpt lat="42.89315" lon="0.07366">
        <ele>1524.79</ele>
        <time>2018-02-27T13:49:32Z</time>
      </trkpt>
      <trkpt lat="42.8932" lon="0.07378">
        <ele>1524.31</ele>
        <time>2018-02-27T13:49:40Z</time>
      </trkpt>
      <trkpt lat="42.89325" lon="0.07383">
        <ele>1523.83</ele>
        <time>2018-02-27T13:49:45Z</time>
      </trkpt>
      <trkpt lat="42.89331" lon="0.07391">
        <ele>1522.87</ele>
        <time>2018-02-27T13:49:53Z</time>
      </trkpt>
      <trkpt lat="42.89338" lon="0.07403">
        <ele>1519.5</ele>
        <time>2018-02-27T13:50:04Z</time>
      </trkpt>
      <trkpt lat="42.89344" lon="0.07414">
        <ele>1516.62</ele>
        <time>2018-02-27T13:50:14Z</time>
      </trkpt>
      <trkpt lat="42.89357" lon="0.0742">
        <ele>1513.25</ele>
        <time>2018-02-27T13:50:27Z</time>
      </trkpt>
      <trkpt lat="42.89361" lon="0.07422">
        <ele>1511.81</ele>
        <time>2018-02-27T13:50:31Z</time>
      </trkpt>
      <trkpt lat="42.89375" lon="0.07423">
        <ele>1509.89</ele>
        <time>2018-02-27T13:50:45Z</time>
      </trkpt>
      <trkpt lat="42.89377" lon="0.07423">
        <ele>1508.45</ele>
        <time>2018-02-27T13:50:49Z</time>
      </trkpt>
      <trkpt lat="42.89391" lon="0.07422">
        <ele>1505.08</ele>
        <time>2018-02-27T13:51:03Z</time>
      </trkpt>
      <trkpt lat="42.89406" lon="0.07436">
        <ele>1504.12</ele>
        <time>2018-02-27T13:51:18Z</time>
      </trkpt>
      <trkpt lat="42.89411" lon="0.07454">
        <ele>1505.56</ele>
        <time>2018-02-27T13:51:32Z</time>
      </trkpt>
      <trkpt lat="42.89416" lon="0.07466">
        <ele>1505.56</ele>
        <time>2018-02-27T13:51:41Z</time>
      </trkpt>
      <trkpt lat="42.89421" lon="0.07493">
        <ele>1504.6</ele>
        <time>2018-02-27T13:51:57Z</time>
      </trkpt>
      <trkpt lat="42.89423" lon="0.07513">
        <ele>1503.64</ele>
        <time>2018-02-27T13:52:12Z</time>
      </trkpt>
      <trkpt lat="42.89433" lon="0.0753">
        <ele>1504.12</ele>
        <time>2018-02-27T13:52:25Z</time>
      </trkpt>
      <trkpt lat="42.89437" lon="0.07547">
        <ele>1504.6</ele>
        <time>2018-02-27T13:52:39Z</time>
      </trkpt>
      <trkpt lat="42.89437" lon="0.07548">
        <ele>1506.04</ele>
        <time>2018-02-27T13:52:41Z</time>
      </trkpt>
      <trkpt lat="42.89437" lon="0.0755">
        <ele>1502.2</ele>
        <time>2018-02-27T13:52:43Z</time>
      </trkpt>
      <trkpt lat="42.89437" lon="0.07551">
        <ele>1507.48</ele>
        <time>2018-02-27T13:52:44Z</time>
      </trkpt>
      <trkpt lat="42.89439" lon="0.0757">
        <ele>1506.52</ele>
        <time>2018-02-27T13:52:58Z</time>
      </trkpt>
      <trkpt lat="42.89444" lon="0.0759">
        <ele>1506.04</ele>
        <time>2018-02-27T13:53:12Z</time>
      </trkpt>
      <trkpt lat="42.89447" lon="0.07613">
        <ele>1505.56</ele>
        <time>2018-02-27T13:53:27Z</time>
      </trkpt>
      <trkpt lat="42.89448" lon="0.07629">
        <ele>1504.6</ele>
        <time>2018-02-27T13:53:38Z</time>
      </trkpt>
      <trkpt lat="42.89449" lon="0.07652">
        <ele>1504.6</ele>
        <time>2018-02-27T13:53:53Z</time>
      </trkpt>
      <trkpt lat="42.89449" lon="0.07673">
        <ele>1503.64</ele>
        <time>2018-02-27T13:54:09Z</time>
      </trkpt>
      <trkpt lat="42.89451" lon="0.07686">
        <ele>1502.68</ele>
        <time>2018-02-27T13:54:17Z</time>
      </trkpt>
      <trkpt lat="42.89455" lon="0.07712">
        <ele>1502.2</ele>
        <time>2018-02-27T13:54:33Z</time>
      </trkpt>
      <trkpt lat="42.89461" lon="0.07738">
        <ele>1501.24</ele>
        <time>2018-02-27T13:54:49Z</time>
      </trkpt>
      <trkpt lat="42.89468" lon="0.07758">
        <ele>1498.35</ele>
        <time>2018-02-27T13:55:06Z</time>
      </trkpt>
      <trkpt lat="42.89466" lon="0.07766">
        <ele>1497.39</ele>
        <time>2018-02-27T13:55:21Z</time>
      </trkpt>
      <trkpt lat="42.89464" lon="0.07768">
        <ele>1497.39</ele>
        <time>2018-02-27T13:55:23Z</time>
      </trkpt>
      <trkpt lat="42.89458" lon="0.07781">
        <ele>1495.95</ele>
        <time>2018-02-27T13:55:37Z</time>
      </trkpt>
      <trkpt lat="42.89458" lon="0.07788">
        <ele>1496.43</ele>
        <time>2018-02-27T13:55:44Z</time>
      </trkpt>
      <trkpt lat="42.89456" lon="0.07805">
        <ele>1495.47</ele>
        <time>2018-02-27T13:55:57Z</time>
      </trkpt>
      <trkpt lat="42.89455" lon="0.07824">
        <ele>1495.95</ele>
        <time>2018-02-27T13:56:13Z</time>
      </trkpt>
      <trkpt lat="42.89453" lon="0.07841">
        <ele>1495.95</ele>
        <time>2018-02-27T13:56:28Z</time>
      </trkpt>
      <trkpt lat="42.89462" lon="0.07855">
        <ele>1494.51</ele>
        <time>2018-02-27T13:56:41Z</time>
      </trkpt>
      <trkpt lat="42.89467" lon="0.07863">
        <ele>1494.03</ele>
        <time>2018-02-27T13:56:55Z</time>
      </trkpt>
      <trkpt lat="42.89468" lon="0.07862">
        <ele>1493.55</ele>
        <time>2018-02-27T13:57:08Z</time>
      </trkpt>
      <trkpt lat="42.89471" lon="0.0786">
        <ele>1493.06</ele>
        <time>2018-02-27T13:57:25Z</time>
      </trkpt>
      <trkpt lat="42.8947" lon="0.07858">
        <ele>1493.55</ele>
        <time>2018-02-27T13:57:56Z</time>
      </trkpt>
      <trkpt lat="42.8947" lon="0.0786">
        <ele>1492.58</ele>
        <time>2018-02-27T13:58:16Z</time>
      </trkpt>
      <trkpt lat="42.89468" lon="0.0786">
        <ele>1493.06</ele>
        <time>2018-02-27T13:58:44Z</time>
      </trkpt>
      <trkpt lat="42.89469" lon="0.07865">
        <ele>1493.06</ele>
        <time>2018-02-27T13:59:22Z</time>
      </trkpt>
      <trkpt lat="42.89471" lon="0.07866">
        <ele>1493.06</ele>
        <time>2018-02-27T13:59:54Z</time>
      </trkpt>
      <trkpt lat="42.89472" lon="0.07864">
        <ele>1493.06</ele>
        <time>2018-02-27T14:00:23Z</time>
      </trkpt>
      <trkpt lat="42.89473" lon="0.07862">
        <ele>1493.55</ele>
        <time>2018-02-27T14:01:01Z</time>
      </trkpt>
      <trkpt lat="42.8947" lon="0.07861">
        <ele>1493.55</ele>
        <time>2018-02-27T14:01:40Z</time>
      </trkpt>
      <trkpt lat="42.89475" lon="0.07865">
        <ele>1493.55</ele>
        <time>2018-02-27T14:02:10Z</time>
      </trkpt>
      <trkpt lat="42.89469" lon="0.07868">
        <ele>1494.03</ele>
        <time>2018-02-27T14:02:46Z</time>
      </trkpt>
      <trkpt lat="42.8947" lon="0.07865">
        <ele>1494.03</ele>
        <time>2018-02-27T14:03:21Z</time>
      </trkpt>
      <trkpt lat="42.89468" lon="0.07864">
        <ele>1494.03</ele>
        <time>2018-02-27T14:03:53Z</time>
      </trkpt>
      <trkpt lat="42.89469" lon="0.07865">
        <ele>1494.03</ele>
        <time>2018-02-27T14:04:34Z</time>
      </trkpt>
      <trkpt lat="42.89467" lon="0.07865">
        <ele>1494.51</ele>
        <time>2018-02-27T14:04:57Z</time>
      </trkpt>
      <trkpt lat="42.89468" lon="0.07866">
        <ele>1494.51</ele>
        <time>2018-02-27T14:05:13Z</time>
      </trkpt>
      <trkpt lat="42.89467" lon="0.07865">
        <ele>1495.47</ele>
        <time>2018-02-27T14:05:52Z</time>
      </trkpt>
      <trkpt lat="42.89468" lon="0.07865">
        <ele>1494.99</ele>
        <time>2018-02-27T14:06:19Z</time>
      </trkpt>
      <trkpt lat="42.89466" lon="0.07867">
        <ele>1495.95</ele>
        <time>2018-02-27T14:06:58Z</time>
      </trkpt>
      <trkpt lat="42.89467" lon="0.07865">
        <ele>1495.95</ele>
        <time>2018-02-27T14:07:41Z</time>
      </trkpt>
      <trkpt lat="42.89469" lon="0.07864">
        <ele>1495.95</ele>
        <time>2018-02-27T14:08:17Z</time>
      </trkpt>
      <trkpt lat="42.89468" lon="0.07863">
        <ele>1495.95</ele>
        <time>2018-02-27T14:08:55Z</time>
      </trkpt>
      <trkpt lat="42.89469" lon="0.07867">
        <ele>1496.43</ele>
        <time>2018-02-27T14:09:35Z</time>
      </trkpt>
      <trkpt lat="42.89468" lon="0.07862">
        <ele>1495.95</ele>
        <time>2018-02-27T14:10:04Z</time>
      </trkpt>
      <trkpt lat="42.89467" lon="0.07861">
        <ele>1496.91</ele>
        <time>2018-02-27T14:10:33Z</time>
      </trkpt>
      <trkpt lat="42.89467" lon="0.0786">
        <ele>1496.91</ele>
        <time>2018-02-27T14:11:16Z</time>
      </trkpt>
      <trkpt lat="42.89467" lon="0.07859">
        <ele>1496.43</ele>
        <time>2018-02-27T14:11:53Z</time>
      </trkpt>
      <trkpt lat="42.89467" lon="0.07856">
        <ele>1497.39</ele>
        <time>2018-02-27T14:12:23Z</time>
      </trkpt>
      <trkpt lat="42.89465" lon="0.07858">
        <ele>1496.91</ele>
        <time>2018-02-27T14:12:43Z</time>
      </trkpt>
      <trkpt lat="42.89466" lon="0.07862">
        <ele>1496.43</ele>
        <time>2018-02-27T14:12:57Z</time>
      </trkpt>
      <trkpt lat="42.89462" lon="0.07864">
        <ele>1497.39</ele>
        <time>2018-02-27T14:13:21Z</time>
      </trkpt>
      <trkpt lat="42.89464" lon="0.07864">
        <ele>1496.91</ele>
        <time>2018-02-27T14:13:47Z</time>
      </trkpt>
      <trkpt lat="42.89463" lon="0.07859">
        <ele>1497.39</ele>
        <time>2018-02-27T14:14:25Z</time>
      </trkpt>
      <trkpt lat="42.89461" lon="0.07864">
        <ele>1498.83</ele>
        <time>2018-02-27T14:15:01Z</time>
      </trkpt>
      <trkpt lat="42.89465" lon="0.07865">
        <ele>1498.35</ele>
        <time>2018-02-27T14:15:34Z</time>
      </trkpt>
      <trkpt lat="42.89465" lon="0.07867">
        <ele>1499.31</ele>
        <time>2018-02-27T14:16:07Z</time>
      </trkpt>
      <trkpt lat="42.89466" lon="0.07868">
        <ele>1498.83</ele>
        <time>2018-02-27T14:16:42Z</time>
      </trkpt>
      <trkpt lat="42.89465" lon="0.07868">
        <ele>1499.31</ele>
        <time>2018-02-27T14:17:19Z</time>
      </trkpt>
      <trkpt lat="42.89464" lon="0.07859">
        <ele>1499.31</ele>
        <time>2018-02-27T14:18:00Z</time>
      </trkpt>
      <trkpt lat="42.89466" lon="0.07863">
        <ele>1499.31</ele>
        <time>2018-02-27T14:18:35Z</time>
      </trkpt>
      <trkpt lat="42.89466" lon="0.07864">
        <ele>1499.31</ele>
        <time>2018-02-27T14:19:19Z</time>
      </trkpt>
      <trkpt lat="42.89466" lon="0.07866">
        <ele>1499.79</ele>
        <time>2018-02-27T14:20:38Z</time>
      </trkpt>
      <trkpt lat="42.89462" lon="0.07864">
        <ele>1500.27</ele>
        <time>2018-02-27T14:21:18Z</time>
      </trkpt>
      <trkpt lat="42.89467" lon="0.07866">
        <ele>1499.31</ele>
        <time>2018-02-27T14:21:56Z</time>
      </trkpt>
      <trkpt lat="42.89468" lon="0.07866">
        <ele>1500.27</ele>
        <time>2018-02-27T14:23:05Z</time>
      </trkpt>
      <trkpt lat="42.89467" lon="0.07867">
        <ele>1500.27</ele>
        <time>2018-02-27T14:23:33Z</time>
      </trkpt>
      <trkpt lat="42.89465" lon="0.07864">
        <ele>1499.79</ele>
        <time>2018-02-27T14:24:18Z</time>
      </trkpt>
      <trkpt lat="42.89469" lon="0.07866">
        <ele>1499.79</ele>
        <time>2018-02-27T14:24:36Z</time>
      </trkpt>
      <trkpt lat="42.8947" lon="0.07865">
        <ele>1499.79</ele>
        <time>2018-02-27T14:24:55Z</time>
      </trkpt>
      <trkpt lat="42.89468" lon="0.07869">
        <ele>1500.27</ele>
        <time>2018-02-27T14:25:34Z</time>
      </trkpt>
      <trkpt lat="42.89468" lon="0.07871">
        <ele>1500.76</ele>
        <time>2018-02-27T14:25:50Z</time>
      </trkpt>
      <trkpt lat="42.89468" lon="0.0787">
        <ele>1500.27</ele>
        <time>2018-02-27T14:26:16Z</time>
      </trkpt>
      <trkpt lat="42.89466" lon="0.07868">
        <ele>1501.72</ele>
        <time>2018-02-27T14:26:42Z</time>
      </trkpt>
      <trkpt lat="42.89469" lon="0.07868">
        <ele>1501.72</ele>
        <time>2018-02-27T14:27:00Z</time>
      </trkpt>
      <trkpt lat="42.89471" lon="0.07866">
        <ele>1500.76</ele>
        <time>2018-02-27T14:27:13Z</time>
      </trkpt>
      <trkpt lat="42.89471" lon="0.07862">
        <ele>1501.72</ele>
        <time>2018-02-27T14:27:40Z</time>
      </trkpt>
      <trkpt lat="42.89472" lon="0.07858">
        <ele>1501.72</ele>
        <time>2018-02-27T14:27:57Z</time>
      </trkpt>
      <trkpt lat="42.89465" lon="0.0786">
        <ele>1501.72</ele>
        <time>2018-02-27T14:28:16Z</time>
      </trkpt>
      <trkpt lat="42.89467" lon="0.07867">
        <ele>1502.2</ele>
        <time>2018-02-27T14:28:32Z</time>
      </trkpt>
      <trkpt lat="42.89468" lon="0.07869">
        <ele>1501.72</ele>
        <time>2018-02-27T14:28:43Z</time>
      </trkpt>
      <trkpt lat="42.89474" lon="0.0786">
        <ele>1501.72</ele>
        <time>2018-02-27T14:28:54Z</time>
      </trkpt>
      <trkpt lat="42.89487" lon="0.07846">
        <ele>1501.24</ele>
        <time>2018-02-27T14:29:11Z</time>
      </trkpt>
      <trkpt lat="42.89489" lon="0.07844">
        <ele>1500.76</ele>
        <time>2018-02-27T14:29:14Z</time>
      </trkpt>
      <trkpt lat="42.89493" lon="0.07842">
        <ele>1500.76</ele>
        <time>2018-02-27T14:29:18Z</time>
      </trkpt>
      <trkpt lat="42.89501" lon="0.07849">
        <ele>1499.79</ele>
        <time>2018-02-27T14:29:29Z</time>
      </trkpt>
      <trkpt lat="42.89502" lon="0.07868">
        <ele>1500.27</ele>
        <time>2018-02-27T14:29:45Z</time>
      </trkpt>
      <trkpt lat="42.89505" lon="0.07873">
        <ele>1500.27</ele>
        <time>2018-02-27T14:29:59Z</time>
      </trkpt>
      <trkpt lat="42.89513" lon="0.07881">
        <ele>1499.79</ele>
        <time>2018-02-27T14:30:12Z</time>
      </trkpt>
      <trkpt lat="42.89515" lon="0.07881">
        <ele>1499.31</ele>
        <time>2018-02-27T14:30:14Z</time>
      </trkpt>
      <trkpt lat="42.89519" lon="0.07877">
        <ele>1499.31</ele>
        <time>2018-02-27T14:30:28Z</time>
      </trkpt>
      <trkpt lat="42.89519" lon="0.07876">
        <ele>1497.87</ele>
        <time>2018-02-27T14:30:41Z</time>
      </trkpt>
      <trkpt lat="42.89523" lon="0.07879">
        <ele>1498.83</ele>
        <time>2018-02-27T14:30:57Z</time>
      </trkpt>
      <trkpt lat="42.89529" lon="0.07878">
        <ele>1498.35</ele>
        <time>2018-02-27T14:31:08Z</time>
      </trkpt>
      <trkpt lat="42.89535" lon="0.07876">
        <ele>1496.43</ele>
        <time>2018-02-27T14:31:22Z</time>
      </trkpt>
      <trkpt lat="42.89546" lon="0.07867">
        <ele>1494.51</ele>
        <time>2018-02-27T14:31:36Z</time>
      </trkpt>
      <trkpt lat="42.89552" lon="0.07864">
        <ele>1493.06</ele>
        <time>2018-02-27T14:31:55Z</time>
      </trkpt>
      <trkpt lat="42.89557" lon="0.07859">
        <ele>1490.66</ele>
        <time>2018-02-27T14:32:09Z</time>
      </trkpt>
      <trkpt lat="42.89561" lon="0.07854">
        <ele>1489.22</ele>
        <time>2018-02-27T14:32:15Z</time>
      </trkpt>
      <trkpt lat="42.8957" lon="0.07835">
        <ele>1485.85</ele>
        <time>2018-02-27T14:32:29Z</time>
      </trkpt>
      <trkpt lat="42.89572" lon="0.07827">
        <ele>1482.49</ele>
        <time>2018-02-27T14:32:37Z</time>
      </trkpt>
      <trkpt lat="42.89573" lon="0.07823">
        <ele>1480.09</ele>
        <time>2018-02-27T14:32:46Z</time>
      </trkpt>
      <trkpt lat="42.89574" lon="0.07823">
        <ele>1480.09</ele>
        <time>2018-02-27T14:33:01Z</time>
      </trkpt>
      <trkpt lat="42.89574" lon="0.07824">
        <ele>1480.09</ele>
        <time>2018-02-27T14:33:22Z</time>
      </trkpt>
      <trkpt lat="42.89575" lon="0.07813">
        <ele>1479.13</ele>
        <time>2018-02-27T14:33:42Z</time>
      </trkpt>
      <trkpt lat="42.89579" lon="0.0781">
        <ele>1477.68</ele>
        <time>2018-02-27T14:33:47Z</time>
      </trkpt>
      <trkpt lat="42.89581" lon="0.07807">
        <ele>1476.24</ele>
        <time>2018-02-27T14:33:50Z</time>
      </trkpt>
      <trkpt lat="42.8958" lon="0.07794">
        <ele>1474.32</ele>
        <time>2018-02-27T14:34:02Z</time>
      </trkpt>
      <trkpt lat="42.8958" lon="0.07787">
        <ele>1474.32</ele>
        <time>2018-02-27T14:34:09Z</time>
      </trkpt>
      <trkpt lat="42.89581" lon="0.07783">
        <ele>1473.36</ele>
        <time>2018-02-27T14:34:12Z</time>
      </trkpt>
      <trkpt lat="42.89582" lon="0.07778">
        <ele>1469.03</ele>
        <time>2018-02-27T14:34:17Z</time>
      </trkpt>
      <trkpt lat="42.89582" lon="0.07777">
        <ele>1474.32</ele>
        <time>2018-02-27T14:34:18Z</time>
      </trkpt>
      <trkpt lat="42.89583" lon="0.07772">
        <ele>1470.95</ele>
        <time>2018-02-27T14:34:21Z</time>
      </trkpt>
      <trkpt lat="42.89588" lon="0.07761">
        <ele>1469.51</ele>
        <time>2018-02-27T14:34:30Z</time>
      </trkpt>
      <trkpt lat="42.89597" lon="0.07745">
        <ele>1465.67</ele>
        <time>2018-02-27T14:34:42Z</time>
      </trkpt>
      <trkpt lat="42.89603" lon="0.07732">
        <ele>1462.78</ele>
        <time>2018-02-27T14:34:51Z</time>
      </trkpt>
      <trkpt lat="42.89608" lon="0.07722">
        <ele>1460.38</ele>
        <time>2018-02-27T14:34:58Z</time>
      </trkpt>
      <trkpt lat="42.89617" lon="0.07707">
        <ele>1457.02</ele>
        <time>2018-02-27T14:35:10Z</time>
      </trkpt>
      <trkpt lat="42.89618" lon="0.07701">
        <ele>1455.09</ele>
        <time>2018-02-27T14:35:17Z</time>
      </trkpt>
      <trkpt lat="42.89624" lon="0.07691">
        <ele>1451.25</ele>
        <time>2018-02-27T14:35:28Z</time>
      </trkpt>
      <trkpt lat="42.89627" lon="0.07685">
        <ele>1448.84</ele>
        <time>2018-02-27T14:35:36Z</time>
      </trkpt>
      <trkpt lat="42.89627" lon="0.07682">
        <ele>1447.88</ele>
        <time>2018-02-27T14:35:38Z</time>
      </trkpt>
      <trkpt lat="42.8963" lon="0.07672">
        <ele>1445</ele>
        <time>2018-02-27T14:35:47Z</time>
      </trkpt>
      <trkpt lat="42.89629" lon="0.07671">
        <ele>1444.52</ele>
        <time>2018-02-27T14:35:48Z</time>
      </trkpt>
      <trkpt lat="42.89638" lon="0.07659">
        <ele>1441.15</ele>
        <time>2018-02-27T14:36:00Z</time>
      </trkpt>
      <trkpt lat="42.89642" lon="0.07647">
        <ele>1438.27</ele>
        <time>2018-02-27T14:36:09Z</time>
      </trkpt>
      <trkpt lat="42.89644" lon="0.07638">
        <ele>1437.31</ele>
        <time>2018-02-27T14:36:15Z</time>
      </trkpt>
      <trkpt lat="42.89643" lon="0.07616">
        <ele>1434.42</ele>
        <time>2018-02-27T14:36:29Z</time>
      </trkpt>
      <trkpt lat="42.89644" lon="0.07609">
        <ele>1432.98</ele>
        <time>2018-02-27T14:36:33Z</time>
      </trkpt>
      <trkpt lat="42.89646" lon="0.07597">
        <ele>1431.54</ele>
        <time>2018-02-27T14:36:39Z</time>
      </trkpt>
      <trkpt lat="42.89645" lon="0.07579">
        <ele>1428.66</ele>
        <time>2018-02-27T14:36:53Z</time>
      </trkpt>
      <trkpt lat="42.89645" lon="0.07576">
        <ele>1427.21</ele>
        <time>2018-02-27T14:36:56Z</time>
      </trkpt>
      <trkpt lat="42.89647" lon="0.0756">
        <ele>1424.33</ele>
        <time>2018-02-27T14:37:08Z</time>
      </trkpt>
      <trkpt lat="42.89649" lon="0.07548">
        <ele>1420.97</ele>
        <time>2018-02-27T14:37:17Z</time>
      </trkpt>
      <trkpt lat="42.89652" lon="0.07537">
        <ele>1418.08</ele>
        <time>2018-02-27T14:37:25Z</time>
      </trkpt>
      <trkpt lat="42.89655" lon="0.07518">
        <ele>1414.24</ele>
        <time>2018-02-27T14:37:37Z</time>
      </trkpt>
      <trkpt lat="42.89653" lon="0.07505">
        <ele>1411.35</ele>
        <time>2018-02-27T14:37:49Z</time>
      </trkpt>
      <trkpt lat="42.89651" lon="0.07487">
        <ele>1407.99</ele>
        <time>2018-02-27T14:38:00Z</time>
      </trkpt>
      <trkpt lat="42.89654" lon="0.07474">
        <ele>1404.62</ele>
        <time>2018-02-27T14:38:11Z</time>
      </trkpt>
      <trkpt lat="42.89655" lon="0.07472">
        <ele>1404.14</ele>
        <time>2018-02-27T14:38:13Z</time>
      </trkpt>
      <trkpt lat="42.89656" lon="0.07459">
        <ele>1400.3</ele>
        <time>2018-02-27T14:38:23Z</time>
      </trkpt>
      <trkpt lat="42.8966" lon="0.07442">
        <ele>1396.93</ele>
        <time>2018-02-27T14:38:35Z</time>
      </trkpt>
      <trkpt lat="42.89665" lon="0.0743">
        <ele>1394.05</ele>
        <time>2018-02-27T14:38:47Z</time>
      </trkpt>
      <trkpt lat="42.89668" lon="0.07421">
        <ele>1392.61</ele>
        <time>2018-02-27T14:39:00Z</time>
      </trkpt>
      <trkpt lat="42.89669" lon="0.07419">
        <ele>1391.65</ele>
        <time>2018-02-27T14:39:02Z</time>
      </trkpt>
      <trkpt lat="42.89671" lon="0.07413">
        <ele>1388.76</ele>
        <time>2018-02-27T14:39:13Z</time>
      </trkpt>
      <trkpt lat="42.89675" lon="0.07401">
        <ele>1385.4</ele>
        <time>2018-02-27T14:39:24Z</time>
      </trkpt>
      <trkpt lat="42.89679" lon="0.07387">
        <ele>1382.03</ele>
        <time>2018-02-27T14:39:36Z</time>
      </trkpt>
      <trkpt lat="42.89677" lon="0.07385">
        <ele>1381.55</ele>
        <time>2018-02-27T14:39:38Z</time>
      </trkpt>
      <trkpt lat="42.89679" lon="0.07375">
        <ele>1378.19</ele>
        <time>2018-02-27T14:39:50Z</time>
      </trkpt>
      <trkpt lat="42.89679" lon="0.07373">
        <ele>1375.78</ele>
        <time>2018-02-27T14:39:53Z</time>
      </trkpt>
      <trkpt lat="42.89679" lon="0.07374">
        <ele>1381.07</ele>
        <time>2018-02-27T14:39:54Z</time>
      </trkpt>
      <trkpt lat="42.89678" lon="0.07375">
        <ele>1380.59</ele>
        <time>2018-02-27T14:39:55Z</time>
      </trkpt>
      <trkpt lat="42.89678" lon="0.07374">
        <ele>1378.19</ele>
        <time>2018-02-27T14:39:58Z</time>
      </trkpt>
      <trkpt lat="42.89677" lon="0.0737">
        <ele>1372.9</ele>
        <time>2018-02-27T14:40:07Z</time>
      </trkpt>
      <trkpt lat="42.89677" lon="0.07369">
        <ele>1377.23</ele>
        <time>2018-02-27T14:40:08Z</time>
      </trkpt>
      <trkpt lat="42.89677" lon="0.07368">
        <ele>1377.71</ele>
        <time>2018-02-27T14:40:10Z</time>
      </trkpt>
      <trkpt lat="42.89682" lon="0.07363">
        <ele>1375.78</ele>
        <time>2018-02-27T14:40:25Z</time>
      </trkpt>
      <trkpt lat="42.89683" lon="0.07363">
        <ele>1372.9</ele>
        <time>2018-02-27T14:40:26Z</time>
      </trkpt>
      <trkpt lat="42.89683" lon="0.07362">
        <ele>1377.71</ele>
        <time>2018-02-27T14:40:27Z</time>
      </trkpt>
      <trkpt lat="42.89683" lon="0.07358">
        <ele>1374.34</ele>
        <time>2018-02-27T14:40:32Z</time>
      </trkpt>
      <trkpt lat="42.89684" lon="0.07355">
        <ele>1373.38</ele>
        <time>2018-02-27T14:40:37Z</time>
      </trkpt>
      <trkpt lat="42.89685" lon="0.07347">
        <ele>1371.94</ele>
        <time>2018-02-27T14:40:41Z</time>
      </trkpt>
      <trkpt lat="42.89688" lon="0.07332">
        <ele>1368.57</ele>
        <time>2018-02-27T14:40:53Z</time>
      </trkpt>
      <trkpt lat="42.8969" lon="0.07315">
        <ele>1365.69</ele>
        <time>2018-02-27T14:41:04Z</time>
      </trkpt>
      <trkpt lat="42.89692" lon="0.07301">
        <ele>1361.84</ele>
        <time>2018-02-27T14:41:14Z</time>
      </trkpt>
      <trkpt lat="42.89695" lon="0.07277">
        <ele>1358.96</ele>
        <time>2018-02-27T14:41:29Z</time>
      </trkpt>
      <trkpt lat="42.89696" lon="0.07275">
        <ele>1358.48</ele>
        <time>2018-02-27T14:41:30Z</time>
      </trkpt>
      <trkpt lat="42.89696" lon="0.07249">
        <ele>1355.12</ele>
        <time>2018-02-27T14:41:45Z</time>
      </trkpt>
      <trkpt lat="42.89697" lon="0.07227">
        <ele>1352.71</ele>
        <time>2018-02-27T14:41:59Z</time>
      </trkpt>
      <trkpt lat="42.89698" lon="0.07207">
        <ele>1349.83</ele>
        <time>2018-02-27T14:42:13Z</time>
      </trkpt>
      <trkpt lat="42.89704" lon="0.07211">
        <ele>1350.79</ele>
        <time>2018-02-27T14:42:38Z</time>
      </trkpt>
      <trkpt lat="42.89705" lon="0.07197">
        <ele>1349.35</ele>
        <time>2018-02-27T14:42:56Z</time>
      </trkpt>
      <trkpt lat="42.89689" lon="0.07174">
        <ele>1345.5</ele>
        <time>2018-02-27T14:43:11Z</time>
      </trkpt>
      <trkpt lat="42.89689" lon="0.07173">
        <ele>1345.5</ele>
        <time>2018-02-27T14:43:12Z</time>
      </trkpt>
      <trkpt lat="42.89688" lon="0.07172">
        <ele>1345.5</ele>
        <time>2018-02-27T14:43:13Z</time>
      </trkpt>
      <trkpt lat="42.89689" lon="0.07169">
        <ele>1345.02</ele>
        <time>2018-02-27T14:43:15Z</time>
      </trkpt>
      <trkpt lat="42.89689" lon="0.07162">
        <ele>1344.54</ele>
        <time>2018-02-27T14:43:19Z</time>
      </trkpt>
      <trkpt lat="42.8969" lon="0.07142">
        <ele>1340.7</ele>
        <time>2018-02-27T14:43:33Z</time>
      </trkpt>
      <trkpt lat="42.89689" lon="0.07127">
        <ele>1337.33</ele>
        <time>2018-02-27T14:43:45Z</time>
      </trkpt>
      <trkpt lat="42.89689" lon="0.07107">
        <ele>1334.45</ele>
        <time>2018-02-27T14:44:00Z</time>
      </trkpt>
      <trkpt lat="42.89692" lon="0.07088">
        <ele>1331.08</ele>
        <time>2018-02-27T14:44:15Z</time>
      </trkpt>
      <trkpt lat="42.89692" lon="0.07083">
        <ele>1330.6</ele>
        <time>2018-02-27T14:44:20Z</time>
      </trkpt>
      <trkpt lat="42.89692" lon="0.07078">
        <ele>1330.12</ele>
        <time>2018-02-27T14:44:23Z</time>
      </trkpt>
      <trkpt lat="42.89695" lon="0.07056">
        <ele>1327.24</ele>
        <time>2018-02-27T14:44:39Z</time>
      </trkpt>
      <trkpt lat="42.89697" lon="0.07053">
        <ele>1326.76</ele>
        <time>2018-02-27T14:44:41Z</time>
      </trkpt>
      <trkpt lat="42.89699" lon="0.07045">
        <ele>1325.8</ele>
        <time>2018-02-27T14:44:46Z</time>
      </trkpt>
      <trkpt lat="42.89704" lon="0.07029">
        <ele>1324.83</ele>
        <time>2018-02-27T14:45:02Z</time>
      </trkpt>
      <trkpt lat="42.89707" lon="0.07017">
        <ele>1321.47</ele>
        <time>2018-02-27T14:45:14Z</time>
      </trkpt>
      <trkpt lat="42.89708" lon="0.07008">
        <ele>1317.62</ele>
        <time>2018-02-27T14:45:27Z</time>
      </trkpt>
      <trkpt lat="42.89699" lon="0.06991">
        <ele>1315.22</ele>
        <time>2018-02-27T14:45:41Z</time>
      </trkpt>
      <trkpt lat="42.89698" lon="0.06988">
        <ele>1313.78</ele>
        <time>2018-02-27T14:45:44Z</time>
      </trkpt>
      <trkpt lat="42.89701" lon="0.06974">
        <ele>1309.93</ele>
        <time>2018-02-27T14:45:57Z</time>
      </trkpt>
      <trkpt lat="42.89705" lon="0.06962">
        <ele>1308.49</ele>
        <time>2018-02-27T14:46:10Z</time>
      </trkpt>
      <trkpt lat="42.8971" lon="0.06952">
        <ele>1305.13</ele>
        <time>2018-02-27T14:46:19Z</time>
      </trkpt>
      <trkpt lat="42.8971" lon="0.0695">
        <ele>1304.65</ele>
        <time>2018-02-27T14:46:20Z</time>
      </trkpt>
      <trkpt lat="42.89711" lon="0.06939">
        <ele>1302.24</ele>
        <time>2018-02-27T14:46:31Z</time>
      </trkpt>
      <trkpt lat="42.8971" lon="0.0691">
        <ele>1299.84</ele>
        <time>2018-02-27T14:46:47Z</time>
      </trkpt>
      <trkpt lat="42.89708" lon="0.06887">
        <ele>1296.48</ele>
        <time>2018-02-27T14:47:01Z</time>
      </trkpt>
      <trkpt lat="42.89704" lon="0.06868">
        <ele>1293.11</ele>
        <time>2018-02-27T14:47:13Z</time>
      </trkpt>
      <trkpt lat="42.89701" lon="0.06848">
        <ele>1289.75</ele>
        <time>2018-02-27T14:47:25Z</time>
      </trkpt>
      <trkpt lat="42.897" lon="0.06841">
        <ele>1288.78</ele>
        <time>2018-02-27T14:47:31Z</time>
      </trkpt>
      <trkpt lat="42.89698" lon="0.06824">
        <ele>1285.42</ele>
        <time>2018-02-27T14:47:44Z</time>
      </trkpt>
      <trkpt lat="42.89698" lon="0.06822">
        <ele>1284.46</ele>
        <time>2018-02-27T14:47:46Z</time>
      </trkpt>
      <trkpt lat="42.89694" lon="0.06808">
        <ele>1281.09</ele>
        <time>2018-02-27T14:47:58Z</time>
      </trkpt>
      <trkpt lat="42.89693" lon="0.0679">
        <ele>1277.25</ele>
        <time>2018-02-27T14:48:10Z</time>
      </trkpt>
      <trkpt lat="42.89689" lon="0.06765">
        <ele>1273.88</ele>
        <time>2018-02-27T14:48:26Z</time>
      </trkpt>
      <trkpt lat="42.89682" lon="0.06753">
        <ele>1271.48</ele>
        <time>2018-02-27T14:48:34Z</time>
      </trkpt>
      <trkpt lat="42.89669" lon="0.06745">
        <ele>1268.6</ele>
        <time>2018-02-27T14:48:46Z</time>
      </trkpt>
      <trkpt lat="42.89663" lon="0.06735">
        <ele>1265.23</ele>
        <time>2018-02-27T14:48:58Z</time>
      </trkpt>
      <trkpt lat="42.89658" lon="0.06724">
        <ele>1263.79</ele>
        <time>2018-02-27T14:49:11Z</time>
      </trkpt>
      <trkpt lat="42.89654" lon="0.06716">
        <ele>1262.83</ele>
        <time>2018-02-27T14:49:25Z</time>
      </trkpt>
      <trkpt lat="42.89652" lon="0.06716">
        <ele>1263.31</ele>
        <time>2018-02-27T14:49:48Z</time>
      </trkpt>
      <trkpt lat="42.89652" lon="0.06711">
        <ele>1262.83</ele>
        <time>2018-02-27T14:50:06Z</time>
      </trkpt>
      <trkpt lat="42.89651" lon="0.06707">
        <ele>1261.87</ele>
        <time>2018-02-27T14:50:14Z</time>
      </trkpt>
      <trkpt lat="42.89647" lon="0.06694">
        <ele>1260.43</ele>
        <time>2018-02-27T14:50:26Z</time>
      </trkpt>
      <trkpt lat="42.89643" lon="0.06682">
        <ele>1257.06</ele>
        <time>2018-02-27T14:50:37Z</time>
      </trkpt>
      <trkpt lat="42.89643" lon="0.06681">
        <ele>1257.06</ele>
        <time>2018-02-27T14:50:38Z</time>
      </trkpt>
      <trkpt lat="42.89643" lon="0.06678">
        <ele>1256.1</ele>
        <time>2018-02-27T14:50:42Z</time>
      </trkpt>
      <trkpt lat="42.89651" lon="0.06671">
        <ele>1254.66</ele>
        <time>2018-02-27T14:50:54Z</time>
      </trkpt>
      <trkpt lat="42.89662" lon="0.06645">
        <ele>1251.77</ele>
        <time>2018-02-27T14:51:09Z</time>
      </trkpt>
      <trkpt lat="42.89665" lon="0.06631">
        <ele>1250.33</ele>
        <time>2018-02-27T14:51:18Z</time>
      </trkpt>
      <trkpt lat="42.89667" lon="0.06613">
        <ele>1248.41</ele>
        <time>2018-02-27T14:51:31Z</time>
      </trkpt>
      <trkpt lat="42.89668" lon="0.06611">
        <ele>1247.93</ele>
        <time>2018-02-27T14:51:32Z</time>
      </trkpt>
      <trkpt lat="42.89668" lon="0.06593">
        <ele>1246.01</ele>
        <time>2018-02-27T14:51:44Z</time>
      </trkpt>
      <trkpt lat="42.89651" lon="0.06586">
        <ele>1245.04</ele>
        <time>2018-02-27T14:51:59Z</time>
      </trkpt>
      <trkpt lat="42.8964" lon="0.06582">
        <ele>1244.56</ele>
        <time>2018-02-27T14:52:13Z</time>
      </trkpt>
      <trkpt lat="42.8964" lon="0.06577">
        <ele>1241.68</ele>
        <time>2018-02-27T14:52:25Z</time>
      </trkpt>
      <trkpt lat="42.89639" lon="0.06568">
        <ele>1238.8</ele>
        <time>2018-02-27T14:52:40Z</time>
      </trkpt>
      <trkpt lat="42.89641" lon="0.0657">
        <ele>1236.87</ele>
        <time>2018-02-27T14:52:54Z</time>
      </trkpt>
      <trkpt lat="42.89635" lon="0.06575">
        <ele>1233.99</ele>
        <time>2018-02-27T14:53:05Z</time>
      </trkpt>
      <trkpt lat="42.89636" lon="0.06563">
        <ele>1234.47</ele>
        <time>2018-02-27T14:53:15Z</time>
      </trkpt>
      <trkpt lat="42.89633" lon="0.06563">
        <ele>1237.83</ele>
        <time>2018-02-27T14:53:21Z</time>
      </trkpt>
      <trkpt lat="42.89633" lon="0.06562">
        <ele>1234.47</ele>
        <time>2018-02-27T14:53:22Z</time>
      </trkpt>
      <trkpt lat="42.89633" lon="0.06561">
        <ele>1234.47</ele>
        <time>2018-02-27T14:53:23Z</time>
      </trkpt>
      <trkpt lat="42.89631" lon="0.06547">
        <ele>1233.51</ele>
        <time>2018-02-27T14:53:42Z</time>
      </trkpt>
      <trkpt lat="42.89632" lon="0.0654">
        <ele>1233.51</ele>
        <time>2018-02-27T14:53:48Z</time>
      </trkpt>
      <trkpt lat="42.8962" lon="0.0652">
        <ele>1231.11</ele>
        <time>2018-02-27T14:54:06Z</time>
      </trkpt>
      <trkpt lat="42.89609" lon="0.06502">
        <ele>1229.18</ele>
        <time>2018-02-27T14:54:21Z</time>
      </trkpt>
      <trkpt lat="42.89599" lon="0.06476">
        <ele>1229.66</ele>
        <time>2018-02-27T14:54:39Z</time>
      </trkpt>
      <trkpt lat="42.89597" lon="0.06474">
        <ele>1229.66</ele>
        <time>2018-02-27T14:54:52Z</time>
      </trkpt>
      <trkpt lat="42.89601" lon="0.06474">
        <ele>1228.7</ele>
        <time>2018-02-27T14:55:16Z</time>
      </trkpt>
      <trkpt lat="42.89598" lon="0.06477">
        <ele>1228.7</ele>
        <time>2018-02-27T14:55:33Z</time>
      </trkpt>
      <trkpt lat="42.89594" lon="0.06475">
        <ele>1228.7</ele>
        <time>2018-02-27T14:55:50Z</time>
      </trkpt>
      <trkpt lat="42.89599" lon="0.06467">
        <ele>1228.22</ele>
        <time>2018-02-27T14:56:27Z</time>
      </trkpt>
      <trkpt lat="42.89596" lon="0.06468">
        <ele>1228.7</ele>
        <time>2018-02-27T14:56:53Z</time>
      </trkpt>
      <trkpt lat="42.89599" lon="0.06476">
        <ele>1228.22</ele>
        <time>2018-02-27T14:57:23Z</time>
      </trkpt>
      <trkpt lat="42.89598" lon="0.06475">
        <ele>1228.7</ele>
        <time>2018-02-27T14:57:49Z</time>
      </trkpt>
      <trkpt lat="42.89599" lon="0.06474">
        <ele>1228.22</ele>
        <time>2018-02-27T14:58:15Z</time>
      </trkpt>
      <trkpt lat="42.89603" lon="0.0647">
        <ele>1229.18</ele>
        <time>2018-02-27T14:58:41Z</time>
      </trkpt>
      <trkpt lat="42.89604" lon="0.06468">
        <ele>1225.82</ele>
        <time>2018-02-27T14:58:58Z</time>
      </trkpt>
    </trkseg>
  </trk>
</gpx>